<?xml version="1.0" encoding="UTF-8" standalone="no" ?>
<gpx xmlns="http://www.topografix.com/GPX/1/1" xmlns:xsi="http://www.w3.org/2001/XMLSchema-instance" xsi:schemaLocation="http://www.topografix.com/GPX/1/1 http://www.topografix.com/GPX/1/1/gpx.xsd" version="1.1" creator="VisuGPX - https://www.visugpx.com">
  <metadata>
    <name>De Cuzorn vers les rives du Lot</name>
    <desc><![CDATA[De Cuzorn vers les rives du Lot]]></desc>
  </metadata>
  <trk>
    <name><![CDATA[30-NOV-14 11:38:13]]></name>
    <trkseg>
      <trkpt lat="44.54523" lon="0.94867">
        <ele>99.15</ele>
        <time>2014-11-30T07:33:55Z</time>
      </trkpt>
      <trkpt lat="44.54522" lon="0.94867">
        <ele>98.67</ele>
        <time>2014-11-30T07:34:17Z</time>
      </trkpt>
      <trkpt lat="44.54522" lon="0.94869">
        <ele>100.11</ele>
        <time>2014-11-30T07:34:36Z</time>
      </trkpt>
      <trkpt lat="44.54522" lon="0.9487">
        <ele>99.15</ele>
        <time>2014-11-30T07:34:55Z</time>
      </trkpt>
      <trkpt lat="44.5452" lon="0.9487">
        <ele>98.67</ele>
        <time>2014-11-30T07:35:12Z</time>
      </trkpt>
      <trkpt lat="44.5452" lon="0.94868">
        <ele>98.19</ele>
        <time>2014-11-30T07:35:36Z</time>
      </trkpt>
      <trkpt lat="44.54519" lon="0.94868">
        <ele>94.35</ele>
        <time>2014-11-30T07:36:01Z</time>
      </trkpt>
      <trkpt lat="44.54522" lon="0.94868">
        <ele>96.75</ele>
        <time>2014-11-30T07:36:23Z</time>
      </trkpt>
      <trkpt lat="44.54521" lon="0.94867">
        <ele>97.71</ele>
        <time>2014-11-30T07:36:45Z</time>
      </trkpt>
      <trkpt lat="44.54521" lon="0.94868">
        <ele>96.27</ele>
        <time>2014-11-30T07:37:04Z</time>
      </trkpt>
      <trkpt lat="44.54523" lon="0.94869">
        <ele>96.75</ele>
        <time>2014-11-30T07:37:35Z</time>
      </trkpt>
      <trkpt lat="44.5452" lon="0.94869">
        <ele>97.71</ele>
        <time>2014-11-30T07:37:55Z</time>
      </trkpt>
      <trkpt lat="44.54519" lon="0.94864">
        <ele>96.75</ele>
        <time>2014-11-30T07:37:59Z</time>
      </trkpt>
      <trkpt lat="44.54535" lon="0.94861">
        <ele>96.27</ele>
        <time>2014-11-30T07:38:10Z</time>
      </trkpt>
      <trkpt lat="44.54547" lon="0.94871">
        <ele>96.75</ele>
        <time>2014-11-30T07:38:19Z</time>
      </trkpt>
      <trkpt lat="44.5455" lon="0.94878">
        <ele>96.75</ele>
        <time>2014-11-30T07:38:24Z</time>
      </trkpt>
      <trkpt lat="44.54527" lon="0.94918">
        <ele>96.27</ele>
        <time>2014-11-30T07:38:40Z</time>
      </trkpt>
      <trkpt lat="44.54526" lon="0.94921">
        <ele>96.27</ele>
        <time>2014-11-30T07:38:41Z</time>
      </trkpt>
      <trkpt lat="44.54526" lon="0.94925">
        <ele>96.27</ele>
        <time>2014-11-30T07:38:42Z</time>
      </trkpt>
      <trkpt lat="44.54527" lon="0.94928">
        <ele>96.27</ele>
        <time>2014-11-30T07:38:43Z</time>
      </trkpt>
      <trkpt lat="44.5453" lon="0.9493">
        <ele>96.27</ele>
        <time>2014-11-30T07:38:44Z</time>
      </trkpt>
      <trkpt lat="44.54532" lon="0.9493">
        <ele>96.27</ele>
        <time>2014-11-30T07:38:45Z</time>
      </trkpt>
      <trkpt lat="44.54535" lon="0.94931">
        <ele>96.75</ele>
        <time>2014-11-30T07:38:46Z</time>
      </trkpt>
      <trkpt lat="44.54537" lon="0.94932">
        <ele>96.27</ele>
        <time>2014-11-30T07:38:47Z</time>
      </trkpt>
      <trkpt lat="44.5454" lon="0.94934">
        <ele>96.27</ele>
        <time>2014-11-30T07:38:48Z</time>
      </trkpt>
      <trkpt lat="44.54582" lon="0.94952">
        <ele>93.39</ele>
        <time>2014-11-30T07:39:03Z</time>
      </trkpt>
      <trkpt lat="44.54588" lon="0.94963">
        <ele>93.87</ele>
        <time>2014-11-30T07:39:14Z</time>
      </trkpt>
      <trkpt lat="44.5459" lon="0.94964">
        <ele>93.87</ele>
        <time>2014-11-30T07:39:18Z</time>
      </trkpt>
      <trkpt lat="44.54598" lon="0.94965">
        <ele>95.31</ele>
        <time>2014-11-30T07:39:28Z</time>
      </trkpt>
      <trkpt lat="44.54601" lon="0.94967">
        <ele>95.31</ele>
        <time>2014-11-30T07:39:30Z</time>
      </trkpt>
      <trkpt lat="44.546" lon="0.94995">
        <ele>94.83</ele>
        <time>2014-11-30T07:39:39Z</time>
      </trkpt>
      <trkpt lat="44.54606" lon="0.94998">
        <ele>94.83</ele>
        <time>2014-11-30T07:39:42Z</time>
      </trkpt>
      <trkpt lat="44.54649" lon="0.9499">
        <ele>97.71</ele>
        <time>2014-11-30T07:39:56Z</time>
      </trkpt>
      <trkpt lat="44.54684" lon="0.94991">
        <ele>100.11</ele>
        <time>2014-11-30T07:40:08Z</time>
      </trkpt>
      <trkpt lat="44.54722" lon="0.94989">
        <ele>100.6</ele>
        <time>2014-11-30T07:40:23Z</time>
      </trkpt>
      <trkpt lat="44.54747" lon="0.94978">
        <ele>103</ele>
        <time>2014-11-30T07:40:36Z</time>
      </trkpt>
      <trkpt lat="44.54773" lon="0.94972">
        <ele>108.29</ele>
        <time>2014-11-30T07:40:50Z</time>
      </trkpt>
      <trkpt lat="44.54798" lon="0.94976">
        <ele>110.69</ele>
        <time>2014-11-30T07:41:05Z</time>
      </trkpt>
      <trkpt lat="44.54818" lon="0.9498">
        <ele>115.5</ele>
        <time>2014-11-30T07:41:18Z</time>
      </trkpt>
      <trkpt lat="44.54839" lon="0.94981">
        <ele>119.82</ele>
        <time>2014-11-30T07:41:32Z</time>
      </trkpt>
      <trkpt lat="44.54862" lon="0.94989">
        <ele>121.74</ele>
        <time>2014-11-30T07:41:46Z</time>
      </trkpt>
      <trkpt lat="44.54882" lon="0.94997">
        <ele>123.19</ele>
        <time>2014-11-30T07:42:00Z</time>
      </trkpt>
      <trkpt lat="44.54907" lon="0.95009">
        <ele>126.55</ele>
        <time>2014-11-30T07:42:17Z</time>
      </trkpt>
      <trkpt lat="44.54931" lon="0.95022">
        <ele>131.36</ele>
        <time>2014-11-30T07:42:31Z</time>
      </trkpt>
      <trkpt lat="44.54963" lon="0.95031">
        <ele>129.43</ele>
        <time>2014-11-30T07:42:43Z</time>
      </trkpt>
      <trkpt lat="44.54976" lon="0.95042">
        <ele>128.95</ele>
        <time>2014-11-30T07:42:51Z</time>
      </trkpt>
      <trkpt lat="44.54978" lon="0.95044">
        <ele>128.47</ele>
        <time>2014-11-30T07:42:53Z</time>
      </trkpt>
      <trkpt lat="44.5498" lon="0.95044">
        <ele>127.51</ele>
        <time>2014-11-30T07:42:56Z</time>
      </trkpt>
      <trkpt lat="44.54982" lon="0.95043">
        <ele>127.51</ele>
        <time>2014-11-30T07:42:57Z</time>
      </trkpt>
      <trkpt lat="44.54983" lon="0.95042">
        <ele>127.51</ele>
        <time>2014-11-30T07:42:58Z</time>
      </trkpt>
      <trkpt lat="44.54984" lon="0.95042">
        <ele>127.51</ele>
        <time>2014-11-30T07:42:59Z</time>
      </trkpt>
      <trkpt lat="44.54984" lon="0.95042">
        <ele>127.03</ele>
        <time>2014-11-30T07:43:00Z</time>
      </trkpt>
      <trkpt lat="44.54986" lon="0.95042">
        <ele>127.03</ele>
        <time>2014-11-30T07:43:01Z</time>
      </trkpt>
      <trkpt lat="44.54987" lon="0.95042">
        <ele>127.03</ele>
        <time>2014-11-30T07:43:02Z</time>
      </trkpt>
      <trkpt lat="44.55012" lon="0.95044">
        <ele>124.15</ele>
        <time>2014-11-30T07:43:19Z</time>
      </trkpt>
      <trkpt lat="44.55042" lon="0.95043">
        <ele>123.19</ele>
        <time>2014-11-30T07:43:31Z</time>
      </trkpt>
      <trkpt lat="44.55089" lon="0.9503">
        <ele>121.74</ele>
        <time>2014-11-30T07:43:45Z</time>
      </trkpt>
      <trkpt lat="44.55113" lon="0.95022">
        <ele>121.26</ele>
        <time>2014-11-30T07:43:51Z</time>
      </trkpt>
      <trkpt lat="44.55128" lon="0.95021">
        <ele>120.78</ele>
        <time>2014-11-30T07:43:54Z</time>
      </trkpt>
      <trkpt lat="44.55132" lon="0.95022">
        <ele>120.78</ele>
        <time>2014-11-30T07:43:55Z</time>
      </trkpt>
      <trkpt lat="44.55166" lon="0.9503">
        <ele>117.42</ele>
        <time>2014-11-30T07:44:02Z</time>
      </trkpt>
      <trkpt lat="44.55225" lon="0.95035">
        <ele>113.09</ele>
        <time>2014-11-30T07:44:13Z</time>
      </trkpt>
      <trkpt lat="44.5526" lon="0.95036">
        <ele>108.29</ele>
        <time>2014-11-30T07:44:21Z</time>
      </trkpt>
      <trkpt lat="44.55263" lon="0.95039">
        <ele>107.81</ele>
        <time>2014-11-30T07:44:22Z</time>
      </trkpt>
      <trkpt lat="44.55282" lon="0.95072">
        <ele>107.81</ele>
        <time>2014-11-30T07:44:34Z</time>
      </trkpt>
      <trkpt lat="44.55307" lon="0.95119">
        <ele>111.65</ele>
        <time>2014-11-30T07:44:49Z</time>
      </trkpt>
      <trkpt lat="44.5532" lon="0.95164">
        <ele>112.13</ele>
        <time>2014-11-30T07:45:01Z</time>
      </trkpt>
      <trkpt lat="44.55324" lon="0.95209">
        <ele>113.57</ele>
        <time>2014-11-30T07:45:12Z</time>
      </trkpt>
      <trkpt lat="44.55337" lon="0.95278">
        <ele>111.65</ele>
        <time>2014-11-30T07:45:28Z</time>
      </trkpt>
      <trkpt lat="44.5533" lon="0.95316">
        <ele>111.17</ele>
        <time>2014-11-30T07:45:39Z</time>
      </trkpt>
      <trkpt lat="44.55321" lon="0.95351">
        <ele>110.21</ele>
        <time>2014-11-30T07:45:51Z</time>
      </trkpt>
      <trkpt lat="44.55321" lon="0.95382">
        <ele>111.65</ele>
        <time>2014-11-30T07:46:01Z</time>
      </trkpt>
      <trkpt lat="44.55323" lon="0.95412">
        <ele>116.94</ele>
        <time>2014-11-30T07:46:12Z</time>
      </trkpt>
      <trkpt lat="44.55327" lon="0.95427">
        <ele>117.9</ele>
        <time>2014-11-30T07:46:17Z</time>
      </trkpt>
      <trkpt lat="44.55326" lon="0.95435">
        <ele>119.34</ele>
        <time>2014-11-30T07:46:20Z</time>
      </trkpt>
      <trkpt lat="44.55325" lon="0.95453">
        <ele>118.86</ele>
        <time>2014-11-30T07:46:26Z</time>
      </trkpt>
      <trkpt lat="44.55322" lon="0.95464">
        <ele>118.86</ele>
        <time>2014-11-30T07:46:32Z</time>
      </trkpt>
      <trkpt lat="44.55315" lon="0.95473">
        <ele>118.38</ele>
        <time>2014-11-30T07:46:38Z</time>
      </trkpt>
      <trkpt lat="44.55314" lon="0.95485">
        <ele>118.86</ele>
        <time>2014-11-30T07:46:42Z</time>
      </trkpt>
      <trkpt lat="44.55313" lon="0.95501">
        <ele>118.86</ele>
        <time>2014-11-30T07:46:48Z</time>
      </trkpt>
      <trkpt lat="44.55314" lon="0.95517">
        <ele>122.71</ele>
        <time>2014-11-30T07:46:54Z</time>
      </trkpt>
      <trkpt lat="44.55315" lon="0.95553">
        <ele>123.19</ele>
        <time>2014-11-30T07:47:04Z</time>
      </trkpt>
      <trkpt lat="44.55301" lon="0.95595">
        <ele>120.3</ele>
        <time>2014-11-30T07:47:14Z</time>
      </trkpt>
      <trkpt lat="44.55288" lon="0.95623">
        <ele>118.86</ele>
        <time>2014-11-30T07:47:19Z</time>
      </trkpt>
      <trkpt lat="44.55278" lon="0.95661">
        <ele>117.42</ele>
        <time>2014-11-30T07:47:31Z</time>
      </trkpt>
      <trkpt lat="44.55278" lon="0.95696">
        <ele>117.42</ele>
        <time>2014-11-30T07:47:45Z</time>
      </trkpt>
      <trkpt lat="44.55297" lon="0.95697">
        <ele>117.42</ele>
        <time>2014-11-30T07:47:57Z</time>
      </trkpt>
      <trkpt lat="44.55324" lon="0.95705">
        <ele>117.42</ele>
        <time>2014-11-30T07:48:10Z</time>
      </trkpt>
      <trkpt lat="44.55336" lon="0.95715">
        <ele>117.42</ele>
        <time>2014-11-30T07:48:17Z</time>
      </trkpt>
      <trkpt lat="44.55337" lon="0.95722">
        <ele>117.42</ele>
        <time>2014-11-30T07:48:20Z</time>
      </trkpt>
      <trkpt lat="44.55325" lon="0.9578">
        <ele>115.98</ele>
        <time>2014-11-30T07:48:35Z</time>
      </trkpt>
      <trkpt lat="44.5529" lon="0.95825">
        <ele>117.9</ele>
        <time>2014-11-30T07:48:49Z</time>
      </trkpt>
      <trkpt lat="44.55258" lon="0.95891">
        <ele>117.9</ele>
        <time>2014-11-30T07:49:05Z</time>
      </trkpt>
      <trkpt lat="44.55233" lon="0.95953">
        <ele>120.3</ele>
        <time>2014-11-30T07:49:21Z</time>
      </trkpt>
      <trkpt lat="44.5521" lon="0.96029">
        <ele>123.67</ele>
        <time>2014-11-30T07:49:40Z</time>
      </trkpt>
      <trkpt lat="44.55225" lon="0.96088">
        <ele>124.63</ele>
        <time>2014-11-30T07:49:54Z</time>
      </trkpt>
      <trkpt lat="44.55259" lon="0.9614">
        <ele>123.67</ele>
        <time>2014-11-30T07:50:10Z</time>
      </trkpt>
      <trkpt lat="44.55285" lon="0.96202">
        <ele>123.19</ele>
        <time>2014-11-30T07:50:25Z</time>
      </trkpt>
      <trkpt lat="44.55295" lon="0.96266">
        <ele>124.15</ele>
        <time>2014-11-30T07:50:40Z</time>
      </trkpt>
      <trkpt lat="44.55286" lon="0.96318">
        <ele>127.51</ele>
        <time>2014-11-30T07:50:52Z</time>
      </trkpt>
      <trkpt lat="44.55259" lon="0.96414">
        <ele>132.8</ele>
        <time>2014-11-30T07:51:14Z</time>
      </trkpt>
      <trkpt lat="44.55247" lon="0.96483">
        <ele>131.36</ele>
        <time>2014-11-30T07:51:29Z</time>
      </trkpt>
      <trkpt lat="44.55254" lon="0.96539">
        <ele>125.59</ele>
        <time>2014-11-30T07:51:43Z</time>
      </trkpt>
      <trkpt lat="44.55256" lon="0.9655">
        <ele>123.67</ele>
        <time>2014-11-30T07:51:46Z</time>
      </trkpt>
      <trkpt lat="44.55255" lon="0.96553">
        <ele>123.19</ele>
        <time>2014-11-30T07:51:47Z</time>
      </trkpt>
      <trkpt lat="44.55254" lon="0.96555">
        <ele>123.19</ele>
        <time>2014-11-30T07:51:48Z</time>
      </trkpt>
      <trkpt lat="44.5525" lon="0.96559">
        <ele>122.22</ele>
        <time>2014-11-30T07:51:50Z</time>
      </trkpt>
      <trkpt lat="44.55218" lon="0.96573">
        <ele>119.34</ele>
        <time>2014-11-30T07:52:02Z</time>
      </trkpt>
      <trkpt lat="44.55208" lon="0.96607">
        <ele>119.82</ele>
        <time>2014-11-30T07:52:13Z</time>
      </trkpt>
      <trkpt lat="44.552" lon="0.9665">
        <ele>121.26</ele>
        <time>2014-11-30T07:52:25Z</time>
      </trkpt>
      <trkpt lat="44.55198" lon="0.96704">
        <ele>132.8</ele>
        <time>2014-11-30T07:52:39Z</time>
      </trkpt>
      <trkpt lat="44.55201" lon="0.96735">
        <ele>133.76</ele>
        <time>2014-11-30T07:52:52Z</time>
      </trkpt>
      <trkpt lat="44.55201" lon="0.96738">
        <ele>133.76</ele>
        <time>2014-11-30T07:52:53Z</time>
      </trkpt>
      <trkpt lat="44.55203" lon="0.96768">
        <ele>134.24</ele>
        <time>2014-11-30T07:53:06Z</time>
      </trkpt>
      <trkpt lat="44.55201" lon="0.96809">
        <ele>135.68</ele>
        <time>2014-11-30T07:53:23Z</time>
      </trkpt>
      <trkpt lat="44.55191" lon="0.96847">
        <ele>136.64</ele>
        <time>2014-11-30T07:53:38Z</time>
      </trkpt>
      <trkpt lat="44.55169" lon="0.96871">
        <ele>136.64</ele>
        <time>2014-11-30T07:53:52Z</time>
      </trkpt>
      <trkpt lat="44.55142" lon="0.96897">
        <ele>137.61</ele>
        <time>2014-11-30T07:54:06Z</time>
      </trkpt>
      <trkpt lat="44.55115" lon="0.96901">
        <ele>140.49</ele>
        <time>2014-11-30T07:54:18Z</time>
      </trkpt>
      <trkpt lat="44.55082" lon="0.96901">
        <ele>138.09</ele>
        <time>2014-11-30T07:54:32Z</time>
      </trkpt>
      <trkpt lat="44.55037" lon="0.96897">
        <ele>135.68</ele>
        <time>2014-11-30T07:54:48Z</time>
      </trkpt>
      <trkpt lat="44.55" lon="0.96881">
        <ele>139.53</ele>
        <time>2014-11-30T07:55:02Z</time>
      </trkpt>
      <trkpt lat="44.54962" lon="0.96846">
        <ele>147.7</ele>
        <time>2014-11-30T07:55:19Z</time>
      </trkpt>
      <trkpt lat="44.54938" lon="0.96815">
        <ele>150.1</ele>
        <time>2014-11-30T07:55:31Z</time>
      </trkpt>
      <trkpt lat="44.54919" lon="0.96792">
        <ele>156.83</ele>
        <time>2014-11-30T07:55:44Z</time>
      </trkpt>
      <trkpt lat="44.549" lon="0.96771">
        <ele>162.6</ele>
        <time>2014-11-30T07:55:56Z</time>
      </trkpt>
      <trkpt lat="44.54883" lon="0.96738">
        <ele>167.89</ele>
        <time>2014-11-30T07:56:09Z</time>
      </trkpt>
      <trkpt lat="44.54878" lon="0.96717">
        <ele>172.69</ele>
        <time>2014-11-30T07:56:16Z</time>
      </trkpt>
      <trkpt lat="44.54869" lon="0.96706">
        <ele>176.54</ele>
        <time>2014-11-30T07:56:21Z</time>
      </trkpt>
      <trkpt lat="44.54837" lon="0.96702">
        <ele>176.54</ele>
        <time>2014-11-30T07:56:36Z</time>
      </trkpt>
      <trkpt lat="44.54802" lon="0.96705">
        <ele>175.1</ele>
        <time>2014-11-30T07:56:50Z</time>
      </trkpt>
      <trkpt lat="44.54772" lon="0.96722">
        <ele>171.73</ele>
        <time>2014-11-30T07:57:03Z</time>
      </trkpt>
      <trkpt lat="44.54746" lon="0.96752">
        <ele>165.96</ele>
        <time>2014-11-30T07:57:17Z</time>
      </trkpt>
      <trkpt lat="44.54711" lon="0.96774">
        <ele>165.48</ele>
        <time>2014-11-30T07:57:32Z</time>
      </trkpt>
      <trkpt lat="44.54683" lon="0.96798">
        <ele>167.41</ele>
        <time>2014-11-30T07:57:46Z</time>
      </trkpt>
      <trkpt lat="44.54646" lon="0.96808">
        <ele>171.73</ele>
        <time>2014-11-30T07:58:00Z</time>
      </trkpt>
      <trkpt lat="44.54601" lon="0.96817">
        <ele>183.27</ele>
        <time>2014-11-30T07:58:17Z</time>
      </trkpt>
      <trkpt lat="44.54573" lon="0.96833">
        <ele>190</ele>
        <time>2014-11-30T07:58:33Z</time>
      </trkpt>
      <trkpt lat="44.54566" lon="0.9686">
        <ele>190</ele>
        <time>2014-11-30T07:58:45Z</time>
      </trkpt>
      <trkpt lat="44.54556" lon="0.96898">
        <ele>188.56</ele>
        <time>2014-11-30T07:58:57Z</time>
      </trkpt>
      <trkpt lat="44.5454" lon="0.96963">
        <ele>184.23</ele>
        <time>2014-11-30T07:59:09Z</time>
      </trkpt>
      <trkpt lat="44.54513" lon="0.9706">
        <ele>178.94</ele>
        <time>2014-11-30T07:59:20Z</time>
      </trkpt>
      <trkpt lat="44.5448" lon="0.9716">
        <ele>177.98</ele>
        <time>2014-11-30T07:59:33Z</time>
      </trkpt>
      <trkpt lat="44.5445" lon="0.97212">
        <ele>181.83</ele>
        <time>2014-11-30T07:59:45Z</time>
      </trkpt>
      <trkpt lat="44.54415" lon="0.97268">
        <ele>181.83</ele>
        <time>2014-11-30T07:59:59Z</time>
      </trkpt>
      <trkpt lat="44.54405" lon="0.9729">
        <ele>181.35</ele>
        <time>2014-11-30T08:00:03Z</time>
      </trkpt>
      <trkpt lat="44.54402" lon="0.97295">
        <ele>181.35</ele>
        <time>2014-11-30T08:00:04Z</time>
      </trkpt>
      <trkpt lat="44.54395" lon="0.97304">
        <ele>181.35</ele>
        <time>2014-11-30T08:00:06Z</time>
      </trkpt>
      <trkpt lat="44.54341" lon="0.97356">
        <ele>183.27</ele>
        <time>2014-11-30T08:00:19Z</time>
      </trkpt>
      <trkpt lat="44.54337" lon="0.9736">
        <ele>183.27</ele>
        <time>2014-11-30T08:00:20Z</time>
      </trkpt>
      <trkpt lat="44.54272" lon="0.97416">
        <ele>185.67</ele>
        <time>2014-11-30T08:00:37Z</time>
      </trkpt>
      <trkpt lat="44.54237" lon="0.97451">
        <ele>187.11</ele>
        <time>2014-11-30T08:00:48Z</time>
      </trkpt>
      <trkpt lat="44.54188" lon="0.97518">
        <ele>184.23</ele>
        <time>2014-11-30T08:01:00Z</time>
      </trkpt>
      <trkpt lat="44.54165" lon="0.97544">
        <ele>182.79</ele>
        <time>2014-11-30T08:01:05Z</time>
      </trkpt>
      <trkpt lat="44.54159" lon="0.97554">
        <ele>182.31</ele>
        <time>2014-11-30T08:01:07Z</time>
      </trkpt>
      <trkpt lat="44.54153" lon="0.97575">
        <ele>182.31</ele>
        <time>2014-11-30T08:01:12Z</time>
      </trkpt>
      <trkpt lat="44.54154" lon="0.97578">
        <ele>182.31</ele>
        <time>2014-11-30T08:01:13Z</time>
      </trkpt>
      <trkpt lat="44.54156" lon="0.97581">
        <ele>182.31</ele>
        <time>2014-11-30T08:01:14Z</time>
      </trkpt>
      <trkpt lat="44.54159" lon="0.97582">
        <ele>182.31</ele>
        <time>2014-11-30T08:01:15Z</time>
      </trkpt>
      <trkpt lat="44.54162" lon="0.97582">
        <ele>182.79</ele>
        <time>2014-11-30T08:01:16Z</time>
      </trkpt>
      <trkpt lat="44.54165" lon="0.97583">
        <ele>182.79</ele>
        <time>2014-11-30T08:01:17Z</time>
      </trkpt>
      <trkpt lat="44.54206" lon="0.97605">
        <ele>189.04</ele>
        <time>2014-11-30T08:01:31Z</time>
      </trkpt>
      <trkpt lat="44.54235" lon="0.97657">
        <ele>191.92</ele>
        <time>2014-11-30T08:01:44Z</time>
      </trkpt>
      <trkpt lat="44.54258" lon="0.97717">
        <ele>193.84</ele>
        <time>2014-11-30T08:01:58Z</time>
      </trkpt>
      <trkpt lat="44.54279" lon="0.97777">
        <ele>193.84</ele>
        <time>2014-11-30T08:02:13Z</time>
      </trkpt>
      <trkpt lat="44.54287" lon="0.97851">
        <ele>197.21</ele>
        <time>2014-11-30T08:02:29Z</time>
      </trkpt>
      <trkpt lat="44.54293" lon="0.97921">
        <ele>200.09</ele>
        <time>2014-11-30T08:02:46Z</time>
      </trkpt>
      <trkpt lat="44.54311" lon="0.97975">
        <ele>200.57</ele>
        <time>2014-11-30T08:03:01Z</time>
      </trkpt>
      <trkpt lat="44.54337" lon="0.9804">
        <ele>198.17</ele>
        <time>2014-11-30T08:03:16Z</time>
      </trkpt>
      <trkpt lat="44.54372" lon="0.9807">
        <ele>198.65</ele>
        <time>2014-11-30T08:03:27Z</time>
      </trkpt>
      <trkpt lat="44.54424" lon="0.98116">
        <ele>197.69</ele>
        <time>2014-11-30T08:03:40Z</time>
      </trkpt>
      <trkpt lat="44.5443" lon="0.98125">
        <ele>197.69</ele>
        <time>2014-11-30T08:03:42Z</time>
      </trkpt>
      <trkpt lat="44.54442" lon="0.98157">
        <ele>198.65</ele>
        <time>2014-11-30T08:03:49Z</time>
      </trkpt>
      <trkpt lat="44.5444" lon="0.98161">
        <ele>198.65</ele>
        <time>2014-11-30T08:03:50Z</time>
      </trkpt>
      <trkpt lat="44.54436" lon="0.98165">
        <ele>198.65</ele>
        <time>2014-11-30T08:03:51Z</time>
      </trkpt>
      <trkpt lat="44.54433" lon="0.98169">
        <ele>198.65</ele>
        <time>2014-11-30T08:03:52Z</time>
      </trkpt>
      <trkpt lat="44.54429" lon="0.98173">
        <ele>198.65</ele>
        <time>2014-11-30T08:03:53Z</time>
      </trkpt>
      <trkpt lat="44.54425" lon="0.98176">
        <ele>198.17</ele>
        <time>2014-11-30T08:03:54Z</time>
      </trkpt>
      <trkpt lat="44.54422" lon="0.98178">
        <ele>198.17</ele>
        <time>2014-11-30T08:03:55Z</time>
      </trkpt>
      <trkpt lat="44.54418" lon="0.98179">
        <ele>198.65</ele>
        <time>2014-11-30T08:03:56Z</time>
      </trkpt>
      <trkpt lat="44.54408" lon="0.98183">
        <ele>198.65</ele>
        <time>2014-11-30T08:03:59Z</time>
      </trkpt>
      <trkpt lat="44.54403" lon="0.98184">
        <ele>198.65</ele>
        <time>2014-11-30T08:04:00Z</time>
      </trkpt>
      <trkpt lat="44.54372" lon="0.98195">
        <ele>198.17</ele>
        <time>2014-11-30T08:04:07Z</time>
      </trkpt>
      <trkpt lat="44.54358" lon="0.98203">
        <ele>196.73</ele>
        <time>2014-11-30T08:04:10Z</time>
      </trkpt>
      <trkpt lat="44.54353" lon="0.98208">
        <ele>196.25</ele>
        <time>2014-11-30T08:04:11Z</time>
      </trkpt>
      <trkpt lat="44.54348" lon="0.98214">
        <ele>195.28</ele>
        <time>2014-11-30T08:04:12Z</time>
      </trkpt>
      <trkpt lat="44.54343" lon="0.9822">
        <ele>194.8</ele>
        <time>2014-11-30T08:04:13Z</time>
      </trkpt>
      <trkpt lat="44.54338" lon="0.98227">
        <ele>193.84</ele>
        <time>2014-11-30T08:04:14Z</time>
      </trkpt>
      <trkpt lat="44.54334" lon="0.98234">
        <ele>193.36</ele>
        <time>2014-11-30T08:04:15Z</time>
      </trkpt>
      <trkpt lat="44.5433" lon="0.98243">
        <ele>192.4</ele>
        <time>2014-11-30T08:04:16Z</time>
      </trkpt>
      <trkpt lat="44.54328" lon="0.98252">
        <ele>191.92</ele>
        <time>2014-11-30T08:04:17Z</time>
      </trkpt>
      <trkpt lat="44.54325" lon="0.98261">
        <ele>190.96</ele>
        <time>2014-11-30T08:04:18Z</time>
      </trkpt>
      <trkpt lat="44.54324" lon="0.9827">
        <ele>190.48</ele>
        <time>2014-11-30T08:04:19Z</time>
      </trkpt>
      <trkpt lat="44.54323" lon="0.98279">
        <ele>190</ele>
        <time>2014-11-30T08:04:20Z</time>
      </trkpt>
      <trkpt lat="44.54322" lon="0.98288">
        <ele>189.52</ele>
        <time>2014-11-30T08:04:21Z</time>
      </trkpt>
      <trkpt lat="44.54322" lon="0.98297">
        <ele>189.04</ele>
        <time>2014-11-30T08:04:22Z</time>
      </trkpt>
      <trkpt lat="44.54322" lon="0.98306">
        <ele>188.08</ele>
        <time>2014-11-30T08:04:23Z</time>
      </trkpt>
      <trkpt lat="44.54321" lon="0.98326">
        <ele>186.63</ele>
        <time>2014-11-30T08:04:25Z</time>
      </trkpt>
      <trkpt lat="44.54319" lon="0.98335">
        <ele>186.15</ele>
        <time>2014-11-30T08:04:26Z</time>
      </trkpt>
      <trkpt lat="44.54317" lon="0.98344">
        <ele>185.19</ele>
        <time>2014-11-30T08:04:27Z</time>
      </trkpt>
      <trkpt lat="44.54313" lon="0.98352">
        <ele>184.71</ele>
        <time>2014-11-30T08:04:28Z</time>
      </trkpt>
      <trkpt lat="44.54307" lon="0.98359">
        <ele>184.23</ele>
        <time>2014-11-30T08:04:29Z</time>
      </trkpt>
      <trkpt lat="44.54301" lon="0.98364">
        <ele>183.75</ele>
        <time>2014-11-30T08:04:30Z</time>
      </trkpt>
      <trkpt lat="44.54295" lon="0.98369">
        <ele>182.79</ele>
        <time>2014-11-30T08:04:31Z</time>
      </trkpt>
      <trkpt lat="44.54289" lon="0.98372">
        <ele>182.31</ele>
        <time>2014-11-30T08:04:32Z</time>
      </trkpt>
      <trkpt lat="44.54277" lon="0.98379">
        <ele>181.35</ele>
        <time>2014-11-30T08:04:34Z</time>
      </trkpt>
      <trkpt lat="44.54271" lon="0.98384">
        <ele>180.38</ele>
        <time>2014-11-30T08:04:35Z</time>
      </trkpt>
      <trkpt lat="44.54254" lon="0.98401">
        <ele>178.94</ele>
        <time>2014-11-30T08:04:38Z</time>
      </trkpt>
      <trkpt lat="44.54222" lon="0.98451">
        <ele>176.06</ele>
        <time>2014-11-30T08:04:45Z</time>
      </trkpt>
      <trkpt lat="44.54219" lon="0.98457">
        <ele>175.58</ele>
        <time>2014-11-30T08:04:46Z</time>
      </trkpt>
      <trkpt lat="44.54215" lon="0.98476">
        <ele>174.14</ele>
        <time>2014-11-30T08:04:49Z</time>
      </trkpt>
      <trkpt lat="44.54215" lon="0.98483">
        <ele>173.66</ele>
        <time>2014-11-30T08:04:50Z</time>
      </trkpt>
      <trkpt lat="44.54215" lon="0.98489">
        <ele>173.17</ele>
        <time>2014-11-30T08:04:51Z</time>
      </trkpt>
      <trkpt lat="44.54216" lon="0.98496">
        <ele>172.69</ele>
        <time>2014-11-30T08:04:52Z</time>
      </trkpt>
      <trkpt lat="44.54217" lon="0.98502">
        <ele>171.73</ele>
        <time>2014-11-30T08:04:53Z</time>
      </trkpt>
      <trkpt lat="44.54219" lon="0.98508">
        <ele>171.25</ele>
        <time>2014-11-30T08:04:54Z</time>
      </trkpt>
      <trkpt lat="44.54245" lon="0.9859">
        <ele>165.96</ele>
        <time>2014-11-30T08:05:10Z</time>
      </trkpt>
      <trkpt lat="44.54245" lon="0.98595">
        <ele>165.96</ele>
        <time>2014-11-30T08:05:12Z</time>
      </trkpt>
      <trkpt lat="44.5424" lon="0.98599">
        <ele>165.48</ele>
        <time>2014-11-30T08:05:14Z</time>
      </trkpt>
      <trkpt lat="44.54217" lon="0.98615">
        <ele>161.64</ele>
        <time>2014-11-30T08:05:20Z</time>
      </trkpt>
      <trkpt lat="44.54195" lon="0.98634">
        <ele>157.31</ele>
        <time>2014-11-30T08:05:24Z</time>
      </trkpt>
      <trkpt lat="44.54183" lon="0.98663">
        <ele>153.47</ele>
        <time>2014-11-30T08:05:28Z</time>
      </trkpt>
      <trkpt lat="44.54156" lon="0.98705">
        <ele>148.66</ele>
        <time>2014-11-30T08:05:36Z</time>
      </trkpt>
      <trkpt lat="44.54149" lon="0.98714">
        <ele>147.7</ele>
        <time>2014-11-30T08:05:38Z</time>
      </trkpt>
      <trkpt lat="44.54133" lon="0.9873">
        <ele>144.34</ele>
        <time>2014-11-30T08:05:42Z</time>
      </trkpt>
      <trkpt lat="44.54125" lon="0.98739">
        <ele>142.41</ele>
        <time>2014-11-30T08:05:44Z</time>
      </trkpt>
      <trkpt lat="44.54105" lon="0.9877">
        <ele>137.61</ele>
        <time>2014-11-30T08:05:50Z</time>
      </trkpt>
      <trkpt lat="44.54097" lon="0.9878">
        <ele>136.64</ele>
        <time>2014-11-30T08:05:52Z</time>
      </trkpt>
      <trkpt lat="44.5407" lon="0.98801">
        <ele>134.24</ele>
        <time>2014-11-30T08:05:58Z</time>
      </trkpt>
      <trkpt lat="44.54045" lon="0.98814">
        <ele>133.76</ele>
        <time>2014-11-30T08:06:03Z</time>
      </trkpt>
      <trkpt lat="44.54033" lon="0.98819">
        <ele>134.24</ele>
        <time>2014-11-30T08:06:05Z</time>
      </trkpt>
      <trkpt lat="44.54002" lon="0.98843">
        <ele>135.68</ele>
        <time>2014-11-30T08:06:11Z</time>
      </trkpt>
      <trkpt lat="44.53949" lon="0.98892">
        <ele>137.61</ele>
        <time>2014-11-30T08:06:25Z</time>
      </trkpt>
      <trkpt lat="44.53947" lon="0.98893">
        <ele>138.09</ele>
        <time>2014-11-30T08:06:26Z</time>
      </trkpt>
      <trkpt lat="44.53941" lon="0.98903">
        <ele>140.97</ele>
        <time>2014-11-30T08:06:31Z</time>
      </trkpt>
      <trkpt lat="44.53945" lon="0.98922">
        <ele>145.3</ele>
        <time>2014-11-30T08:06:40Z</time>
      </trkpt>
      <trkpt lat="44.53931" lon="0.98939">
        <ele>148.66</ele>
        <time>2014-11-30T08:06:51Z</time>
      </trkpt>
      <trkpt lat="44.53921" lon="0.98944">
        <ele>152.99</ele>
        <time>2014-11-30T08:07:04Z</time>
      </trkpt>
      <trkpt lat="44.53919" lon="0.98947">
        <ele>157.31</ele>
        <time>2014-11-30T08:07:13Z</time>
      </trkpt>
      <trkpt lat="44.53911" lon="0.9895">
        <ele>156.83</ele>
        <time>2014-11-30T08:07:17Z</time>
      </trkpt>
      <trkpt lat="44.53876" lon="0.98961">
        <ele>154.91</ele>
        <time>2014-11-30T08:07:28Z</time>
      </trkpt>
      <trkpt lat="44.53871" lon="0.98966">
        <ele>154.91</ele>
        <time>2014-11-30T08:07:30Z</time>
      </trkpt>
      <trkpt lat="44.53868" lon="0.98977">
        <ele>153.95</ele>
        <time>2014-11-30T08:07:34Z</time>
      </trkpt>
      <trkpt lat="44.53873" lon="0.98982">
        <ele>157.31</ele>
        <time>2014-11-30T08:07:40Z</time>
      </trkpt>
      <trkpt lat="44.53878" lon="0.99001">
        <ele>162.6</ele>
        <time>2014-11-30T08:07:51Z</time>
      </trkpt>
      <trkpt lat="44.53879" lon="0.99004">
        <ele>163.56</ele>
        <time>2014-11-30T08:07:53Z</time>
      </trkpt>
      <trkpt lat="44.5389" lon="0.99019">
        <ele>172.21</ele>
        <time>2014-11-30T08:08:07Z</time>
      </trkpt>
      <trkpt lat="44.53906" lon="0.99017">
        <ele>180.87</ele>
        <time>2014-11-30T08:08:22Z</time>
      </trkpt>
      <trkpt lat="44.53908" lon="0.99016">
        <ele>180.87</ele>
        <time>2014-11-30T08:08:24Z</time>
      </trkpt>
      <trkpt lat="44.53929" lon="0.99016">
        <ele>183.27</ele>
        <time>2014-11-30T08:08:38Z</time>
      </trkpt>
      <trkpt lat="44.53934" lon="0.99016">
        <ele>184.23</ele>
        <time>2014-11-30T08:08:42Z</time>
      </trkpt>
      <trkpt lat="44.53949" lon="0.99019">
        <ele>188.56</ele>
        <time>2014-11-30T08:08:55Z</time>
      </trkpt>
      <trkpt lat="44.53952" lon="0.99022">
        <ele>189.04</ele>
        <time>2014-11-30T08:08:58Z</time>
      </trkpt>
      <trkpt lat="44.53952" lon="0.99025">
        <ele>189.04</ele>
        <time>2014-11-30T08:09:00Z</time>
      </trkpt>
      <trkpt lat="44.53951" lon="0.99034">
        <ele>188.08</ele>
        <time>2014-11-30T08:09:05Z</time>
      </trkpt>
      <trkpt lat="44.53948" lon="0.99043">
        <ele>187.11</ele>
        <time>2014-11-30T08:09:11Z</time>
      </trkpt>
      <trkpt lat="44.53938" lon="0.99065">
        <ele>189.52</ele>
        <time>2014-11-30T08:09:28Z</time>
      </trkpt>
      <trkpt lat="44.53931" lon="0.99077">
        <ele>188.08</ele>
        <time>2014-11-30T08:09:37Z</time>
      </trkpt>
      <trkpt lat="44.53914" lon="0.99098">
        <ele>189.04</ele>
        <time>2014-11-30T08:09:52Z</time>
      </trkpt>
      <trkpt lat="44.53898" lon="0.99116">
        <ele>188.08</ele>
        <time>2014-11-30T08:10:07Z</time>
      </trkpt>
      <trkpt lat="44.53884" lon="0.99125">
        <ele>189.52</ele>
        <time>2014-11-30T08:10:18Z</time>
      </trkpt>
      <trkpt lat="44.53881" lon="0.99129">
        <ele>189.04</ele>
        <time>2014-11-30T08:10:22Z</time>
      </trkpt>
      <trkpt lat="44.53857" lon="0.99144">
        <ele>191.44</ele>
        <time>2014-11-30T08:10:37Z</time>
      </trkpt>
      <trkpt lat="44.53851" lon="0.9915">
        <ele>191.44</ele>
        <time>2014-11-30T08:10:41Z</time>
      </trkpt>
      <trkpt lat="44.53846" lon="0.99153">
        <ele>191.92</ele>
        <time>2014-11-30T08:10:44Z</time>
      </trkpt>
      <trkpt lat="44.53842" lon="0.99158">
        <ele>191.44</ele>
        <time>2014-11-30T08:10:49Z</time>
      </trkpt>
      <trkpt lat="44.53835" lon="0.99163">
        <ele>191.44</ele>
        <time>2014-11-30T08:10:53Z</time>
      </trkpt>
      <trkpt lat="44.53815" lon="0.99167">
        <ele>194.8</ele>
        <time>2014-11-30T08:11:06Z</time>
      </trkpt>
      <trkpt lat="44.53805" lon="0.99166">
        <ele>196.25</ele>
        <time>2014-11-30T08:11:13Z</time>
      </trkpt>
      <trkpt lat="44.53799" lon="0.99166">
        <ele>197.21</ele>
        <time>2014-11-30T08:11:17Z</time>
      </trkpt>
      <trkpt lat="44.53781" lon="0.99164">
        <ele>201.05</ele>
        <time>2014-11-30T08:11:31Z</time>
      </trkpt>
      <trkpt lat="44.53759" lon="0.99155">
        <ele>206.82</ele>
        <time>2014-11-30T08:11:48Z</time>
      </trkpt>
      <trkpt lat="44.53747" lon="0.99152">
        <ele>208.74</ele>
        <time>2014-11-30T08:11:57Z</time>
      </trkpt>
      <trkpt lat="44.53739" lon="0.99169">
        <ele>210.67</ele>
        <time>2014-11-30T08:12:11Z</time>
      </trkpt>
      <trkpt lat="44.53742" lon="0.99195">
        <ele>211.15</ele>
        <time>2014-11-30T08:12:26Z</time>
      </trkpt>
      <trkpt lat="44.53749" lon="0.99221">
        <ele>212.59</ele>
        <time>2014-11-30T08:12:40Z</time>
      </trkpt>
      <trkpt lat="44.53749" lon="0.99224">
        <ele>213.07</ele>
        <time>2014-11-30T08:12:42Z</time>
      </trkpt>
      <trkpt lat="44.53753" lon="0.99232">
        <ele>215.95</ele>
        <time>2014-11-30T08:12:57Z</time>
      </trkpt>
      <trkpt lat="44.53756" lon="0.99235">
        <ele>214.99</ele>
        <time>2014-11-30T08:13:18Z</time>
      </trkpt>
      <trkpt lat="44.53757" lon="0.99235">
        <ele>214.99</ele>
        <time>2014-11-30T08:13:19Z</time>
      </trkpt>
      <trkpt lat="44.53764" lon="0.99238">
        <ele>214.99</ele>
        <time>2014-11-30T08:13:24Z</time>
      </trkpt>
      <trkpt lat="44.53802" lon="0.99253">
        <ele>213.07</ele>
        <time>2014-11-30T08:13:38Z</time>
      </trkpt>
      <trkpt lat="44.53812" lon="0.99258">
        <ele>210.67</ele>
        <time>2014-11-30T08:13:47Z</time>
      </trkpt>
      <trkpt lat="44.53817" lon="0.99263">
        <ele>205.86</ele>
        <time>2014-11-30T08:14:05Z</time>
      </trkpt>
      <trkpt lat="44.53821" lon="0.99268">
        <ele>205.38</ele>
        <time>2014-11-30T08:14:09Z</time>
      </trkpt>
      <trkpt lat="44.53843" lon="0.9928">
        <ele>208.26</ele>
        <time>2014-11-30T08:14:22Z</time>
      </trkpt>
      <trkpt lat="44.53863" lon="0.99288">
        <ele>211.63</ele>
        <time>2014-11-30T08:14:32Z</time>
      </trkpt>
      <trkpt lat="44.53876" lon="0.99287">
        <ele>213.07</ele>
        <time>2014-11-30T08:14:38Z</time>
      </trkpt>
      <trkpt lat="44.5388" lon="0.99286">
        <ele>214.51</ele>
        <time>2014-11-30T08:14:40Z</time>
      </trkpt>
      <trkpt lat="44.53884" lon="0.99295">
        <ele>215.47</ele>
        <time>2014-11-30T08:14:45Z</time>
      </trkpt>
      <trkpt lat="44.53872" lon="0.99342">
        <ele>214.99</ele>
        <time>2014-11-30T08:15:00Z</time>
      </trkpt>
      <trkpt lat="44.53853" lon="0.99373">
        <ele>215.95</ele>
        <time>2014-11-30T08:15:13Z</time>
      </trkpt>
      <trkpt lat="44.53837" lon="0.99373">
        <ele>215.47</ele>
        <time>2014-11-30T08:15:18Z</time>
      </trkpt>
      <trkpt lat="44.53833" lon="0.99371">
        <ele>214.99</ele>
        <time>2014-11-30T08:15:19Z</time>
      </trkpt>
      <trkpt lat="44.53829" lon="0.99369">
        <ele>214.03</ele>
        <time>2014-11-30T08:15:20Z</time>
      </trkpt>
      <trkpt lat="44.53782" lon="0.99349">
        <ele>209.22</ele>
        <time>2014-11-30T08:15:33Z</time>
      </trkpt>
      <trkpt lat="44.53779" lon="0.99352">
        <ele>209.22</ele>
        <time>2014-11-30T08:15:34Z</time>
      </trkpt>
      <trkpt lat="44.53775" lon="0.99361">
        <ele>208.74</ele>
        <time>2014-11-30T08:15:36Z</time>
      </trkpt>
      <trkpt lat="44.53765" lon="0.99415">
        <ele>205.86</ele>
        <time>2014-11-30T08:15:46Z</time>
      </trkpt>
      <trkpt lat="44.53769" lon="0.99448">
        <ele>202.49</ele>
        <time>2014-11-30T08:15:51Z</time>
      </trkpt>
      <trkpt lat="44.53777" lon="0.99477">
        <ele>199.61</ele>
        <time>2014-11-30T08:15:55Z</time>
      </trkpt>
      <trkpt lat="44.53797" lon="0.99533">
        <ele>194.32</ele>
        <time>2014-11-30T08:16:03Z</time>
      </trkpt>
      <trkpt lat="44.53802" lon="0.99552">
        <ele>191.92</ele>
        <time>2014-11-30T08:16:06Z</time>
      </trkpt>
      <trkpt lat="44.53802" lon="0.99572">
        <ele>190</ele>
        <time>2014-11-30T08:16:09Z</time>
      </trkpt>
      <trkpt lat="44.53798" lon="0.9959">
        <ele>188.56</ele>
        <time>2014-11-30T08:16:12Z</time>
      </trkpt>
      <trkpt lat="44.53794" lon="0.99601">
        <ele>188.08</ele>
        <time>2014-11-30T08:16:14Z</time>
      </trkpt>
      <trkpt lat="44.53784" lon="0.99631">
        <ele>186.63</ele>
        <time>2014-11-30T08:16:19Z</time>
      </trkpt>
      <trkpt lat="44.53786" lon="0.99665">
        <ele>184.23</ele>
        <time>2014-11-30T08:16:24Z</time>
      </trkpt>
      <trkpt lat="44.5379" lon="0.99713">
        <ele>175.58</ele>
        <time>2014-11-30T08:16:33Z</time>
      </trkpt>
      <trkpt lat="44.5379" lon="0.99718">
        <ele>175.1</ele>
        <time>2014-11-30T08:16:34Z</time>
      </trkpt>
      <trkpt lat="44.53781" lon="0.99737">
        <ele>172.69</ele>
        <time>2014-11-30T08:16:38Z</time>
      </trkpt>
      <trkpt lat="44.5377" lon="0.99754">
        <ele>170.29</ele>
        <time>2014-11-30T08:16:41Z</time>
      </trkpt>
      <trkpt lat="44.53751" lon="0.99772">
        <ele>166.93</ele>
        <time>2014-11-30T08:16:45Z</time>
      </trkpt>
      <trkpt lat="44.5372" lon="0.99808">
        <ele>163.56</ele>
        <time>2014-11-30T08:16:51Z</time>
      </trkpt>
      <trkpt lat="44.5369" lon="0.9985">
        <ele>161.16</ele>
        <time>2014-11-30T08:16:59Z</time>
      </trkpt>
      <trkpt lat="44.53676" lon="0.99885">
        <ele>159.72</ele>
        <time>2014-11-30T08:17:10Z</time>
      </trkpt>
      <trkpt lat="44.53653" lon="0.99935">
        <ele>161.16</ele>
        <time>2014-11-30T08:17:23Z</time>
      </trkpt>
      <trkpt lat="44.53638" lon="0.99989">
        <ele>160.68</ele>
        <time>2014-11-30T08:17:37Z</time>
      </trkpt>
      <trkpt lat="44.53635" lon="1.00023">
        <ele>158.75</ele>
        <time>2014-11-30T08:17:45Z</time>
      </trkpt>
      <trkpt lat="44.53628" lon="1.00033">
        <ele>158.75</ele>
        <time>2014-11-30T08:17:49Z</time>
      </trkpt>
      <trkpt lat="44.53596" lon="1.00076">
        <ele>160.68</ele>
        <time>2014-11-30T08:18:02Z</time>
      </trkpt>
      <trkpt lat="44.53562" lon="1.00093">
        <ele>161.16</ele>
        <time>2014-11-30T08:18:14Z</time>
      </trkpt>
      <trkpt lat="44.53522" lon="1.00115">
        <ele>158.27</ele>
        <time>2014-11-30T08:18:29Z</time>
      </trkpt>
      <trkpt lat="44.53482" lon="1.00149">
        <ele>156.35</ele>
        <time>2014-11-30T08:18:42Z</time>
      </trkpt>
      <trkpt lat="44.53444" lon="1.00168">
        <ele>159.24</ele>
        <time>2014-11-30T08:18:55Z</time>
      </trkpt>
      <trkpt lat="44.53402" lon="1.00181">
        <ele>159.24</ele>
        <time>2014-11-30T08:19:09Z</time>
      </trkpt>
      <trkpt lat="44.53364" lon="1.00198">
        <ele>157.79</ele>
        <time>2014-11-30T08:19:20Z</time>
      </trkpt>
      <trkpt lat="44.53355" lon="1.00199">
        <ele>157.31</ele>
        <time>2014-11-30T08:19:22Z</time>
      </trkpt>
      <trkpt lat="44.53349" lon="1.00199">
        <ele>156.83</ele>
        <time>2014-11-30T08:19:23Z</time>
      </trkpt>
      <trkpt lat="44.53344" lon="1.00199">
        <ele>156.35</ele>
        <time>2014-11-30T08:19:24Z</time>
      </trkpt>
      <trkpt lat="44.53298" lon="1.00199">
        <ele>155.87</ele>
        <time>2014-11-30T08:19:33Z</time>
      </trkpt>
      <trkpt lat="44.53294" lon="1.00201">
        <ele>156.35</ele>
        <time>2014-11-30T08:19:34Z</time>
      </trkpt>
      <trkpt lat="44.5329" lon="1.00202">
        <ele>156.35</ele>
        <time>2014-11-30T08:19:35Z</time>
      </trkpt>
      <trkpt lat="44.53279" lon="1.00208">
        <ele>155.39</ele>
        <time>2014-11-30T08:19:38Z</time>
      </trkpt>
      <trkpt lat="44.53239" lon="1.00239">
        <ele>156.83</ele>
        <time>2014-11-30T08:19:51Z</time>
      </trkpt>
      <trkpt lat="44.53181" lon="1.00261">
        <ele>153.95</ele>
        <time>2014-11-30T08:20:02Z</time>
      </trkpt>
      <trkpt lat="44.53118" lon="1.00278">
        <ele>149.62</ele>
        <time>2014-11-30T08:20:11Z</time>
      </trkpt>
      <trkpt lat="44.5311" lon="1.00278">
        <ele>149.14</ele>
        <time>2014-11-30T08:20:12Z</time>
      </trkpt>
      <trkpt lat="44.53002" lon="1.0026">
        <ele>140.01</ele>
        <time>2014-11-30T08:20:25Z</time>
      </trkpt>
      <trkpt lat="44.52972" lon="1.00251">
        <ele>137.61</ele>
        <time>2014-11-30T08:20:30Z</time>
      </trkpt>
      <trkpt lat="44.52967" lon="1.00251">
        <ele>137.13</ele>
        <time>2014-11-30T08:20:31Z</time>
      </trkpt>
      <trkpt lat="44.52963" lon="1.00253">
        <ele>136.64</ele>
        <time>2014-11-30T08:20:32Z</time>
      </trkpt>
      <trkpt lat="44.52959" lon="1.00256">
        <ele>135.68</ele>
        <time>2014-11-30T08:20:33Z</time>
      </trkpt>
      <trkpt lat="44.52954" lon="1.00261">
        <ele>135.2</ele>
        <time>2014-11-30T08:20:34Z</time>
      </trkpt>
      <trkpt lat="44.52951" lon="1.00267">
        <ele>134.72</ele>
        <time>2014-11-30T08:20:35Z</time>
      </trkpt>
      <trkpt lat="44.52947" lon="1.00273">
        <ele>134.24</ele>
        <time>2014-11-30T08:20:36Z</time>
      </trkpt>
      <trkpt lat="44.52945" lon="1.0028">
        <ele>133.76</ele>
        <time>2014-11-30T08:20:37Z</time>
      </trkpt>
      <trkpt lat="44.52943" lon="1.00286">
        <ele>133.28</ele>
        <time>2014-11-30T08:20:38Z</time>
      </trkpt>
      <trkpt lat="44.52941" lon="1.00292">
        <ele>132.8</ele>
        <time>2014-11-30T08:20:39Z</time>
      </trkpt>
      <trkpt lat="44.52936" lon="1.00314">
        <ele>131.36</ele>
        <time>2014-11-30T08:20:42Z</time>
      </trkpt>
      <trkpt lat="44.52934" lon="1.00322">
        <ele>130.4</ele>
        <time>2014-11-30T08:20:43Z</time>
      </trkpt>
      <trkpt lat="44.52931" lon="1.00349">
        <ele>128.47</ele>
        <time>2014-11-30T08:20:46Z</time>
      </trkpt>
      <trkpt lat="44.52931" lon="1.00358">
        <ele>127.99</ele>
        <time>2014-11-30T08:20:47Z</time>
      </trkpt>
      <trkpt lat="44.52932" lon="1.00385">
        <ele>125.59</ele>
        <time>2014-11-30T08:20:50Z</time>
      </trkpt>
      <trkpt lat="44.52939" lon="1.0043">
        <ele>122.71</ele>
        <time>2014-11-30T08:20:55Z</time>
      </trkpt>
      <trkpt lat="44.52942" lon="1.00439">
        <ele>121.74</ele>
        <time>2014-11-30T08:20:56Z</time>
      </trkpt>
      <trkpt lat="44.52982" lon="1.00518">
        <ele>115.01</ele>
        <time>2014-11-30T08:21:07Z</time>
      </trkpt>
      <trkpt lat="44.52985" lon="1.00523">
        <ele>114.53</ele>
        <time>2014-11-30T08:21:08Z</time>
      </trkpt>
      <trkpt lat="44.53005" lon="1.0058">
        <ele>108.77</ele>
        <time>2014-11-30T08:21:18Z</time>
      </trkpt>
      <trkpt lat="44.53005" lon="1.00583">
        <ele>108.77</ele>
        <time>2014-11-30T08:21:19Z</time>
      </trkpt>
      <trkpt lat="44.53003" lon="1.00584">
        <ele>108.29</ele>
        <time>2014-11-30T08:21:20Z</time>
      </trkpt>
      <trkpt lat="44.53001" lon="1.00584">
        <ele>108.29</ele>
        <time>2014-11-30T08:21:21Z</time>
      </trkpt>
      <trkpt lat="44.52998" lon="1.00582">
        <ele>107.81</ele>
        <time>2014-11-30T08:21:22Z</time>
      </trkpt>
      <trkpt lat="44.52996" lon="1.00578">
        <ele>107.81</ele>
        <time>2014-11-30T08:21:23Z</time>
      </trkpt>
      <trkpt lat="44.52994" lon="1.00573">
        <ele>107.32</ele>
        <time>2014-11-30T08:21:24Z</time>
      </trkpt>
      <trkpt lat="44.52993" lon="1.00568">
        <ele>106.84</ele>
        <time>2014-11-30T08:21:25Z</time>
      </trkpt>
      <trkpt lat="44.52978" lon="1.0054">
        <ele>105.4</ele>
        <time>2014-11-30T08:21:34Z</time>
      </trkpt>
      <trkpt lat="44.52975" lon="1.00539">
        <ele>105.4</ele>
        <time>2014-11-30T08:21:35Z</time>
      </trkpt>
      <trkpt lat="44.52972" lon="1.00539">
        <ele>104.92</ele>
        <time>2014-11-30T08:21:36Z</time>
      </trkpt>
      <trkpt lat="44.52965" lon="1.00544">
        <ele>103.48</ele>
        <time>2014-11-30T08:21:38Z</time>
      </trkpt>
      <trkpt lat="44.52929" lon="1.00579">
        <ele>100.6</ele>
        <time>2014-11-30T08:21:52Z</time>
      </trkpt>
      <trkpt lat="44.52917" lon="1.00611">
        <ele>102.04</ele>
        <time>2014-11-30T08:22:03Z</time>
      </trkpt>
      <trkpt lat="44.52915" lon="1.00616">
        <ele>102.04</ele>
        <time>2014-11-30T08:22:05Z</time>
      </trkpt>
      <trkpt lat="44.52898" lon="1.00656">
        <ele>104.92</ele>
        <time>2014-11-30T08:22:20Z</time>
      </trkpt>
      <trkpt lat="44.52892" lon="1.00696">
        <ele>112.13</ele>
        <time>2014-11-30T08:22:33Z</time>
      </trkpt>
      <trkpt lat="44.52875" lon="1.00723">
        <ele>115.01</ele>
        <time>2014-11-30T08:22:45Z</time>
      </trkpt>
      <trkpt lat="44.52848" lon="1.00754">
        <ele>120.3</ele>
        <time>2014-11-30T08:23:00Z</time>
      </trkpt>
      <trkpt lat="44.52828" lon="1.00778">
        <ele>122.22</ele>
        <time>2014-11-30T08:23:14Z</time>
      </trkpt>
      <trkpt lat="44.52804" lon="1.00797">
        <ele>126.07</ele>
        <time>2014-11-30T08:23:29Z</time>
      </trkpt>
      <trkpt lat="44.52782" lon="1.00813">
        <ele>131.36</ele>
        <time>2014-11-30T08:23:43Z</time>
      </trkpt>
      <trkpt lat="44.52768" lon="1.00827">
        <ele>137.13</ele>
        <time>2014-11-30T08:23:54Z</time>
      </trkpt>
      <trkpt lat="44.52751" lon="1.00846">
        <ele>142.89</ele>
        <time>2014-11-30T08:24:08Z</time>
      </trkpt>
      <trkpt lat="44.52738" lon="1.00864">
        <ele>145.78</ele>
        <time>2014-11-30T08:24:20Z</time>
      </trkpt>
      <trkpt lat="44.5272" lon="1.00865">
        <ele>146.74</ele>
        <time>2014-11-30T08:24:33Z</time>
      </trkpt>
      <trkpt lat="44.52715" lon="1.0086">
        <ele>147.7</ele>
        <time>2014-11-30T08:24:39Z</time>
      </trkpt>
      <trkpt lat="44.52706" lon="1.00855">
        <ele>148.66</ele>
        <time>2014-11-30T08:24:46Z</time>
      </trkpt>
      <trkpt lat="44.52698" lon="1.00855">
        <ele>149.14</ele>
        <time>2014-11-30T08:24:52Z</time>
      </trkpt>
      <trkpt lat="44.52695" lon="1.00855">
        <ele>149.62</ele>
        <time>2014-11-30T08:24:55Z</time>
      </trkpt>
      <trkpt lat="44.52674" lon="1.00848">
        <ele>150.1</ele>
        <time>2014-11-30T08:25:08Z</time>
      </trkpt>
      <trkpt lat="44.52662" lon="1.00845">
        <ele>148.18</ele>
        <time>2014-11-30T08:25:18Z</time>
      </trkpt>
      <trkpt lat="44.52653" lon="1.00852">
        <ele>148.18</ele>
        <time>2014-11-30T08:25:24Z</time>
      </trkpt>
      <trkpt lat="44.52651" lon="1.00855">
        <ele>148.66</ele>
        <time>2014-11-30T08:25:26Z</time>
      </trkpt>
      <trkpt lat="44.52642" lon="1.00871">
        <ele>149.62</ele>
        <time>2014-11-30T08:25:39Z</time>
      </trkpt>
      <trkpt lat="44.52639" lon="1.00872">
        <ele>150.58</ele>
        <time>2014-11-30T08:26:07Z</time>
      </trkpt>
      <trkpt lat="44.52638" lon="1.00875">
        <ele>150.1</ele>
        <time>2014-11-30T08:26:34Z</time>
      </trkpt>
      <trkpt lat="44.52633" lon="1.00881">
        <ele>150.58</ele>
        <time>2014-11-30T08:26:39Z</time>
      </trkpt>
      <trkpt lat="44.52623" lon="1.009">
        <ele>151.06</ele>
        <time>2014-11-30T08:26:48Z</time>
      </trkpt>
      <trkpt lat="44.52615" lon="1.00909">
        <ele>152.03</ele>
        <time>2014-11-30T08:26:53Z</time>
      </trkpt>
      <trkpt lat="44.52597" lon="1.0092">
        <ele>152.51</ele>
        <time>2014-11-30T08:27:04Z</time>
      </trkpt>
      <trkpt lat="44.52596" lon="1.00928">
        <ele>152.51</ele>
        <time>2014-11-30T08:27:08Z</time>
      </trkpt>
      <trkpt lat="44.52602" lon="1.00947">
        <ele>152.99</ele>
        <time>2014-11-30T08:27:18Z</time>
      </trkpt>
      <trkpt lat="44.52607" lon="1.00966">
        <ele>152.03</ele>
        <time>2014-11-30T08:27:27Z</time>
      </trkpt>
      <trkpt lat="44.52608" lon="1.00974">
        <ele>152.03</ele>
        <time>2014-11-30T08:27:31Z</time>
      </trkpt>
      <trkpt lat="44.52607" lon="1.01008">
        <ele>154.43</ele>
        <time>2014-11-30T08:27:46Z</time>
      </trkpt>
      <trkpt lat="44.52599" lon="1.01047">
        <ele>157.31</ele>
        <time>2014-11-30T08:28:00Z</time>
      </trkpt>
      <trkpt lat="44.52576" lon="1.01087">
        <ele>153.47</ele>
        <time>2014-11-30T08:28:11Z</time>
      </trkpt>
      <trkpt lat="44.52543" lon="1.01111">
        <ele>152.03</ele>
        <time>2014-11-30T08:28:20Z</time>
      </trkpt>
      <trkpt lat="44.52526" lon="1.01122">
        <ele>150.1</ele>
        <time>2014-11-30T08:28:24Z</time>
      </trkpt>
      <trkpt lat="44.52508" lon="1.01127">
        <ele>148.66</ele>
        <time>2014-11-30T08:28:27Z</time>
      </trkpt>
      <trkpt lat="44.52489" lon="1.01136">
        <ele>147.22</ele>
        <time>2014-11-30T08:28:31Z</time>
      </trkpt>
      <trkpt lat="44.52483" lon="1.0114">
        <ele>146.74</ele>
        <time>2014-11-30T08:28:35Z</time>
      </trkpt>
      <trkpt lat="44.5248" lon="1.01164">
        <ele>146.74</ele>
        <time>2014-11-30T08:28:46Z</time>
      </trkpt>
      <trkpt lat="44.52478" lon="1.01178">
        <ele>148.18</ele>
        <time>2014-11-30T08:28:57Z</time>
      </trkpt>
      <trkpt lat="44.52477" lon="1.0118">
        <ele>148.66</ele>
        <time>2014-11-30T08:29:02Z</time>
      </trkpt>
      <trkpt lat="44.52474" lon="1.01199">
        <ele>148.66</ele>
        <time>2014-11-30T08:29:09Z</time>
      </trkpt>
      <trkpt lat="44.52455" lon="1.01243">
        <ele>149.14</ele>
        <time>2014-11-30T08:29:23Z</time>
      </trkpt>
      <trkpt lat="44.52428" lon="1.01268">
        <ele>151.06</ele>
        <time>2014-11-30T08:29:35Z</time>
      </trkpt>
      <trkpt lat="44.52394" lon="1.0127">
        <ele>149.14</ele>
        <time>2014-11-30T08:29:46Z</time>
      </trkpt>
      <trkpt lat="44.5239" lon="1.01272">
        <ele>148.66</ele>
        <time>2014-11-30T08:29:47Z</time>
      </trkpt>
      <trkpt lat="44.52352" lon="1.0129">
        <ele>148.18</ele>
        <time>2014-11-30T08:29:54Z</time>
      </trkpt>
      <trkpt lat="44.52322" lon="1.01302">
        <ele>147.7</ele>
        <time>2014-11-30T08:30:01Z</time>
      </trkpt>
      <trkpt lat="44.52305" lon="1.01311">
        <ele>148.18</ele>
        <time>2014-11-30T08:30:05Z</time>
      </trkpt>
      <trkpt lat="44.5229" lon="1.01334">
        <ele>148.18</ele>
        <time>2014-11-30T08:30:10Z</time>
      </trkpt>
      <trkpt lat="44.52287" lon="1.01345">
        <ele>147.7</ele>
        <time>2014-11-30T08:30:12Z</time>
      </trkpt>
      <trkpt lat="44.52284" lon="1.01366">
        <ele>146.74</ele>
        <time>2014-11-30T08:30:16Z</time>
      </trkpt>
      <trkpt lat="44.52286" lon="1.014">
        <ele>144.82</ele>
        <time>2014-11-30T08:30:22Z</time>
      </trkpt>
      <trkpt lat="44.52273" lon="1.01463">
        <ele>137.13</ele>
        <time>2014-11-30T08:30:31Z</time>
      </trkpt>
      <trkpt lat="44.52297" lon="1.01507">
        <ele>128.47</ele>
        <time>2014-11-30T08:30:38Z</time>
      </trkpt>
      <trkpt lat="44.52302" lon="1.01509">
        <ele>127.51</ele>
        <time>2014-11-30T08:30:39Z</time>
      </trkpt>
      <trkpt lat="44.52307" lon="1.01512">
        <ele>126.55</ele>
        <time>2014-11-30T08:30:40Z</time>
      </trkpt>
      <trkpt lat="44.52311" lon="1.01515">
        <ele>126.07</ele>
        <time>2014-11-30T08:30:41Z</time>
      </trkpt>
      <trkpt lat="44.52315" lon="1.0152">
        <ele>125.11</ele>
        <time>2014-11-30T08:30:42Z</time>
      </trkpt>
      <trkpt lat="44.5232" lon="1.01525">
        <ele>124.15</ele>
        <time>2014-11-30T08:30:43Z</time>
      </trkpt>
      <trkpt lat="44.52334" lon="1.01543">
        <ele>121.74</ele>
        <time>2014-11-30T08:30:46Z</time>
      </trkpt>
      <trkpt lat="44.52338" lon="1.0155">
        <ele>120.78</ele>
        <time>2014-11-30T08:30:47Z</time>
      </trkpt>
      <trkpt lat="44.5234" lon="1.01559">
        <ele>119.82</ele>
        <time>2014-11-30T08:30:48Z</time>
      </trkpt>
      <trkpt lat="44.52342" lon="1.01568">
        <ele>119.34</ele>
        <time>2014-11-30T08:30:49Z</time>
      </trkpt>
      <trkpt lat="44.52343" lon="1.01578">
        <ele>118.38</ele>
        <time>2014-11-30T08:30:50Z</time>
      </trkpt>
      <trkpt lat="44.52345" lon="1.01609">
        <ele>116.46</ele>
        <time>2014-11-30T08:30:53Z</time>
      </trkpt>
      <trkpt lat="44.52344" lon="1.01618">
        <ele>115.98</ele>
        <time>2014-11-30T08:30:54Z</time>
      </trkpt>
      <trkpt lat="44.52342" lon="1.01626">
        <ele>115.01</ele>
        <time>2014-11-30T08:30:55Z</time>
      </trkpt>
      <trkpt lat="44.52339" lon="1.01632">
        <ele>114.53</ele>
        <time>2014-11-30T08:30:56Z</time>
      </trkpt>
      <trkpt lat="44.52334" lon="1.01637">
        <ele>113.57</ele>
        <time>2014-11-30T08:30:57Z</time>
      </trkpt>
      <trkpt lat="44.52328" lon="1.0164">
        <ele>113.09</ele>
        <time>2014-11-30T08:30:58Z</time>
      </trkpt>
      <trkpt lat="44.52322" lon="1.01641">
        <ele>112.13</ele>
        <time>2014-11-30T08:30:59Z</time>
      </trkpt>
      <trkpt lat="44.52272" lon="1.01644">
        <ele>105.88</ele>
        <time>2014-11-30T08:31:06Z</time>
      </trkpt>
      <trkpt lat="44.52265" lon="1.01639">
        <ele>104.92</ele>
        <time>2014-11-30T08:31:07Z</time>
      </trkpt>
      <trkpt lat="44.52259" lon="1.01631">
        <ele>103.96</ele>
        <time>2014-11-30T08:31:08Z</time>
      </trkpt>
      <trkpt lat="44.52246" lon="1.01614">
        <ele>102.04</ele>
        <time>2014-11-30T08:31:10Z</time>
      </trkpt>
      <trkpt lat="44.52239" lon="1.01607">
        <ele>101.56</ele>
        <time>2014-11-30T08:31:11Z</time>
      </trkpt>
      <trkpt lat="44.52231" lon="1.01601">
        <ele>101.08</ele>
        <time>2014-11-30T08:31:12Z</time>
      </trkpt>
      <trkpt lat="44.52148" lon="1.01552">
        <ele>96.75</ele>
        <time>2014-11-30T08:31:22Z</time>
      </trkpt>
      <trkpt lat="44.5214" lon="1.0155">
        <ele>96.75</ele>
        <time>2014-11-30T08:31:23Z</time>
      </trkpt>
      <trkpt lat="44.52131" lon="1.01549">
        <ele>96.27</ele>
        <time>2014-11-30T08:31:24Z</time>
      </trkpt>
      <trkpt lat="44.52122" lon="1.01549">
        <ele>96.27</ele>
        <time>2014-11-30T08:31:25Z</time>
      </trkpt>
      <trkpt lat="44.52113" lon="1.0155">
        <ele>95.79</ele>
        <time>2014-11-30T08:31:26Z</time>
      </trkpt>
      <trkpt lat="44.52105" lon="1.01552">
        <ele>95.79</ele>
        <time>2014-11-30T08:31:27Z</time>
      </trkpt>
      <trkpt lat="44.52029" lon="1.01566">
        <ele>92.42</ele>
        <time>2014-11-30T08:31:37Z</time>
      </trkpt>
      <trkpt lat="44.5202" lon="1.01567">
        <ele>91.94</ele>
        <time>2014-11-30T08:31:39Z</time>
      </trkpt>
      <trkpt lat="44.52017" lon="1.01571">
        <ele>91.94</ele>
        <time>2014-11-30T08:31:40Z</time>
      </trkpt>
      <trkpt lat="44.52016" lon="1.01577">
        <ele>91.46</ele>
        <time>2014-11-30T08:31:41Z</time>
      </trkpt>
      <trkpt lat="44.52016" lon="1.01582">
        <ele>90.98</ele>
        <time>2014-11-30T08:31:42Z</time>
      </trkpt>
      <trkpt lat="44.52017" lon="1.01587">
        <ele>90.98</ele>
        <time>2014-11-30T08:31:43Z</time>
      </trkpt>
      <trkpt lat="44.52017" lon="1.01591">
        <ele>90.5</ele>
        <time>2014-11-30T08:31:44Z</time>
      </trkpt>
      <trkpt lat="44.52017" lon="1.01595">
        <ele>90.5</ele>
        <time>2014-11-30T08:31:45Z</time>
      </trkpt>
      <trkpt lat="44.52016" lon="1.01598">
        <ele>90.5</ele>
        <time>2014-11-30T08:31:46Z</time>
      </trkpt>
      <trkpt lat="44.52014" lon="1.01601">
        <ele>90.5</ele>
        <time>2014-11-30T08:31:47Z</time>
      </trkpt>
      <trkpt lat="44.52013" lon="1.01603">
        <ele>90.02</ele>
        <time>2014-11-30T08:31:48Z</time>
      </trkpt>
      <trkpt lat="44.52012" lon="1.01604">
        <ele>90.02</ele>
        <time>2014-11-30T08:31:49Z</time>
      </trkpt>
      <trkpt lat="44.5201" lon="1.01605">
        <ele>90.02</ele>
        <time>2014-11-30T08:31:50Z</time>
      </trkpt>
      <trkpt lat="44.52009" lon="1.01607">
        <ele>90.02</ele>
        <time>2014-11-30T08:31:51Z</time>
      </trkpt>
      <trkpt lat="44.52008" lon="1.01611">
        <ele>89.54</ele>
        <time>2014-11-30T08:31:52Z</time>
      </trkpt>
      <trkpt lat="44.52008" lon="1.01614">
        <ele>89.54</ele>
        <time>2014-11-30T08:31:53Z</time>
      </trkpt>
      <trkpt lat="44.52009" lon="1.01618">
        <ele>89.54</ele>
        <time>2014-11-30T08:31:54Z</time>
      </trkpt>
      <trkpt lat="44.52025" lon="1.01682">
        <ele>89.54</ele>
        <time>2014-11-30T08:32:08Z</time>
      </trkpt>
      <trkpt lat="44.52043" lon="1.01764">
        <ele>90.5</ele>
        <time>2014-11-30T08:32:25Z</time>
      </trkpt>
      <trkpt lat="44.52065" lon="1.01857">
        <ele>90.98</ele>
        <time>2014-11-30T08:32:42Z</time>
      </trkpt>
      <trkpt lat="44.52071" lon="1.01889">
        <ele>90.5</ele>
        <time>2014-11-30T08:32:48Z</time>
      </trkpt>
      <trkpt lat="44.52097" lon="1.02011">
        <ele>90.5</ele>
        <time>2014-11-30T08:33:10Z</time>
      </trkpt>
      <trkpt lat="44.5211" lon="1.02124">
        <ele>90.98</ele>
        <time>2014-11-30T08:33:30Z</time>
      </trkpt>
      <trkpt lat="44.52119" lon="1.02233">
        <ele>90.98</ele>
        <time>2014-11-30T08:33:49Z</time>
      </trkpt>
      <trkpt lat="44.52127" lon="1.02359">
        <ele>91.46</ele>
        <time>2014-11-30T08:34:11Z</time>
      </trkpt>
      <trkpt lat="44.52134" lon="1.02459">
        <ele>92.42</ele>
        <time>2014-11-30T08:34:28Z</time>
      </trkpt>
      <trkpt lat="44.52142" lon="1.02565">
        <ele>93.39</ele>
        <time>2014-11-30T08:34:46Z</time>
      </trkpt>
      <trkpt lat="44.5215" lon="1.02672">
        <ele>94.35</ele>
        <time>2014-11-30T08:35:04Z</time>
      </trkpt>
      <trkpt lat="44.52157" lon="1.02793">
        <ele>95.31</ele>
        <time>2014-11-30T08:35:23Z</time>
      </trkpt>
      <trkpt lat="44.52165" lon="1.02912">
        <ele>95.79</ele>
        <time>2014-11-30T08:35:43Z</time>
      </trkpt>
      <trkpt lat="44.52164" lon="1.0292">
        <ele>95.79</ele>
        <time>2014-11-30T08:35:53Z</time>
      </trkpt>
      <trkpt lat="44.52165" lon="1.02922">
        <ele>95.79</ele>
        <time>2014-11-30T08:35:57Z</time>
      </trkpt>
      <trkpt lat="44.5217" lon="1.02961">
        <ele>95.79</ele>
        <time>2014-11-30T08:36:06Z</time>
      </trkpt>
      <trkpt lat="44.52179" lon="1.03083">
        <ele>97.23</ele>
        <time>2014-11-30T08:36:25Z</time>
      </trkpt>
      <trkpt lat="44.52182" lon="1.03134">
        <ele>96.75</ele>
        <time>2014-11-30T08:36:35Z</time>
      </trkpt>
      <trkpt lat="44.5218" lon="1.03136">
        <ele>97.23</ele>
        <time>2014-11-30T08:36:36Z</time>
      </trkpt>
      <trkpt lat="44.52178" lon="1.03137">
        <ele>97.23</ele>
        <time>2014-11-30T08:36:37Z</time>
      </trkpt>
      <trkpt lat="44.52176" lon="1.03136">
        <ele>97.23</ele>
        <time>2014-11-30T08:36:38Z</time>
      </trkpt>
      <trkpt lat="44.52174" lon="1.03135">
        <ele>96.75</ele>
        <time>2014-11-30T08:36:39Z</time>
      </trkpt>
      <trkpt lat="44.52134" lon="1.03121">
        <ele>93.39</ele>
        <time>2014-11-30T08:36:50Z</time>
      </trkpt>
      <trkpt lat="44.52073" lon="1.03109">
        <ele>92.9</ele>
        <time>2014-11-30T08:37:07Z</time>
      </trkpt>
      <trkpt lat="44.5202" lon="1.03108">
        <ele>93.39</ele>
        <time>2014-11-30T08:37:22Z</time>
      </trkpt>
      <trkpt lat="44.51984" lon="1.03104">
        <ele>94.83</ele>
        <time>2014-11-30T08:37:34Z</time>
      </trkpt>
      <trkpt lat="44.5195" lon="1.03097">
        <ele>95.79</ele>
        <time>2014-11-30T08:37:47Z</time>
      </trkpt>
      <trkpt lat="44.51931" lon="1.03102">
        <ele>97.23</ele>
        <time>2014-11-30T08:37:58Z</time>
      </trkpt>
      <trkpt lat="44.51927" lon="1.03158">
        <ele>95.79</ele>
        <time>2014-11-30T08:38:11Z</time>
      </trkpt>
      <trkpt lat="44.51923" lon="1.03212">
        <ele>95.31</ele>
        <time>2014-11-30T08:38:25Z</time>
      </trkpt>
      <trkpt lat="44.5192" lon="1.03226">
        <ele>95.31</ele>
        <time>2014-11-30T08:38:30Z</time>
      </trkpt>
      <trkpt lat="44.51909" lon="1.03227">
        <ele>95.79</ele>
        <time>2014-11-30T08:38:35Z</time>
      </trkpt>
      <trkpt lat="44.51885" lon="1.03223">
        <ele>100.11</ele>
        <time>2014-11-30T08:38:49Z</time>
      </trkpt>
      <trkpt lat="44.51882" lon="1.03224">
        <ele>101.08</ele>
        <time>2014-11-30T08:38:51Z</time>
      </trkpt>
      <trkpt lat="44.51882" lon="1.03238">
        <ele>101.56</ele>
        <time>2014-11-30T08:38:56Z</time>
      </trkpt>
      <trkpt lat="44.51893" lon="1.03306">
        <ele>99.15</ele>
        <time>2014-11-30T08:39:07Z</time>
      </trkpt>
      <trkpt lat="44.51895" lon="1.03328">
        <ele>98.19</ele>
        <time>2014-11-30T08:39:11Z</time>
      </trkpt>
      <trkpt lat="44.51894" lon="1.03391">
        <ele>99.63</ele>
        <time>2014-11-30T08:39:26Z</time>
      </trkpt>
      <trkpt lat="44.5189" lon="1.03444">
        <ele>99.63</ele>
        <time>2014-11-30T08:39:38Z</time>
      </trkpt>
      <trkpt lat="44.51884" lon="1.03527">
        <ele>97.71</ele>
        <time>2014-11-30T08:39:53Z</time>
      </trkpt>
      <trkpt lat="44.51886" lon="1.036">
        <ele>98.67</ele>
        <time>2014-11-30T08:40:10Z</time>
      </trkpt>
      <trkpt lat="44.51904" lon="1.03666">
        <ele>96.75</ele>
        <time>2014-11-30T08:40:26Z</time>
      </trkpt>
      <trkpt lat="44.51913" lon="1.0372">
        <ele>98.67</ele>
        <time>2014-11-30T08:40:39Z</time>
      </trkpt>
      <trkpt lat="44.51927" lon="1.03773">
        <ele>98.67</ele>
        <time>2014-11-30T08:40:54Z</time>
      </trkpt>
      <trkpt lat="44.51943" lon="1.0382">
        <ele>98.67</ele>
        <time>2014-11-30T08:41:06Z</time>
      </trkpt>
      <trkpt lat="44.51977" lon="1.03892">
        <ele>100.11</ele>
        <time>2014-11-30T08:41:26Z</time>
      </trkpt>
      <trkpt lat="44.52004" lon="1.03946">
        <ele>102.04</ele>
        <time>2014-11-30T08:41:43Z</time>
      </trkpt>
      <trkpt lat="44.52008" lon="1.0396">
        <ele>102.52</ele>
        <time>2014-11-30T08:41:48Z</time>
      </trkpt>
      <trkpt lat="44.52008" lon="1.03962">
        <ele>103</ele>
        <time>2014-11-30T08:41:49Z</time>
      </trkpt>
      <trkpt lat="44.52007" lon="1.03964">
        <ele>103.48</ele>
        <time>2014-11-30T08:41:50Z</time>
      </trkpt>
      <trkpt lat="44.52006" lon="1.03964">
        <ele>103.48</ele>
        <time>2014-11-30T08:41:51Z</time>
      </trkpt>
      <trkpt lat="44.52" lon="1.03961">
        <ele>104.92</ele>
        <time>2014-11-30T08:41:55Z</time>
      </trkpt>
      <trkpt lat="44.51974" lon="1.03943">
        <ele>109.25</ele>
        <time>2014-11-30T08:42:12Z</time>
      </trkpt>
      <trkpt lat="44.5197" lon="1.0394">
        <ele>110.21</ele>
        <time>2014-11-30T08:42:15Z</time>
      </trkpt>
      <trkpt lat="44.51949" lon="1.03926">
        <ele>114.53</ele>
        <time>2014-11-30T08:42:30Z</time>
      </trkpt>
      <trkpt lat="44.51944" lon="1.03922">
        <ele>115.98</ele>
        <time>2014-11-30T08:42:34Z</time>
      </trkpt>
      <trkpt lat="44.51941" lon="1.03917">
        <ele>117.9</ele>
        <time>2014-11-30T08:42:37Z</time>
      </trkpt>
      <trkpt lat="44.51915" lon="1.03899">
        <ele>123.67</ele>
        <time>2014-11-30T08:42:50Z</time>
      </trkpt>
      <trkpt lat="44.51882" lon="1.03886">
        <ele>127.51</ele>
        <time>2014-11-30T08:43:07Z</time>
      </trkpt>
      <trkpt lat="44.51854" lon="1.03882">
        <ele>129.92</ele>
        <time>2014-11-30T08:43:21Z</time>
      </trkpt>
      <trkpt lat="44.51821" lon="1.03879">
        <ele>131.36</ele>
        <time>2014-11-30T08:43:38Z</time>
      </trkpt>
      <trkpt lat="44.51796" lon="1.03874">
        <ele>132.32</ele>
        <time>2014-11-30T08:43:51Z</time>
      </trkpt>
      <trkpt lat="44.51765" lon="1.03864">
        <ele>133.76</ele>
        <time>2014-11-30T08:44:07Z</time>
      </trkpt>
      <trkpt lat="44.51732" lon="1.03854">
        <ele>135.2</ele>
        <time>2014-11-30T08:44:25Z</time>
      </trkpt>
      <trkpt lat="44.51703" lon="1.03845">
        <ele>139.05</ele>
        <time>2014-11-30T08:44:41Z</time>
      </trkpt>
      <trkpt lat="44.51678" lon="1.03842">
        <ele>142.89</ele>
        <time>2014-11-30T08:44:55Z</time>
      </trkpt>
      <trkpt lat="44.51655" lon="1.03845">
        <ele>146.74</ele>
        <time>2014-11-30T08:45:09Z</time>
      </trkpt>
      <trkpt lat="44.51628" lon="1.03853">
        <ele>152.03</ele>
        <time>2014-11-30T08:45:26Z</time>
      </trkpt>
      <trkpt lat="44.51625" lon="1.03854">
        <ele>152.51</ele>
        <time>2014-11-30T08:45:28Z</time>
      </trkpt>
      <trkpt lat="44.51607" lon="1.03861">
        <ele>155.39</ele>
        <time>2014-11-30T08:45:40Z</time>
      </trkpt>
      <trkpt lat="44.51581" lon="1.03867">
        <ele>158.27</ele>
        <time>2014-11-30T08:45:55Z</time>
      </trkpt>
      <trkpt lat="44.51553" lon="1.03881">
        <ele>160.68</ele>
        <time>2014-11-30T08:46:12Z</time>
      </trkpt>
      <trkpt lat="44.51529" lon="1.0389">
        <ele>163.56</ele>
        <time>2014-11-30T08:46:27Z</time>
      </trkpt>
      <trkpt lat="44.51528" lon="1.03891">
        <ele>164.04</ele>
        <time>2014-11-30T08:46:28Z</time>
      </trkpt>
      <trkpt lat="44.51515" lon="1.03896">
        <ele>165.96</ele>
        <time>2014-11-30T08:46:37Z</time>
      </trkpt>
      <trkpt lat="44.51494" lon="1.03907">
        <ele>169.33</ele>
        <time>2014-11-30T08:46:52Z</time>
      </trkpt>
      <trkpt lat="44.51475" lon="1.03919">
        <ele>172.69</ele>
        <time>2014-11-30T08:47:05Z</time>
      </trkpt>
      <trkpt lat="44.51471" lon="1.03923">
        <ele>174.14</ele>
        <time>2014-11-30T08:47:08Z</time>
      </trkpt>
      <trkpt lat="44.51462" lon="1.03928">
        <ele>176.06</ele>
        <time>2014-11-30T08:47:14Z</time>
      </trkpt>
      <trkpt lat="44.51442" lon="1.03942">
        <ele>176.54</ele>
        <time>2014-11-30T08:47:28Z</time>
      </trkpt>
      <trkpt lat="44.51425" lon="1.03954">
        <ele>179.9</ele>
        <time>2014-11-30T08:47:41Z</time>
      </trkpt>
      <trkpt lat="44.51403" lon="1.0396">
        <ele>183.75</ele>
        <time>2014-11-30T08:47:55Z</time>
      </trkpt>
      <trkpt lat="44.51395" lon="1.0396">
        <ele>183.75</ele>
        <time>2014-11-30T08:48:00Z</time>
      </trkpt>
      <trkpt lat="44.51379" lon="1.03964">
        <ele>184.71</ele>
        <time>2014-11-30T08:48:09Z</time>
      </trkpt>
      <trkpt lat="44.51366" lon="1.03965">
        <ele>190</ele>
        <time>2014-11-30T08:48:21Z</time>
      </trkpt>
      <trkpt lat="44.51352" lon="1.0397">
        <ele>192.88</ele>
        <time>2014-11-30T08:48:31Z</time>
      </trkpt>
      <trkpt lat="44.51345" lon="1.03972">
        <ele>193.36</ele>
        <time>2014-11-30T08:48:35Z</time>
      </trkpt>
      <trkpt lat="44.51326" lon="1.03971">
        <ele>196.73</ele>
        <time>2014-11-30T08:48:49Z</time>
      </trkpt>
      <trkpt lat="44.51313" lon="1.03963">
        <ele>198.65</ele>
        <time>2014-11-30T08:49:01Z</time>
      </trkpt>
      <trkpt lat="44.51306" lon="1.03962">
        <ele>199.61</ele>
        <time>2014-11-30T08:49:07Z</time>
      </trkpt>
      <trkpt lat="44.51291" lon="1.03953">
        <ele>202.49</ele>
        <time>2014-11-30T08:49:19Z</time>
      </trkpt>
      <trkpt lat="44.51285" lon="1.03947">
        <ele>204.42</ele>
        <time>2014-11-30T08:49:24Z</time>
      </trkpt>
      <trkpt lat="44.5126" lon="1.03918">
        <ele>205.38</ele>
        <time>2014-11-30T08:49:38Z</time>
      </trkpt>
      <trkpt lat="44.51254" lon="1.03883">
        <ele>205.86</ele>
        <time>2014-11-30T08:49:53Z</time>
      </trkpt>
      <trkpt lat="44.5125" lon="1.03855">
        <ele>205.38</ele>
        <time>2014-11-30T08:50:05Z</time>
      </trkpt>
      <trkpt lat="44.51245" lon="1.03829">
        <ele>203.94</ele>
        <time>2014-11-30T08:50:17Z</time>
      </trkpt>
      <trkpt lat="44.51227" lon="1.03801">
        <ele>211.15</ele>
        <time>2014-11-30T08:50:33Z</time>
      </trkpt>
      <trkpt lat="44.51209" lon="1.03777">
        <ele>214.03</ele>
        <time>2014-11-30T08:50:48Z</time>
      </trkpt>
      <trkpt lat="44.51191" lon="1.03747">
        <ele>214.99</ele>
        <time>2014-11-30T08:51:05Z</time>
      </trkpt>
      <trkpt lat="44.51184" lon="1.03733">
        <ele>213.55</ele>
        <time>2014-11-30T08:51:20Z</time>
      </trkpt>
      <trkpt lat="44.51185" lon="1.03733">
        <ele>212.59</ele>
        <time>2014-11-30T08:51:41Z</time>
      </trkpt>
      <trkpt lat="44.51185" lon="1.03731">
        <ele>212.11</ele>
        <time>2014-11-30T08:51:43Z</time>
      </trkpt>
      <trkpt lat="44.51187" lon="1.03721">
        <ele>211.63</ele>
        <time>2014-11-30T08:51:48Z</time>
      </trkpt>
      <trkpt lat="44.51186" lon="1.03719">
        <ele>211.15</ele>
        <time>2014-11-30T08:51:49Z</time>
      </trkpt>
      <trkpt lat="44.51184" lon="1.03723">
        <ele>210.67</ele>
        <time>2014-11-30T08:51:53Z</time>
      </trkpt>
      <trkpt lat="44.51183" lon="1.03731">
        <ele>210.67</ele>
        <time>2014-11-30T08:51:59Z</time>
      </trkpt>
      <trkpt lat="44.51182" lon="1.03741">
        <ele>210.67</ele>
        <time>2014-11-30T08:52:12Z</time>
      </trkpt>
      <trkpt lat="44.51181" lon="1.03736">
        <ele>211.15</ele>
        <time>2014-11-30T08:52:24Z</time>
      </trkpt>
      <trkpt lat="44.51181" lon="1.03733">
        <ele>211.63</ele>
        <time>2014-11-30T08:52:44Z</time>
      </trkpt>
      <trkpt lat="44.51182" lon="1.03735">
        <ele>212.59</ele>
        <time>2014-11-30T08:53:14Z</time>
      </trkpt>
      <trkpt lat="44.51182" lon="1.03737">
        <ele>212.11</ele>
        <time>2014-11-30T08:53:46Z</time>
      </trkpt>
      <trkpt lat="44.51183" lon="1.03738">
        <ele>212.11</ele>
        <time>2014-11-30T08:53:50Z</time>
      </trkpt>
      <trkpt lat="44.5118" lon="1.03746">
        <ele>212.11</ele>
        <time>2014-11-30T08:53:54Z</time>
      </trkpt>
      <trkpt lat="44.51178" lon="1.03748">
        <ele>212.11</ele>
        <time>2014-11-30T08:53:55Z</time>
      </trkpt>
      <trkpt lat="44.51177" lon="1.03751">
        <ele>212.11</ele>
        <time>2014-11-30T08:53:56Z</time>
      </trkpt>
      <trkpt lat="44.51158" lon="1.03794">
        <ele>214.03</ele>
        <time>2014-11-30T08:54:09Z</time>
      </trkpt>
      <trkpt lat="44.51143" lon="1.03833">
        <ele>213.55</ele>
        <time>2014-11-30T08:54:21Z</time>
      </trkpt>
      <trkpt lat="44.51133" lon="1.03866">
        <ele>212.11</ele>
        <time>2014-11-30T08:54:28Z</time>
      </trkpt>
      <trkpt lat="44.5111" lon="1.03928">
        <ele>209.7</ele>
        <time>2014-11-30T08:54:37Z</time>
      </trkpt>
      <trkpt lat="44.51108" lon="1.03935">
        <ele>209.22</ele>
        <time>2014-11-30T08:54:38Z</time>
      </trkpt>
      <trkpt lat="44.51105" lon="1.03957">
        <ele>209.22</ele>
        <time>2014-11-30T08:54:41Z</time>
      </trkpt>
      <trkpt lat="44.51106" lon="1.04038">
        <ele>208.26</ele>
        <time>2014-11-30T08:54:55Z</time>
      </trkpt>
      <trkpt lat="44.51115" lon="1.04113">
        <ele>209.7</ele>
        <time>2014-11-30T08:55:12Z</time>
      </trkpt>
      <trkpt lat="44.51096" lon="1.04156">
        <ele>211.15</ele>
        <time>2014-11-30T08:55:24Z</time>
      </trkpt>
      <trkpt lat="44.51073" lon="1.04208">
        <ele>213.07</ele>
        <time>2014-11-30T08:55:37Z</time>
      </trkpt>
      <trkpt lat="44.51067" lon="1.04273">
        <ele>217.4</ele>
        <time>2014-11-30T08:55:53Z</time>
      </trkpt>
      <trkpt lat="44.51047" lon="1.04321">
        <ele>218.36</ele>
        <time>2014-11-30T08:56:06Z</time>
      </trkpt>
      <trkpt lat="44.51039" lon="1.04333">
        <ele>217.4</ele>
        <time>2014-11-30T08:56:09Z</time>
      </trkpt>
      <trkpt lat="44.51036" lon="1.04337">
        <ele>216.91</ele>
        <time>2014-11-30T08:56:10Z</time>
      </trkpt>
      <trkpt lat="44.50988" lon="1.04396">
        <ele>213.07</ele>
        <time>2014-11-30T08:56:21Z</time>
      </trkpt>
      <trkpt lat="44.50972" lon="1.04417">
        <ele>212.11</ele>
        <time>2014-11-30T08:56:25Z</time>
      </trkpt>
      <trkpt lat="44.50962" lon="1.04428">
        <ele>212.11</ele>
        <time>2014-11-30T08:56:28Z</time>
      </trkpt>
      <trkpt lat="44.50958" lon="1.04431">
        <ele>212.11</ele>
        <time>2014-11-30T08:56:29Z</time>
      </trkpt>
      <trkpt lat="44.50954" lon="1.04433">
        <ele>212.11</ele>
        <time>2014-11-30T08:56:30Z</time>
      </trkpt>
      <trkpt lat="44.50921" lon="1.04444">
        <ele>214.03</ele>
        <time>2014-11-30T08:56:40Z</time>
      </trkpt>
      <trkpt lat="44.5088" lon="1.04469">
        <ele>217.4</ele>
        <time>2014-11-30T08:56:51Z</time>
      </trkpt>
      <trkpt lat="44.50851" lon="1.04497">
        <ele>221.24</ele>
        <time>2014-11-30T08:57:02Z</time>
      </trkpt>
      <trkpt lat="44.5083" lon="1.04516">
        <ele>225.57</ele>
        <time>2014-11-30T08:57:13Z</time>
      </trkpt>
      <trkpt lat="44.50799" lon="1.04531">
        <ele>227.49</ele>
        <time>2014-11-30T08:57:25Z</time>
      </trkpt>
      <trkpt lat="44.50773" lon="1.04547">
        <ele>227.01</ele>
        <time>2014-11-30T08:57:38Z</time>
      </trkpt>
      <trkpt lat="44.50742" lon="1.04567">
        <ele>228.93</ele>
        <time>2014-11-30T08:57:51Z</time>
      </trkpt>
      <trkpt lat="44.50705" lon="1.04611">
        <ele>223.16</ele>
        <time>2014-11-30T08:58:08Z</time>
      </trkpt>
      <trkpt lat="44.50674" lon="1.04673">
        <ele>219.8</ele>
        <time>2014-11-30T08:58:25Z</time>
      </trkpt>
      <trkpt lat="44.50651" lon="1.04726">
        <ele>218.84</ele>
        <time>2014-11-30T08:58:39Z</time>
      </trkpt>
      <trkpt lat="44.50632" lon="1.04756">
        <ele>218.36</ele>
        <time>2014-11-30T08:58:49Z</time>
      </trkpt>
      <trkpt lat="44.50622" lon="1.04764">
        <ele>218.36</ele>
        <time>2014-11-30T08:58:52Z</time>
      </trkpt>
      <trkpt lat="44.50608" lon="1.04771">
        <ele>218.84</ele>
        <time>2014-11-30T08:58:56Z</time>
      </trkpt>
      <trkpt lat="44.50597" lon="1.04766">
        <ele>219.32</ele>
        <time>2014-11-30T08:59:01Z</time>
      </trkpt>
      <trkpt lat="44.5058" lon="1.04763">
        <ele>222.2</ele>
        <time>2014-11-30T08:59:06Z</time>
      </trkpt>
      <trkpt lat="44.50566" lon="1.04758">
        <ele>223.16</ele>
        <time>2014-11-30T08:59:10Z</time>
      </trkpt>
      <trkpt lat="44.50557" lon="1.04758">
        <ele>223.64</ele>
        <time>2014-11-30T08:59:12Z</time>
      </trkpt>
      <trkpt lat="44.50537" lon="1.04756">
        <ele>221.24</ele>
        <time>2014-11-30T08:59:19Z</time>
      </trkpt>
      <trkpt lat="44.50533" lon="1.04759">
        <ele>219.32</ele>
        <time>2014-11-30T08:59:22Z</time>
      </trkpt>
      <trkpt lat="44.50522" lon="1.04757">
        <ele>214.51</ele>
        <time>2014-11-30T08:59:34Z</time>
      </trkpt>
      <trkpt lat="44.5052" lon="1.04759">
        <ele>211.15</ele>
        <time>2014-11-30T08:59:47Z</time>
      </trkpt>
      <trkpt lat="44.50519" lon="1.04764">
        <ele>210.19</ele>
        <time>2014-11-30T09:00:02Z</time>
      </trkpt>
      <trkpt lat="44.50518" lon="1.04765">
        <ele>208.74</ele>
        <time>2014-11-30T09:00:17Z</time>
      </trkpt>
      <trkpt lat="44.50519" lon="1.04761">
        <ele>208.74</ele>
        <time>2014-11-30T09:00:29Z</time>
      </trkpt>
      <trkpt lat="44.50523" lon="1.04758">
        <ele>212.11</ele>
        <time>2014-11-30T09:00:41Z</time>
      </trkpt>
      <trkpt lat="44.50522" lon="1.0476">
        <ele>213.55</ele>
        <time>2014-11-30T09:00:54Z</time>
      </trkpt>
      <trkpt lat="44.50522" lon="1.0476">
        <ele>212.11</ele>
        <time>2014-11-30T09:01:05Z</time>
      </trkpt>
      <trkpt lat="44.5052" lon="1.04762">
        <ele>211.63</ele>
        <time>2014-11-30T09:01:08Z</time>
      </trkpt>
      <trkpt lat="44.50518" lon="1.04763">
        <ele>209.22</ele>
        <time>2014-11-30T09:01:22Z</time>
      </trkpt>
      <trkpt lat="44.50516" lon="1.04771">
        <ele>205.86</ele>
        <time>2014-11-30T09:01:37Z</time>
      </trkpt>
      <trkpt lat="44.50515" lon="1.04775">
        <ele>203.94</ele>
        <time>2014-11-30T09:01:40Z</time>
      </trkpt>
      <trkpt lat="44.5051" lon="1.04779">
        <ele>202.01</ele>
        <time>2014-11-30T09:01:50Z</time>
      </trkpt>
      <trkpt lat="44.50504" lon="1.04782">
        <ele>199.13</ele>
        <time>2014-11-30T09:02:01Z</time>
      </trkpt>
      <trkpt lat="44.50502" lon="1.04783">
        <ele>196.73</ele>
        <time>2014-11-30T09:02:16Z</time>
      </trkpt>
      <trkpt lat="44.50498" lon="1.04783">
        <ele>195.28</ele>
        <time>2014-11-30T09:02:31Z</time>
      </trkpt>
      <trkpt lat="44.50498" lon="1.0478">
        <ele>193.36</ele>
        <time>2014-11-30T09:02:52Z</time>
      </trkpt>
      <trkpt lat="44.50496" lon="1.04781">
        <ele>194.32</ele>
        <time>2014-11-30T09:03:17Z</time>
      </trkpt>
      <trkpt lat="44.50495" lon="1.04782">
        <ele>196.73</ele>
        <time>2014-11-30T09:03:38Z</time>
      </trkpt>
      <trkpt lat="44.50496" lon="1.04779">
        <ele>197.21</ele>
        <time>2014-11-30T09:04:10Z</time>
      </trkpt>
      <trkpt lat="44.50498" lon="1.04778">
        <ele>198.17</ele>
        <time>2014-11-30T09:04:54Z</time>
      </trkpt>
      <trkpt lat="44.50495" lon="1.04782">
        <ele>198.65</ele>
        <time>2014-11-30T09:05:23Z</time>
      </trkpt>
      <trkpt lat="44.50496" lon="1.04777">
        <ele>195.77</ele>
        <time>2014-11-30T09:05:36Z</time>
      </trkpt>
      <trkpt lat="44.50495" lon="1.04778">
        <ele>195.77</ele>
        <time>2014-11-30T09:05:53Z</time>
      </trkpt>
      <trkpt lat="44.50488" lon="1.04775">
        <ele>193.36</ele>
        <time>2014-11-30T09:05:58Z</time>
      </trkpt>
      <trkpt lat="44.50477" lon="1.04771">
        <ele>187.11</ele>
        <time>2014-11-30T09:06:04Z</time>
      </trkpt>
      <trkpt lat="44.50471" lon="1.04758">
        <ele>183.27</ele>
        <time>2014-11-30T09:06:08Z</time>
      </trkpt>
      <trkpt lat="44.50469" lon="1.04746">
        <ele>181.35</ele>
        <time>2014-11-30T09:06:10Z</time>
      </trkpt>
      <trkpt lat="44.50476" lon="1.04693">
        <ele>177.02</ele>
        <time>2014-11-30T09:06:20Z</time>
      </trkpt>
      <trkpt lat="44.50488" lon="1.04673">
        <ele>179.42</ele>
        <time>2014-11-30T09:06:26Z</time>
      </trkpt>
      <trkpt lat="44.50492" lon="1.04669">
        <ele>180.87</ele>
        <time>2014-11-30T09:06:28Z</time>
      </trkpt>
      <trkpt lat="44.50495" lon="1.04661">
        <ele>182.31</ele>
        <time>2014-11-30T09:06:32Z</time>
      </trkpt>
      <trkpt lat="44.50516" lon="1.04622">
        <ele>186.63</ele>
        <time>2014-11-30T09:06:46Z</time>
      </trkpt>
      <trkpt lat="44.50549" lon="1.04586">
        <ele>188.56</ele>
        <time>2014-11-30T09:07:01Z</time>
      </trkpt>
      <trkpt lat="44.50555" lon="1.0458">
        <ele>189.04</ele>
        <time>2014-11-30T09:07:05Z</time>
      </trkpt>
      <trkpt lat="44.50561" lon="1.04557">
        <ele>185.19</ele>
        <time>2014-11-30T09:07:14Z</time>
      </trkpt>
      <trkpt lat="44.50561" lon="1.04531">
        <ele>178.46</ele>
        <time>2014-11-30T09:07:24Z</time>
      </trkpt>
      <trkpt lat="44.50567" lon="1.04519">
        <ele>176.06</ele>
        <time>2014-11-30T09:07:28Z</time>
      </trkpt>
      <trkpt lat="44.50574" lon="1.0451">
        <ele>174.62</ele>
        <time>2014-11-30T09:07:31Z</time>
      </trkpt>
      <trkpt lat="44.50593" lon="1.04498">
        <ele>176.06</ele>
        <time>2014-11-30T09:07:40Z</time>
      </trkpt>
      <trkpt lat="44.50599" lon="1.0449">
        <ele>176.06</ele>
        <time>2014-11-30T09:07:55Z</time>
      </trkpt>
      <trkpt lat="44.506" lon="1.04488">
        <ele>176.06</ele>
        <time>2014-11-30T09:07:56Z</time>
      </trkpt>
      <trkpt lat="44.50604" lon="1.04485">
        <ele>177.98</ele>
        <time>2014-11-30T09:08:08Z</time>
      </trkpt>
      <trkpt lat="44.50616" lon="1.04466">
        <ele>177.98</ele>
        <time>2014-11-30T09:08:22Z</time>
      </trkpt>
      <trkpt lat="44.50631" lon="1.04445">
        <ele>176.06</ele>
        <time>2014-11-30T09:08:27Z</time>
      </trkpt>
      <trkpt lat="44.50639" lon="1.0442">
        <ele>173.66</ele>
        <time>2014-11-30T09:08:32Z</time>
      </trkpt>
      <trkpt lat="44.50649" lon="1.04412">
        <ele>173.17</ele>
        <time>2014-11-30T09:08:35Z</time>
      </trkpt>
      <trkpt lat="44.50665" lon="1.04395">
        <ele>173.17</ele>
        <time>2014-11-30T09:08:40Z</time>
      </trkpt>
      <trkpt lat="44.50665" lon="1.0438">
        <ele>171.25</ele>
        <time>2014-11-30T09:08:45Z</time>
      </trkpt>
      <trkpt lat="44.50656" lon="1.04371">
        <ele>169.33</ele>
        <time>2014-11-30T09:08:48Z</time>
      </trkpt>
      <trkpt lat="44.50647" lon="1.04373">
        <ele>165</ele>
        <time>2014-11-30T09:08:59Z</time>
      </trkpt>
      <trkpt lat="44.50646" lon="1.04374">
        <ele>165</ele>
        <time>2014-11-30T09:09:16Z</time>
      </trkpt>
      <trkpt lat="44.50648" lon="1.04375">
        <ele>168.85</ele>
        <time>2014-11-30T09:09:37Z</time>
      </trkpt>
      <trkpt lat="44.50639" lon="1.04377">
        <ele>168.85</ele>
        <time>2014-11-30T09:09:50Z</time>
      </trkpt>
      <trkpt lat="44.50598" lon="1.04401">
        <ele>164.52</ele>
        <time>2014-11-30T09:10:00Z</time>
      </trkpt>
      <trkpt lat="44.50597" lon="1.04374">
        <ele>158.27</ele>
        <time>2014-11-30T09:10:07Z</time>
      </trkpt>
      <trkpt lat="44.50585" lon="1.04365">
        <ele>154.91</ele>
        <time>2014-11-30T09:10:12Z</time>
      </trkpt>
      <trkpt lat="44.50566" lon="1.04384">
        <ele>152.99</ele>
        <time>2014-11-30T09:10:17Z</time>
      </trkpt>
      <trkpt lat="44.50554" lon="1.044">
        <ele>151.54</ele>
        <time>2014-11-30T09:10:20Z</time>
      </trkpt>
      <trkpt lat="44.50525" lon="1.04413">
        <ele>147.22</ele>
        <time>2014-11-30T09:10:25Z</time>
      </trkpt>
      <trkpt lat="44.50502" lon="1.04389">
        <ele>140.97</ele>
        <time>2014-11-30T09:10:32Z</time>
      </trkpt>
      <trkpt lat="44.50499" lon="1.0435">
        <ele>134.24</ele>
        <time>2014-11-30T09:10:38Z</time>
      </trkpt>
      <trkpt lat="44.50496" lon="1.04314">
        <ele>129.92</ele>
        <time>2014-11-30T09:10:43Z</time>
      </trkpt>
      <trkpt lat="44.50489" lon="1.04289">
        <ele>126.55</ele>
        <time>2014-11-30T09:10:47Z</time>
      </trkpt>
      <trkpt lat="44.50475" lon="1.04266">
        <ele>123.19</ele>
        <time>2014-11-30T09:10:51Z</time>
      </trkpt>
      <trkpt lat="44.50449" lon="1.0424">
        <ele>118.86</ele>
        <time>2014-11-30T09:10:56Z</time>
      </trkpt>
      <trkpt lat="44.50423" lon="1.04214">
        <ele>113.09</ele>
        <time>2014-11-30T09:11:01Z</time>
      </trkpt>
      <trkpt lat="44.50377" lon="1.04168">
        <ele>108.77</ele>
        <time>2014-11-30T09:11:10Z</time>
      </trkpt>
      <trkpt lat="44.50358" lon="1.04148">
        <ele>106.84</ele>
        <time>2014-11-30T09:11:14Z</time>
      </trkpt>
      <trkpt lat="44.50327" lon="1.04144">
        <ele>103.96</ele>
        <time>2014-11-30T09:11:20Z</time>
      </trkpt>
      <trkpt lat="44.50286" lon="1.04164">
        <ele>101.08</ele>
        <time>2014-11-30T09:11:27Z</time>
      </trkpt>
      <trkpt lat="44.50261" lon="1.04158">
        <ele>102.04</ele>
        <time>2014-11-30T09:11:30Z</time>
      </trkpt>
      <trkpt lat="44.50196" lon="1.04149">
        <ele>100.11</ele>
        <time>2014-11-30T09:11:38Z</time>
      </trkpt>
      <trkpt lat="44.50162" lon="1.04157">
        <ele>98.67</ele>
        <time>2014-11-30T09:11:42Z</time>
      </trkpt>
      <trkpt lat="44.50145" lon="1.04166">
        <ele>97.71</ele>
        <time>2014-11-30T09:11:45Z</time>
      </trkpt>
      <trkpt lat="44.50131" lon="1.04149">
        <ele>99.15</ele>
        <time>2014-11-30T09:11:54Z</time>
      </trkpt>
      <trkpt lat="44.50108" lon="1.04127">
        <ele>108.77</ele>
        <time>2014-11-30T09:12:08Z</time>
      </trkpt>
      <trkpt lat="44.50084" lon="1.04119">
        <ele>111.65</ele>
        <time>2014-11-30T09:12:21Z</time>
      </trkpt>
      <trkpt lat="44.5008" lon="1.04118">
        <ele>112.13</ele>
        <time>2014-11-30T09:12:33Z</time>
      </trkpt>
      <trkpt lat="44.50078" lon="1.04119">
        <ele>113.57</ele>
        <time>2014-11-30T09:12:53Z</time>
      </trkpt>
      <trkpt lat="44.50078" lon="1.04119">
        <ele>114.53</ele>
        <time>2014-11-30T09:13:15Z</time>
      </trkpt>
      <trkpt lat="44.50076" lon="1.04119">
        <ele>115.01</ele>
        <time>2014-11-30T09:13:31Z</time>
      </trkpt>
      <trkpt lat="44.50053" lon="1.0411">
        <ele>115.01</ele>
        <time>2014-11-30T09:13:45Z</time>
      </trkpt>
      <trkpt lat="44.50024" lon="1.04097">
        <ele>116.46</ele>
        <time>2014-11-30T09:13:59Z</time>
      </trkpt>
      <trkpt lat="44.50001" lon="1.04089">
        <ele>118.38</ele>
        <time>2014-11-30T09:14:13Z</time>
      </trkpt>
      <trkpt lat="44.49969" lon="1.04119">
        <ele>116.46</ele>
        <time>2014-11-30T09:14:26Z</time>
      </trkpt>
      <trkpt lat="44.49943" lon="1.04165">
        <ele>116.46</ele>
        <time>2014-11-30T09:14:41Z</time>
      </trkpt>
      <trkpt lat="44.49934" lon="1.04202">
        <ele>114.05</ele>
        <time>2014-11-30T09:14:52Z</time>
      </trkpt>
      <trkpt lat="44.49932" lon="1.04215">
        <ele>114.05</ele>
        <time>2014-11-30T09:14:56Z</time>
      </trkpt>
      <trkpt lat="44.49917" lon="1.04265">
        <ele>117.9</ele>
        <time>2014-11-30T09:15:11Z</time>
      </trkpt>
      <trkpt lat="44.49887" lon="1.04278">
        <ele>123.67</ele>
        <time>2014-11-30T09:15:24Z</time>
      </trkpt>
      <trkpt lat="44.49858" lon="1.04287">
        <ele>126.07</ele>
        <time>2014-11-30T09:15:38Z</time>
      </trkpt>
      <trkpt lat="44.49851" lon="1.04289">
        <ele>126.55</ele>
        <time>2014-11-30T09:15:41Z</time>
      </trkpt>
      <trkpt lat="44.49849" lon="1.04288">
        <ele>126.55</ele>
        <time>2014-11-30T09:15:42Z</time>
      </trkpt>
      <trkpt lat="44.49848" lon="1.04286">
        <ele>127.03</ele>
        <time>2014-11-30T09:15:43Z</time>
      </trkpt>
      <trkpt lat="44.49847" lon="1.04285">
        <ele>127.03</ele>
        <time>2014-11-30T09:15:44Z</time>
      </trkpt>
      <trkpt lat="44.49846" lon="1.04282">
        <ele>127.03</ele>
        <time>2014-11-30T09:15:45Z</time>
      </trkpt>
      <trkpt lat="44.49846" lon="1.0428">
        <ele>127.51</ele>
        <time>2014-11-30T09:15:46Z</time>
      </trkpt>
      <trkpt lat="44.49846" lon="1.04277">
        <ele>127.51</ele>
        <time>2014-11-30T09:15:47Z</time>
      </trkpt>
      <trkpt lat="44.49846" lon="1.04274">
        <ele>127.51</ele>
        <time>2014-11-30T09:15:48Z</time>
      </trkpt>
      <trkpt lat="44.49846" lon="1.04271">
        <ele>127.51</ele>
        <time>2014-11-30T09:15:49Z</time>
      </trkpt>
      <trkpt lat="44.49846" lon="1.04268">
        <ele>127.51</ele>
        <time>2014-11-30T09:15:50Z</time>
      </trkpt>
      <trkpt lat="44.49846" lon="1.04265">
        <ele>127.51</ele>
        <time>2014-11-30T09:15:51Z</time>
      </trkpt>
      <trkpt lat="44.49847" lon="1.04262">
        <ele>127.51</ele>
        <time>2014-11-30T09:15:52Z</time>
      </trkpt>
      <trkpt lat="44.49846" lon="1.04259">
        <ele>127.99</ele>
        <time>2014-11-30T09:15:53Z</time>
      </trkpt>
      <trkpt lat="44.49847" lon="1.04256">
        <ele>127.99</ele>
        <time>2014-11-30T09:15:54Z</time>
      </trkpt>
      <trkpt lat="44.49846" lon="1.042">
        <ele>131.36</ele>
        <time>2014-11-30T09:16:13Z</time>
      </trkpt>
      <trkpt lat="44.49846" lon="1.04158">
        <ele>134.24</ele>
        <time>2014-11-30T09:16:29Z</time>
      </trkpt>
      <trkpt lat="44.49844" lon="1.04101">
        <ele>139.05</ele>
        <time>2014-11-30T09:16:49Z</time>
      </trkpt>
      <trkpt lat="44.49832" lon="1.0406">
        <ele>142.41</ele>
        <time>2014-11-30T09:17:05Z</time>
      </trkpt>
      <trkpt lat="44.49825" lon="1.04005">
        <ele>145.78</ele>
        <time>2014-11-30T09:17:23Z</time>
      </trkpt>
      <trkpt lat="44.49815" lon="1.03964">
        <ele>144.82</ele>
        <time>2014-11-30T09:17:37Z</time>
      </trkpt>
      <trkpt lat="44.49788" lon="1.03889">
        <ele>138.09</ele>
        <time>2014-11-30T09:17:50Z</time>
      </trkpt>
      <trkpt lat="44.49781" lon="1.03853">
        <ele>134.72</ele>
        <time>2014-11-30T09:17:55Z</time>
      </trkpt>
      <trkpt lat="44.49779" lon="1.03752">
        <ele>125.59</ele>
        <time>2014-11-30T09:18:04Z</time>
      </trkpt>
      <trkpt lat="44.49799" lon="1.03692">
        <ele>121.26</ele>
        <time>2014-11-30T09:18:10Z</time>
      </trkpt>
      <trkpt lat="44.49812" lon="1.03655">
        <ele>118.86</ele>
        <time>2014-11-30T09:18:15Z</time>
      </trkpt>
      <trkpt lat="44.49799" lon="1.0362">
        <ele>117.9</ele>
        <time>2014-11-30T09:18:22Z</time>
      </trkpt>
      <trkpt lat="44.49779" lon="1.03591">
        <ele>121.74</ele>
        <time>2014-11-30T09:18:36Z</time>
      </trkpt>
      <trkpt lat="44.49765" lon="1.03571">
        <ele>126.55</ele>
        <time>2014-11-30T09:18:49Z</time>
      </trkpt>
      <trkpt lat="44.4976" lon="1.03567">
        <ele>127.99</ele>
        <time>2014-11-30T09:18:53Z</time>
      </trkpt>
      <trkpt lat="44.49757" lon="1.03563">
        <ele>128.47</ele>
        <time>2014-11-30T09:18:55Z</time>
      </trkpt>
      <trkpt lat="44.49749" lon="1.03557">
        <ele>130.4</ele>
        <time>2014-11-30T09:19:00Z</time>
      </trkpt>
      <trkpt lat="44.49723" lon="1.0354">
        <ele>138.57</ele>
        <time>2014-11-30T09:19:16Z</time>
      </trkpt>
      <trkpt lat="44.49715" lon="1.03534">
        <ele>140.49</ele>
        <time>2014-11-30T09:19:21Z</time>
      </trkpt>
      <trkpt lat="44.49704" lon="1.03505">
        <ele>143.37</ele>
        <time>2014-11-30T09:19:36Z</time>
      </trkpt>
      <trkpt lat="44.49702" lon="1.03471">
        <ele>142.89</ele>
        <time>2014-11-30T09:19:50Z</time>
      </trkpt>
      <trkpt lat="44.49695" lon="1.03433">
        <ele>143.37</ele>
        <time>2014-11-30T09:20:03Z</time>
      </trkpt>
      <trkpt lat="44.49693" lon="1.03381">
        <ele>143.37</ele>
        <time>2014-11-30T09:20:18Z</time>
      </trkpt>
      <trkpt lat="44.4968" lon="1.03353">
        <ele>143.85</ele>
        <time>2014-11-30T09:20:28Z</time>
      </trkpt>
      <trkpt lat="44.49665" lon="1.03306">
        <ele>147.7</ele>
        <time>2014-11-30T09:20:46Z</time>
      </trkpt>
      <trkpt lat="44.49655" lon="1.03266">
        <ele>152.03</ele>
        <time>2014-11-30T09:21:04Z</time>
      </trkpt>
      <trkpt lat="44.49649" lon="1.03258">
        <ele>153.47</ele>
        <time>2014-11-30T09:21:10Z</time>
      </trkpt>
      <trkpt lat="44.49645" lon="1.03257">
        <ele>153.47</ele>
        <time>2014-11-30T09:21:14Z</time>
      </trkpt>
      <trkpt lat="44.49628" lon="1.03255">
        <ele>152.99</ele>
        <time>2014-11-30T09:21:29Z</time>
      </trkpt>
      <trkpt lat="44.49609" lon="1.03255">
        <ele>153.47</ele>
        <time>2014-11-30T09:21:41Z</time>
      </trkpt>
      <trkpt lat="44.49604" lon="1.03249">
        <ele>153.95</ele>
        <time>2014-11-30T09:21:45Z</time>
      </trkpt>
      <trkpt lat="44.49603" lon="1.03247">
        <ele>153.95</ele>
        <time>2014-11-30T09:21:46Z</time>
      </trkpt>
      <trkpt lat="44.49591" lon="1.03215">
        <ele>156.83</ele>
        <time>2014-11-30T09:21:59Z</time>
      </trkpt>
      <trkpt lat="44.49579" lon="1.03191">
        <ele>159.24</ele>
        <time>2014-11-30T09:22:10Z</time>
      </trkpt>
      <trkpt lat="44.49571" lon="1.03181">
        <ele>160.2</ele>
        <time>2014-11-30T09:22:16Z</time>
      </trkpt>
      <trkpt lat="44.49571" lon="1.0318">
        <ele>160.2</ele>
        <time>2014-11-30T09:22:17Z</time>
      </trkpt>
      <trkpt lat="44.4957" lon="1.03178">
        <ele>160.2</ele>
        <time>2014-11-30T09:22:18Z</time>
      </trkpt>
      <trkpt lat="44.49568" lon="1.03177">
        <ele>160.2</ele>
        <time>2014-11-30T09:22:19Z</time>
      </trkpt>
      <trkpt lat="44.49567" lon="1.03175">
        <ele>160.2</ele>
        <time>2014-11-30T09:22:20Z</time>
      </trkpt>
      <trkpt lat="44.49566" lon="1.03174">
        <ele>160.2</ele>
        <time>2014-11-30T09:22:21Z</time>
      </trkpt>
      <trkpt lat="44.49564" lon="1.03172">
        <ele>160.2</ele>
        <time>2014-11-30T09:22:22Z</time>
      </trkpt>
      <trkpt lat="44.49563" lon="1.0317">
        <ele>160.2</ele>
        <time>2014-11-30T09:22:23Z</time>
      </trkpt>
      <trkpt lat="44.49562" lon="1.03168">
        <ele>160.2</ele>
        <time>2014-11-30T09:22:24Z</time>
      </trkpt>
      <trkpt lat="44.49561" lon="1.03167">
        <ele>160.2</ele>
        <time>2014-11-30T09:22:25Z</time>
      </trkpt>
      <trkpt lat="44.49559" lon="1.03165">
        <ele>160.2</ele>
        <time>2014-11-30T09:22:26Z</time>
      </trkpt>
      <trkpt lat="44.49558" lon="1.03164">
        <ele>160.2</ele>
        <time>2014-11-30T09:22:27Z</time>
      </trkpt>
      <trkpt lat="44.49556" lon="1.03163">
        <ele>160.2</ele>
        <time>2014-11-30T09:22:28Z</time>
      </trkpt>
      <trkpt lat="44.49555" lon="1.03163">
        <ele>159.72</ele>
        <time>2014-11-30T09:22:29Z</time>
      </trkpt>
      <trkpt lat="44.49553" lon="1.03162">
        <ele>159.72</ele>
        <time>2014-11-30T09:22:30Z</time>
      </trkpt>
      <trkpt lat="44.49552" lon="1.03161">
        <ele>160.2</ele>
        <time>2014-11-30T09:22:31Z</time>
      </trkpt>
      <trkpt lat="44.49551" lon="1.0316">
        <ele>160.2</ele>
        <time>2014-11-30T09:22:32Z</time>
      </trkpt>
      <trkpt lat="44.4955" lon="1.03159">
        <ele>160.68</ele>
        <time>2014-11-30T09:22:33Z</time>
      </trkpt>
      <trkpt lat="44.49546" lon="1.03157">
        <ele>160.68</ele>
        <time>2014-11-30T09:22:36Z</time>
      </trkpt>
      <trkpt lat="44.49546" lon="1.0316">
        <ele>160.68</ele>
        <time>2014-11-30T09:22:41Z</time>
      </trkpt>
      <trkpt lat="44.49547" lon="1.0316">
        <ele>161.16</ele>
        <time>2014-11-30T09:22:42Z</time>
      </trkpt>
      <trkpt lat="44.49549" lon="1.0316">
        <ele>161.16</ele>
        <time>2014-11-30T09:22:43Z</time>
      </trkpt>
      <trkpt lat="44.49551" lon="1.03161">
        <ele>161.16</ele>
        <time>2014-11-30T09:22:44Z</time>
      </trkpt>
      <trkpt lat="44.49554" lon="1.03162">
        <ele>161.16</ele>
        <time>2014-11-30T09:22:45Z</time>
      </trkpt>
      <trkpt lat="44.49557" lon="1.03163">
        <ele>161.16</ele>
        <time>2014-11-30T09:22:46Z</time>
      </trkpt>
      <trkpt lat="44.4956" lon="1.03164">
        <ele>161.16</ele>
        <time>2014-11-30T09:22:47Z</time>
      </trkpt>
      <trkpt lat="44.49562" lon="1.03164">
        <ele>161.16</ele>
        <time>2014-11-30T09:22:48Z</time>
      </trkpt>
      <trkpt lat="44.49564" lon="1.03163">
        <ele>160.68</ele>
        <time>2014-11-30T09:22:49Z</time>
      </trkpt>
      <trkpt lat="44.49565" lon="1.0316">
        <ele>160.68</ele>
        <time>2014-11-30T09:22:50Z</time>
      </trkpt>
      <trkpt lat="44.49564" lon="1.03156">
        <ele>160.2</ele>
        <time>2014-11-30T09:22:51Z</time>
      </trkpt>
      <trkpt lat="44.49564" lon="1.03152">
        <ele>159.72</ele>
        <time>2014-11-30T09:22:52Z</time>
      </trkpt>
      <trkpt lat="44.49564" lon="1.03147">
        <ele>159.24</ele>
        <time>2014-11-30T09:22:53Z</time>
      </trkpt>
      <trkpt lat="44.49565" lon="1.03142">
        <ele>158.75</ele>
        <time>2014-11-30T09:22:54Z</time>
      </trkpt>
      <trkpt lat="44.49566" lon="1.03137">
        <ele>158.75</ele>
        <time>2014-11-30T09:22:55Z</time>
      </trkpt>
      <trkpt lat="44.49567" lon="1.03133">
        <ele>158.27</ele>
        <time>2014-11-30T09:22:56Z</time>
      </trkpt>
      <trkpt lat="44.49568" lon="1.03129">
        <ele>158.27</ele>
        <time>2014-11-30T09:22:57Z</time>
      </trkpt>
      <trkpt lat="44.4957" lon="1.03125">
        <ele>157.79</ele>
        <time>2014-11-30T09:22:58Z</time>
      </trkpt>
      <trkpt lat="44.49571" lon="1.03122">
        <ele>157.31</ele>
        <time>2014-11-30T09:22:59Z</time>
      </trkpt>
      <trkpt lat="44.49587" lon="1.0307">
        <ele>153.95</ele>
        <time>2014-11-30T09:23:12Z</time>
      </trkpt>
      <trkpt lat="44.49589" lon="1.0306">
        <ele>153.47</ele>
        <time>2014-11-30T09:23:14Z</time>
      </trkpt>
      <trkpt lat="44.4959" lon="1.03019">
        <ele>150.58</ele>
        <time>2014-11-30T09:23:20Z</time>
      </trkpt>
      <trkpt lat="44.49592" lon="1.03004">
        <ele>149.62</ele>
        <time>2014-11-30T09:23:22Z</time>
      </trkpt>
      <trkpt lat="44.49593" lon="1.02995">
        <ele>149.14</ele>
        <time>2014-11-30T09:23:23Z</time>
      </trkpt>
      <trkpt lat="44.49625" lon="1.02893">
        <ele>142.89</ele>
        <time>2014-11-30T09:23:33Z</time>
      </trkpt>
      <trkpt lat="44.49657" lon="1.02812">
        <ele>135.2</ele>
        <time>2014-11-30T09:23:43Z</time>
      </trkpt>
      <trkpt lat="44.4966" lon="1.02811">
        <ele>134.72</ele>
        <time>2014-11-30T09:23:44Z</time>
      </trkpt>
      <trkpt lat="44.49671" lon="1.0282">
        <ele>134.24</ele>
        <time>2014-11-30T09:23:48Z</time>
      </trkpt>
      <trkpt lat="44.49715" lon="1.02853">
        <ele>133.28</ele>
        <time>2014-11-30T09:24:02Z</time>
      </trkpt>
      <trkpt lat="44.49749" lon="1.02843">
        <ele>133.76</ele>
        <time>2014-11-30T09:24:12Z</time>
      </trkpt>
      <trkpt lat="44.49779" lon="1.02843">
        <ele>135.68</ele>
        <time>2014-11-30T09:24:23Z</time>
      </trkpt>
      <trkpt lat="44.49814" lon="1.02845">
        <ele>138.09</ele>
        <time>2014-11-30T09:24:34Z</time>
      </trkpt>
      <trkpt lat="44.49864" lon="1.02847">
        <ele>137.13</ele>
        <time>2014-11-30T09:24:49Z</time>
      </trkpt>
      <trkpt lat="44.4991" lon="1.02827">
        <ele>135.68</ele>
        <time>2014-11-30T09:25:03Z</time>
      </trkpt>
      <trkpt lat="44.4995" lon="1.02826">
        <ele>137.61</ele>
        <time>2014-11-30T09:25:16Z</time>
      </trkpt>
      <trkpt lat="44.50004" lon="1.02834">
        <ele>138.57</ele>
        <time>2014-11-30T09:25:32Z</time>
      </trkpt>
      <trkpt lat="44.5005" lon="1.02835">
        <ele>139.53</ele>
        <time>2014-11-30T09:25:46Z</time>
      </trkpt>
      <trkpt lat="44.50104" lon="1.02825">
        <ele>141.45</ele>
        <time>2014-11-30T09:26:04Z</time>
      </trkpt>
      <trkpt lat="44.50138" lon="1.02815">
        <ele>142.41</ele>
        <time>2014-11-30T09:26:18Z</time>
      </trkpt>
      <trkpt lat="44.50174" lon="1.02788">
        <ele>144.82</ele>
        <time>2014-11-30T09:26:35Z</time>
      </trkpt>
      <trkpt lat="44.50176" lon="1.02787">
        <ele>145.3</ele>
        <time>2014-11-30T09:26:36Z</time>
      </trkpt>
      <trkpt lat="44.50211" lon="1.02767">
        <ele>150.1</ele>
        <time>2014-11-30T09:26:53Z</time>
      </trkpt>
      <trkpt lat="44.50245" lon="1.02748">
        <ele>153.95</ele>
        <time>2014-11-30T09:27:09Z</time>
      </trkpt>
      <trkpt lat="44.50281" lon="1.02736">
        <ele>158.27</ele>
        <time>2014-11-30T09:27:25Z</time>
      </trkpt>
      <trkpt lat="44.50317" lon="1.02729">
        <ele>161.16</ele>
        <time>2014-11-30T09:27:40Z</time>
      </trkpt>
      <trkpt lat="44.50359" lon="1.02728">
        <ele>164.04</ele>
        <time>2014-11-30T09:27:57Z</time>
      </trkpt>
      <trkpt lat="44.50388" lon="1.02724">
        <ele>163.56</ele>
        <time>2014-11-30T09:28:12Z</time>
      </trkpt>
      <trkpt lat="44.50406" lon="1.02721">
        <ele>165.48</ele>
        <time>2014-11-30T09:28:23Z</time>
      </trkpt>
      <trkpt lat="44.50408" lon="1.02721">
        <ele>165.48</ele>
        <time>2014-11-30T09:28:24Z</time>
      </trkpt>
      <trkpt lat="44.50433" lon="1.02736">
        <ele>167.41</ele>
        <time>2014-11-30T09:28:41Z</time>
      </trkpt>
      <trkpt lat="44.50455" lon="1.02764">
        <ele>167.41</ele>
        <time>2014-11-30T09:28:55Z</time>
      </trkpt>
      <trkpt lat="44.50458" lon="1.02769">
        <ele>167.41</ele>
        <time>2014-11-30T09:28:57Z</time>
      </trkpt>
      <trkpt lat="44.50463" lon="1.0278">
        <ele>166.93</ele>
        <time>2014-11-30T09:29:01Z</time>
      </trkpt>
      <trkpt lat="44.50484" lon="1.02836">
        <ele>164.04</ele>
        <time>2014-11-30T09:29:15Z</time>
      </trkpt>
      <trkpt lat="44.50501" lon="1.02882">
        <ele>165.96</ele>
        <time>2014-11-30T09:29:29Z</time>
      </trkpt>
      <trkpt lat="44.50514" lon="1.02923">
        <ele>165.96</ele>
        <time>2014-11-30T09:29:42Z</time>
      </trkpt>
      <trkpt lat="44.50537" lon="1.02952">
        <ele>168.85</ele>
        <time>2014-11-30T09:29:58Z</time>
      </trkpt>
      <trkpt lat="44.50555" lon="1.02981">
        <ele>172.69</ele>
        <time>2014-11-30T09:30:13Z</time>
      </trkpt>
      <trkpt lat="44.50577" lon="1.0301">
        <ele>176.54</ele>
        <time>2014-11-30T09:30:30Z</time>
      </trkpt>
      <trkpt lat="44.50597" lon="1.03037">
        <ele>180.38</ele>
        <time>2014-11-30T09:30:45Z</time>
      </trkpt>
      <trkpt lat="44.50606" lon="1.03071">
        <ele>183.27</ele>
        <time>2014-11-30T09:31:00Z</time>
      </trkpt>
      <trkpt lat="44.50613" lon="1.03104">
        <ele>185.67</ele>
        <time>2014-11-30T09:31:13Z</time>
      </trkpt>
      <trkpt lat="44.50631" lon="1.03143">
        <ele>188.56</ele>
        <time>2014-11-30T09:31:30Z</time>
      </trkpt>
      <trkpt lat="44.5065" lon="1.03176">
        <ele>190.48</ele>
        <time>2014-11-30T09:31:46Z</time>
      </trkpt>
      <trkpt lat="44.50672" lon="1.03202">
        <ele>190</ele>
        <time>2014-11-30T09:32:03Z</time>
      </trkpt>
      <trkpt lat="44.50678" lon="1.03206">
        <ele>190.48</ele>
        <time>2014-11-30T09:32:15Z</time>
      </trkpt>
      <trkpt lat="44.50679" lon="1.03206">
        <ele>190.48</ele>
        <time>2014-11-30T09:32:22Z</time>
      </trkpt>
      <trkpt lat="44.50701" lon="1.032">
        <ele>190.48</ele>
        <time>2014-11-30T09:32:41Z</time>
      </trkpt>
      <trkpt lat="44.50719" lon="1.03196">
        <ele>191.44</ele>
        <time>2014-11-30T09:33:01Z</time>
      </trkpt>
      <trkpt lat="44.5072" lon="1.03198">
        <ele>189.52</ele>
        <time>2014-11-30T09:33:20Z</time>
      </trkpt>
      <trkpt lat="44.50718" lon="1.03198">
        <ele>188.08</ele>
        <time>2014-11-30T09:33:56Z</time>
      </trkpt>
      <trkpt lat="44.50719" lon="1.03198">
        <ele>188.08</ele>
        <time>2014-11-30T09:34:27Z</time>
      </trkpt>
      <trkpt lat="44.50719" lon="1.03198">
        <ele>189.04</ele>
        <time>2014-11-30T09:34:56Z</time>
      </trkpt>
      <trkpt lat="44.5072" lon="1.03198">
        <ele>188.56</ele>
        <time>2014-11-30T09:35:34Z</time>
      </trkpt>
      <trkpt lat="44.50718" lon="1.03198">
        <ele>187.11</ele>
        <time>2014-11-30T09:36:17Z</time>
      </trkpt>
      <trkpt lat="44.50718" lon="1.03199">
        <ele>186.63</ele>
        <time>2014-11-30T09:36:51Z</time>
      </trkpt>
      <trkpt lat="44.50719" lon="1.03197">
        <ele>186.63</ele>
        <time>2014-11-30T09:37:26Z</time>
      </trkpt>
      <trkpt lat="44.50719" lon="1.03197">
        <ele>188.08</ele>
        <time>2014-11-30T09:38:02Z</time>
      </trkpt>
      <trkpt lat="44.5072" lon="1.03197">
        <ele>188.56</ele>
        <time>2014-11-30T09:38:34Z</time>
      </trkpt>
      <trkpt lat="44.5072" lon="1.03198">
        <ele>190</ele>
        <time>2014-11-30T09:39:12Z</time>
      </trkpt>
      <trkpt lat="44.50722" lon="1.03196">
        <ele>190.96</ele>
        <time>2014-11-30T09:39:30Z</time>
      </trkpt>
      <trkpt lat="44.50722" lon="1.03196">
        <ele>190.96</ele>
        <time>2014-11-30T09:39:32Z</time>
      </trkpt>
      <trkpt lat="44.50751" lon="1.03182">
        <ele>193.36</ele>
        <time>2014-11-30T09:39:46Z</time>
      </trkpt>
      <trkpt lat="44.50773" lon="1.03165">
        <ele>195.77</ele>
        <time>2014-11-30T09:39:59Z</time>
      </trkpt>
      <trkpt lat="44.50799" lon="1.03145">
        <ele>198.65</ele>
        <time>2014-11-30T09:40:15Z</time>
      </trkpt>
      <trkpt lat="44.50821" lon="1.03139">
        <ele>202.98</ele>
        <time>2014-11-30T09:40:30Z</time>
      </trkpt>
      <trkpt lat="44.5084" lon="1.03143">
        <ele>206.82</ele>
        <time>2014-11-30T09:40:45Z</time>
      </trkpt>
      <trkpt lat="44.50854" lon="1.03149">
        <ele>209.7</ele>
        <time>2014-11-30T09:40:56Z</time>
      </trkpt>
      <trkpt lat="44.5086" lon="1.03153">
        <ele>210.19</ele>
        <time>2014-11-30T09:41:00Z</time>
      </trkpt>
      <trkpt lat="44.50887" lon="1.03166">
        <ele>214.03</ele>
        <time>2014-11-30T09:41:17Z</time>
      </trkpt>
      <trkpt lat="44.50904" lon="1.03174">
        <ele>217.4</ele>
        <time>2014-11-30T09:41:29Z</time>
      </trkpt>
      <trkpt lat="44.50926" lon="1.03188">
        <ele>222.68</ele>
        <time>2014-11-30T09:41:45Z</time>
      </trkpt>
      <trkpt lat="44.50945" lon="1.03205">
        <ele>225.09</ele>
        <time>2014-11-30T09:41:58Z</time>
      </trkpt>
      <trkpt lat="44.50965" lon="1.0324">
        <ele>223.64</ele>
        <time>2014-11-30T09:42:11Z</time>
      </trkpt>
      <trkpt lat="44.50969" lon="1.03248">
        <ele>223.64</ele>
        <time>2014-11-30T09:42:14Z</time>
      </trkpt>
      <trkpt lat="44.50976" lon="1.03243">
        <ele>224.12</ele>
        <time>2014-11-30T09:42:19Z</time>
      </trkpt>
      <trkpt lat="44.5097" lon="1.03207">
        <ele>224.12</ele>
        <time>2014-11-30T09:42:36Z</time>
      </trkpt>
      <trkpt lat="44.5097" lon="1.03207">
        <ele>223.16</ele>
        <time>2014-11-30T09:42:49Z</time>
      </trkpt>
      <trkpt lat="44.50971" lon="1.03209">
        <ele>219.32</ele>
        <time>2014-11-30T09:43:17Z</time>
      </trkpt>
      <trkpt lat="44.50971" lon="1.03204">
        <ele>221.24</ele>
        <time>2014-11-30T09:43:43Z</time>
      </trkpt>
      <trkpt lat="44.50969" lon="1.03199">
        <ele>222.68</ele>
        <time>2014-11-30T09:43:52Z</time>
      </trkpt>
      <trkpt lat="44.50957" lon="1.03162">
        <ele>223.64</ele>
        <time>2014-11-30T09:44:05Z</time>
      </trkpt>
      <trkpt lat="44.50958" lon="1.03159">
        <ele>224.12</ele>
        <time>2014-11-30T09:44:06Z</time>
      </trkpt>
      <trkpt lat="44.5096" lon="1.03157">
        <ele>224.12</ele>
        <time>2014-11-30T09:44:07Z</time>
      </trkpt>
      <trkpt lat="44.50962" lon="1.03155">
        <ele>224.12</ele>
        <time>2014-11-30T09:44:08Z</time>
      </trkpt>
      <trkpt lat="44.50964" lon="1.03154">
        <ele>224.12</ele>
        <time>2014-11-30T09:44:09Z</time>
      </trkpt>
      <trkpt lat="44.50997" lon="1.03132">
        <ele>225.57</ele>
        <time>2014-11-30T09:44:25Z</time>
      </trkpt>
      <trkpt lat="44.51015" lon="1.03123">
        <ele>226.05</ele>
        <time>2014-11-30T09:44:40Z</time>
      </trkpt>
      <trkpt lat="44.51023" lon="1.03116">
        <ele>226.05</ele>
        <time>2014-11-30T09:44:53Z</time>
      </trkpt>
      <trkpt lat="44.51042" lon="1.0309">
        <ele>224.12</ele>
        <time>2014-11-30T09:45:04Z</time>
      </trkpt>
      <trkpt lat="44.51046" lon="1.03038">
        <ele>222.68</ele>
        <time>2014-11-30T09:45:16Z</time>
      </trkpt>
      <trkpt lat="44.51048" lon="1.03033">
        <ele>222.68</ele>
        <time>2014-11-30T09:45:17Z</time>
      </trkpt>
      <trkpt lat="44.5105" lon="1.03028">
        <ele>222.2</ele>
        <time>2014-11-30T09:45:18Z</time>
      </trkpt>
      <trkpt lat="44.51083" lon="1.02971">
        <ele>215.95</ele>
        <time>2014-11-30T09:45:30Z</time>
      </trkpt>
      <trkpt lat="44.51087" lon="1.02968">
        <ele>215.47</ele>
        <time>2014-11-30T09:45:31Z</time>
      </trkpt>
      <trkpt lat="44.51128" lon="1.02928">
        <ele>209.22</ele>
        <time>2014-11-30T09:45:40Z</time>
      </trkpt>
      <trkpt lat="44.5114" lon="1.02918">
        <ele>206.34</ele>
        <time>2014-11-30T09:45:43Z</time>
      </trkpt>
      <trkpt lat="44.51147" lon="1.02909">
        <ele>204.9</ele>
        <time>2014-11-30T09:45:45Z</time>
      </trkpt>
      <trkpt lat="44.51165" lon="1.02889">
        <ele>200.57</ele>
        <time>2014-11-30T09:45:50Z</time>
      </trkpt>
      <trkpt lat="44.51175" lon="1.02881">
        <ele>199.13</ele>
        <time>2014-11-30T09:45:52Z</time>
      </trkpt>
      <trkpt lat="44.51192" lon="1.02872">
        <ele>196.73</ele>
        <time>2014-11-30T09:45:55Z</time>
      </trkpt>
      <trkpt lat="44.51264" lon="1.02854">
        <ele>190.96</ele>
        <time>2014-11-30T09:46:06Z</time>
      </trkpt>
      <trkpt lat="44.51284" lon="1.02845">
        <ele>190.48</ele>
        <time>2014-11-30T09:46:10Z</time>
      </trkpt>
      <trkpt lat="44.51303" lon="1.02835">
        <ele>188.56</ele>
        <time>2014-11-30T09:46:15Z</time>
      </trkpt>
      <trkpt lat="44.51318" lon="1.02818">
        <ele>186.15</ele>
        <time>2014-11-30T09:46:19Z</time>
      </trkpt>
      <trkpt lat="44.51354" lon="1.02782">
        <ele>179.9</ele>
        <time>2014-11-30T09:46:27Z</time>
      </trkpt>
      <trkpt lat="44.51359" lon="1.02752">
        <ele>175.58</ele>
        <time>2014-11-30T09:46:32Z</time>
      </trkpt>
      <trkpt lat="44.51346" lon="1.02723">
        <ele>170.77</ele>
        <time>2014-11-30T09:46:37Z</time>
      </trkpt>
      <trkpt lat="44.51341" lon="1.02712">
        <ele>168.37</ele>
        <time>2014-11-30T09:46:39Z</time>
      </trkpt>
      <trkpt lat="44.51304" lon="1.02652">
        <ele>158.27</ele>
        <time>2014-11-30T09:46:49Z</time>
      </trkpt>
      <trkpt lat="44.51283" lon="1.02621">
        <ele>155.87</ele>
        <time>2014-11-30T09:46:57Z</time>
      </trkpt>
      <trkpt lat="44.51287" lon="1.0261">
        <ele>155.39</ele>
        <time>2014-11-30T09:47:01Z</time>
      </trkpt>
      <trkpt lat="44.51324" lon="1.02558">
        <ele>147.22</ele>
        <time>2014-11-30T09:47:11Z</time>
      </trkpt>
      <trkpt lat="44.51372" lon="1.0249">
        <ele>135.68</ele>
        <time>2014-11-30T09:47:22Z</time>
      </trkpt>
      <trkpt lat="44.51386" lon="1.02476">
        <ele>133.28</ele>
        <time>2014-11-30T09:47:25Z</time>
      </trkpt>
      <trkpt lat="44.51406" lon="1.02463">
        <ele>130.88</ele>
        <time>2014-11-30T09:47:29Z</time>
      </trkpt>
      <trkpt lat="44.51462" lon="1.02455">
        <ele>126.07</ele>
        <time>2014-11-30T09:47:38Z</time>
      </trkpt>
      <trkpt lat="44.51483" lon="1.02442">
        <ele>123.67</ele>
        <time>2014-11-30T09:47:41Z</time>
      </trkpt>
      <trkpt lat="44.51544" lon="1.02416">
        <ele>116.46</ele>
        <time>2014-11-30T09:47:50Z</time>
      </trkpt>
      <trkpt lat="44.51579" lon="1.02379">
        <ele>112.13</ele>
        <time>2014-11-30T09:47:55Z</time>
      </trkpt>
      <trkpt lat="44.51642" lon="1.02284">
        <ele>103</ele>
        <time>2014-11-30T09:48:07Z</time>
      </trkpt>
      <trkpt lat="44.51648" lon="1.02276">
        <ele>102.04</ele>
        <time>2014-11-30T09:48:08Z</time>
      </trkpt>
      <trkpt lat="44.51672" lon="1.02234">
        <ele>98.19</ele>
        <time>2014-11-30T09:48:16Z</time>
      </trkpt>
      <trkpt lat="44.51676" lon="1.02229">
        <ele>98.67</ele>
        <time>2014-11-30T09:48:18Z</time>
      </trkpt>
      <trkpt lat="44.51684" lon="1.02226">
        <ele>98.19</ele>
        <time>2014-11-30T09:48:22Z</time>
      </trkpt>
      <trkpt lat="44.51712" lon="1.02237">
        <ele>97.23</ele>
        <time>2014-11-30T09:48:34Z</time>
      </trkpt>
      <trkpt lat="44.51747" lon="1.02243">
        <ele>96.27</ele>
        <time>2014-11-30T09:48:45Z</time>
      </trkpt>
      <trkpt lat="44.51793" lon="1.02221">
        <ele>94.83</ele>
        <time>2014-11-30T09:48:59Z</time>
      </trkpt>
      <trkpt lat="44.51831" lon="1.02189">
        <ele>93.87</ele>
        <time>2014-11-30T09:49:12Z</time>
      </trkpt>
      <trkpt lat="44.51842" lon="1.02171">
        <ele>92.9</ele>
        <time>2014-11-30T09:49:18Z</time>
      </trkpt>
      <trkpt lat="44.51835" lon="1.02151">
        <ele>92.42</ele>
        <time>2014-11-30T09:49:24Z</time>
      </trkpt>
      <trkpt lat="44.51814" lon="1.02112">
        <ele>90.5</ele>
        <time>2014-11-30T09:49:35Z</time>
      </trkpt>
      <trkpt lat="44.51809" lon="1.02097">
        <ele>89.06</ele>
        <time>2014-11-30T09:49:39Z</time>
      </trkpt>
      <trkpt lat="44.51794" lon="1.02051">
        <ele>89.06</ele>
        <time>2014-11-30T09:49:51Z</time>
      </trkpt>
      <trkpt lat="44.51779" lon="1.02006">
        <ele>94.35</ele>
        <time>2014-11-30T09:50:03Z</time>
      </trkpt>
      <trkpt lat="44.51765" lon="1.01965">
        <ele>97.23</ele>
        <time>2014-11-30T09:50:15Z</time>
      </trkpt>
      <trkpt lat="44.51749" lon="1.01916">
        <ele>100.6</ele>
        <time>2014-11-30T09:50:30Z</time>
      </trkpt>
      <trkpt lat="44.51744" lon="1.01872">
        <ele>98.67</ele>
        <time>2014-11-30T09:50:41Z</time>
      </trkpt>
      <trkpt lat="44.51744" lon="1.01803">
        <ele>95.31</ele>
        <time>2014-11-30T09:50:51Z</time>
      </trkpt>
      <trkpt lat="44.51746" lon="1.01796">
        <ele>95.31</ele>
        <time>2014-11-30T09:50:52Z</time>
      </trkpt>
      <trkpt lat="44.51749" lon="1.01781">
        <ele>94.83</ele>
        <time>2014-11-30T09:50:54Z</time>
      </trkpt>
      <trkpt lat="44.51755" lon="1.01759">
        <ele>94.35</ele>
        <time>2014-11-30T09:50:57Z</time>
      </trkpt>
      <trkpt lat="44.51772" lon="1.01724">
        <ele>92.42</ele>
        <time>2014-11-30T09:51:02Z</time>
      </trkpt>
      <trkpt lat="44.51776" lon="1.01718">
        <ele>91.94</ele>
        <time>2014-11-30T09:51:03Z</time>
      </trkpt>
      <trkpt lat="44.51781" lon="1.01712">
        <ele>91.94</ele>
        <time>2014-11-30T09:51:04Z</time>
      </trkpt>
      <trkpt lat="44.51787" lon="1.01707">
        <ele>91.46</ele>
        <time>2014-11-30T09:51:05Z</time>
      </trkpt>
      <trkpt lat="44.51793" lon="1.01703">
        <ele>90.98</ele>
        <time>2014-11-30T09:51:06Z</time>
      </trkpt>
      <trkpt lat="44.518" lon="1.017">
        <ele>90.98</ele>
        <time>2014-11-30T09:51:07Z</time>
      </trkpt>
      <trkpt lat="44.5182" lon="1.01689">
        <ele>90.02</ele>
        <time>2014-11-30T09:51:11Z</time>
      </trkpt>
      <trkpt lat="44.51822" lon="1.01686">
        <ele>89.54</ele>
        <time>2014-11-30T09:51:12Z</time>
      </trkpt>
      <trkpt lat="44.51822" lon="1.01681">
        <ele>89.54</ele>
        <time>2014-11-30T09:51:13Z</time>
      </trkpt>
      <trkpt lat="44.51821" lon="1.01676">
        <ele>89.06</ele>
        <time>2014-11-30T09:51:14Z</time>
      </trkpt>
      <trkpt lat="44.51818" lon="1.0167">
        <ele>89.06</ele>
        <time>2014-11-30T09:51:15Z</time>
      </trkpt>
      <trkpt lat="44.51806" lon="1.01643">
        <ele>88.1</ele>
        <time>2014-11-30T09:51:20Z</time>
      </trkpt>
      <trkpt lat="44.51804" lon="1.01638">
        <ele>88.1</ele>
        <time>2014-11-30T09:51:21Z</time>
      </trkpt>
      <trkpt lat="44.51782" lon="1.01588">
        <ele>90.02</ele>
        <time>2014-11-30T09:51:35Z</time>
      </trkpt>
      <trkpt lat="44.51759" lon="1.01536">
        <ele>90.02</ele>
        <time>2014-11-30T09:51:52Z</time>
      </trkpt>
      <trkpt lat="44.51718" lon="1.01484">
        <ele>87.14</ele>
        <time>2014-11-30T09:52:03Z</time>
      </trkpt>
      <trkpt lat="44.51709" lon="1.01475">
        <ele>86.66</ele>
        <time>2014-11-30T09:52:05Z</time>
      </trkpt>
      <trkpt lat="44.51704" lon="1.01473">
        <ele>86.66</ele>
        <time>2014-11-30T09:52:06Z</time>
      </trkpt>
      <trkpt lat="44.517" lon="1.01472">
        <ele>86.66</ele>
        <time>2014-11-30T09:52:07Z</time>
      </trkpt>
      <trkpt lat="44.51696" lon="1.01474">
        <ele>86.66</ele>
        <time>2014-11-30T09:52:08Z</time>
      </trkpt>
      <trkpt lat="44.51692" lon="1.01476">
        <ele>86.66</ele>
        <time>2014-11-30T09:52:09Z</time>
      </trkpt>
      <trkpt lat="44.51689" lon="1.01479">
        <ele>87.14</ele>
        <time>2014-11-30T09:52:10Z</time>
      </trkpt>
      <trkpt lat="44.51686" lon="1.01483">
        <ele>87.14</ele>
        <time>2014-11-30T09:52:11Z</time>
      </trkpt>
      <trkpt lat="44.51684" lon="1.01487">
        <ele>87.14</ele>
        <time>2014-11-30T09:52:12Z</time>
      </trkpt>
      <trkpt lat="44.51655" lon="1.01543">
        <ele>91.46</ele>
        <time>2014-11-30T09:52:27Z</time>
      </trkpt>
      <trkpt lat="44.51633" lon="1.01565">
        <ele>94.83</ele>
        <time>2014-11-30T09:52:41Z</time>
      </trkpt>
      <trkpt lat="44.51605" lon="1.01556">
        <ele>99.15</ele>
        <time>2014-11-30T09:52:57Z</time>
      </trkpt>
      <trkpt lat="44.51584" lon="1.0155">
        <ele>102.52</ele>
        <time>2014-11-30T09:53:10Z</time>
      </trkpt>
      <trkpt lat="44.51558" lon="1.01551">
        <ele>104.92</ele>
        <time>2014-11-30T09:53:24Z</time>
      </trkpt>
      <trkpt lat="44.51518" lon="1.01543">
        <ele>104.44</ele>
        <time>2014-11-30T09:53:37Z</time>
      </trkpt>
      <trkpt lat="44.51493" lon="1.01537">
        <ele>103.96</ele>
        <time>2014-11-30T09:53:44Z</time>
      </trkpt>
      <trkpt lat="44.51489" lon="1.01536">
        <ele>103.48</ele>
        <time>2014-11-30T09:53:45Z</time>
      </trkpt>
      <trkpt lat="44.5148" lon="1.01534">
        <ele>103</ele>
        <time>2014-11-30T09:53:47Z</time>
      </trkpt>
      <trkpt lat="44.51406" lon="1.0151">
        <ele>99.15</ele>
        <time>2014-11-30T09:54:01Z</time>
      </trkpt>
      <trkpt lat="44.51366" lon="1.01486">
        <ele>98.19</ele>
        <time>2014-11-30T09:54:09Z</time>
      </trkpt>
      <trkpt lat="44.51361" lon="1.01483">
        <ele>98.19</ele>
        <time>2014-11-30T09:54:10Z</time>
      </trkpt>
      <trkpt lat="44.51349" lon="1.01471">
        <ele>98.19</ele>
        <time>2014-11-30T09:54:13Z</time>
      </trkpt>
      <trkpt lat="44.51337" lon="1.01457">
        <ele>98.19</ele>
        <time>2014-11-30T09:54:16Z</time>
      </trkpt>
      <trkpt lat="44.51311" lon="1.01422">
        <ele>96.75</ele>
        <time>2014-11-30T09:54:26Z</time>
      </trkpt>
      <trkpt lat="44.5129" lon="1.01371">
        <ele>96.27</ele>
        <time>2014-11-30T09:54:38Z</time>
      </trkpt>
      <trkpt lat="44.51276" lon="1.01309">
        <ele>97.23</ele>
        <time>2014-11-30T09:54:53Z</time>
      </trkpt>
      <trkpt lat="44.51288" lon="1.01261">
        <ele>94.83</ele>
        <time>2014-11-30T09:55:04Z</time>
      </trkpt>
      <trkpt lat="44.51291" lon="1.01254">
        <ele>94.35</ele>
        <time>2014-11-30T09:55:05Z</time>
      </trkpt>
      <trkpt lat="44.51294" lon="1.01248">
        <ele>93.87</ele>
        <time>2014-11-30T09:55:06Z</time>
      </trkpt>
      <trkpt lat="44.51311" lon="1.0121">
        <ele>90.5</ele>
        <time>2014-11-30T09:55:11Z</time>
      </trkpt>
      <trkpt lat="44.51313" lon="1.012">
        <ele>90.02</ele>
        <time>2014-11-30T09:55:12Z</time>
      </trkpt>
      <trkpt lat="44.51313" lon="1.0119">
        <ele>89.06</ele>
        <time>2014-11-30T09:55:13Z</time>
      </trkpt>
      <trkpt lat="44.51309" lon="1.01154">
        <ele>87.14</ele>
        <time>2014-11-30T09:55:17Z</time>
      </trkpt>
      <trkpt lat="44.51306" lon="1.0113">
        <ele>86.18</ele>
        <time>2014-11-30T09:55:20Z</time>
      </trkpt>
      <trkpt lat="44.51305" lon="1.01122">
        <ele>85.69</ele>
        <time>2014-11-30T09:55:21Z</time>
      </trkpt>
      <trkpt lat="44.51303" lon="1.01065">
        <ele>85.69</ele>
        <time>2014-11-30T09:55:28Z</time>
      </trkpt>
      <trkpt lat="44.51302" lon="1.01052">
        <ele>86.18</ele>
        <time>2014-11-30T09:55:30Z</time>
      </trkpt>
      <trkpt lat="44.51284" lon="1.01005">
        <ele>87.14</ele>
        <time>2014-11-30T09:55:39Z</time>
      </trkpt>
      <trkpt lat="44.51276" lon="1.00997">
        <ele>88.58</ele>
        <time>2014-11-30T09:55:41Z</time>
      </trkpt>
      <trkpt lat="44.51272" lon="1.00994">
        <ele>89.06</ele>
        <time>2014-11-30T09:55:42Z</time>
      </trkpt>
      <trkpt lat="44.51267" lon="1.00991">
        <ele>90.02</ele>
        <time>2014-11-30T09:55:43Z</time>
      </trkpt>
      <trkpt lat="44.51262" lon="1.00989">
        <ele>90.98</ele>
        <time>2014-11-30T09:55:44Z</time>
      </trkpt>
      <trkpt lat="44.51258" lon="1.00986">
        <ele>91.94</ele>
        <time>2014-11-30T09:55:45Z</time>
      </trkpt>
      <trkpt lat="44.51254" lon="1.00983">
        <ele>92.42</ele>
        <time>2014-11-30T09:55:46Z</time>
      </trkpt>
      <trkpt lat="44.51234" lon="1.00967">
        <ele>94.83</ele>
        <time>2014-11-30T09:55:51Z</time>
      </trkpt>
      <trkpt lat="44.51218" lon="1.00953">
        <ele>96.27</ele>
        <time>2014-11-30T09:55:55Z</time>
      </trkpt>
      <trkpt lat="44.51214" lon="1.00949">
        <ele>96.27</ele>
        <time>2014-11-30T09:55:56Z</time>
      </trkpt>
      <trkpt lat="44.51208" lon="1.00941">
        <ele>95.79</ele>
        <time>2014-11-30T09:55:58Z</time>
      </trkpt>
      <trkpt lat="44.51171" lon="1.00887">
        <ele>96.27</ele>
        <time>2014-11-30T09:56:11Z</time>
      </trkpt>
      <trkpt lat="44.51143" lon="1.00845">
        <ele>96.75</ele>
        <time>2014-11-30T09:56:23Z</time>
      </trkpt>
      <trkpt lat="44.51117" lon="1.00814">
        <ele>94.83</ele>
        <time>2014-11-30T09:56:33Z</time>
      </trkpt>
      <trkpt lat="44.51064" lon="1.00753">
        <ele>87.62</ele>
        <time>2014-11-30T09:56:44Z</time>
      </trkpt>
      <trkpt lat="44.50989" lon="1.00663">
        <ele>85.69</ele>
        <time>2014-11-30T09:56:56Z</time>
      </trkpt>
      <trkpt lat="44.50955" lon="1.0063">
        <ele>86.66</ele>
        <time>2014-11-30T09:57:04Z</time>
      </trkpt>
      <trkpt lat="44.50951" lon="1.00627">
        <ele>87.14</ele>
        <time>2014-11-30T09:57:05Z</time>
      </trkpt>
      <trkpt lat="44.50919" lon="1.00577">
        <ele>89.54</ele>
        <time>2014-11-30T09:57:18Z</time>
      </trkpt>
      <trkpt lat="44.50891" lon="1.00515">
        <ele>90.02</ele>
        <time>2014-11-30T09:57:32Z</time>
      </trkpt>
      <trkpt lat="44.50885" lon="1.00491">
        <ele>88.1</ele>
        <time>2014-11-30T09:57:37Z</time>
      </trkpt>
      <trkpt lat="44.50884" lon="1.00484">
        <ele>88.1</ele>
        <time>2014-11-30T09:57:38Z</time>
      </trkpt>
      <trkpt lat="44.50885" lon="1.00476">
        <ele>88.1</ele>
        <time>2014-11-30T09:57:39Z</time>
      </trkpt>
      <trkpt lat="44.50888" lon="1.00467">
        <ele>87.62</ele>
        <time>2014-11-30T09:57:40Z</time>
      </trkpt>
      <trkpt lat="44.50893" lon="1.00459">
        <ele>86.66</ele>
        <time>2014-11-30T09:57:41Z</time>
      </trkpt>
      <trkpt lat="44.50899" lon="1.00453">
        <ele>86.18</ele>
        <time>2014-11-30T09:57:42Z</time>
      </trkpt>
      <trkpt lat="44.50906" lon="1.00447">
        <ele>85.21</ele>
        <time>2014-11-30T09:57:43Z</time>
      </trkpt>
      <trkpt lat="44.5094" lon="1.0041">
        <ele>83.29</ele>
        <time>2014-11-30T09:57:48Z</time>
      </trkpt>
      <trkpt lat="44.50945" lon="1.004">
        <ele>82.81</ele>
        <time>2014-11-30T09:57:49Z</time>
      </trkpt>
      <trkpt lat="44.50949" lon="1.0039">
        <ele>82.33</ele>
        <time>2014-11-30T09:57:50Z</time>
      </trkpt>
      <trkpt lat="44.50951" lon="1.00379">
        <ele>81.37</ele>
        <time>2014-11-30T09:57:51Z</time>
      </trkpt>
      <trkpt lat="44.50952" lon="1.00367">
        <ele>80.89</ele>
        <time>2014-11-30T09:57:52Z</time>
      </trkpt>
      <trkpt lat="44.50977" lon="1.00241">
        <ele>81.85</ele>
        <time>2014-11-30T09:58:06Z</time>
      </trkpt>
      <trkpt lat="44.50986" lon="1.00202">
        <ele>83.29</ele>
        <time>2014-11-30T09:58:12Z</time>
      </trkpt>
      <trkpt lat="44.50988" lon="1.00196">
        <ele>83.29</ele>
        <time>2014-11-30T09:58:13Z</time>
      </trkpt>
      <trkpt lat="44.50991" lon="1.00192">
        <ele>83.77</ele>
        <time>2014-11-30T09:58:14Z</time>
      </trkpt>
      <trkpt lat="44.50995" lon="1.00189">
        <ele>84.25</ele>
        <time>2014-11-30T09:58:15Z</time>
      </trkpt>
      <trkpt lat="44.50999" lon="1.00188">
        <ele>84.25</ele>
        <time>2014-11-30T09:58:16Z</time>
      </trkpt>
      <trkpt lat="44.51003" lon="1.00188">
        <ele>84.73</ele>
        <time>2014-11-30T09:58:17Z</time>
      </trkpt>
      <trkpt lat="44.51052" lon="1.00182">
        <ele>87.14</ele>
        <time>2014-11-30T09:58:32Z</time>
      </trkpt>
      <trkpt lat="44.5107" lon="1.00177">
        <ele>87.62</ele>
        <time>2014-11-30T09:58:42Z</time>
      </trkpt>
      <trkpt lat="44.51071" lon="1.00175">
        <ele>87.14</ele>
        <time>2014-11-30T09:58:43Z</time>
      </trkpt>
      <trkpt lat="44.51071" lon="1.00171">
        <ele>87.14</ele>
        <time>2014-11-30T09:58:44Z</time>
      </trkpt>
      <trkpt lat="44.51071" lon="1.00167">
        <ele>87.14</ele>
        <time>2014-11-30T09:58:45Z</time>
      </trkpt>
      <trkpt lat="44.5107" lon="1.00163">
        <ele>87.14</ele>
        <time>2014-11-30T09:58:46Z</time>
      </trkpt>
      <trkpt lat="44.51068" lon="1.0016">
        <ele>86.66</ele>
        <time>2014-11-30T09:58:47Z</time>
      </trkpt>
      <trkpt lat="44.51066" lon="1.00156">
        <ele>86.66</ele>
        <time>2014-11-30T09:58:48Z</time>
      </trkpt>
      <trkpt lat="44.51064" lon="1.00152">
        <ele>86.66</ele>
        <time>2014-11-30T09:58:49Z</time>
      </trkpt>
      <trkpt lat="44.51037" lon="1.00076">
        <ele>85.21</ele>
        <time>2014-11-30T09:59:04Z</time>
      </trkpt>
      <trkpt lat="44.51036" lon="1.00071">
        <ele>85.21</ele>
        <time>2014-11-30T09:59:05Z</time>
      </trkpt>
      <trkpt lat="44.51033" lon="1.0006">
        <ele>85.21</ele>
        <time>2014-11-30T09:59:07Z</time>
      </trkpt>
      <trkpt lat="44.51033" lon="1.00054">
        <ele>85.21</ele>
        <time>2014-11-30T09:59:08Z</time>
      </trkpt>
      <trkpt lat="44.51035" lon="1.0005">
        <ele>85.21</ele>
        <time>2014-11-30T09:59:09Z</time>
      </trkpt>
      <trkpt lat="44.51038" lon="1.00047">
        <ele>85.69</ele>
        <time>2014-11-30T09:59:10Z</time>
      </trkpt>
      <trkpt lat="44.51042" lon="1.00045">
        <ele>85.69</ele>
        <time>2014-11-30T09:59:11Z</time>
      </trkpt>
      <trkpt lat="44.51046" lon="1.00044">
        <ele>85.69</ele>
        <time>2014-11-30T09:59:12Z</time>
      </trkpt>
      <trkpt lat="44.5105" lon="1.00043">
        <ele>86.18</ele>
        <time>2014-11-30T09:59:13Z</time>
      </trkpt>
      <trkpt lat="44.51054" lon="1.00043">
        <ele>86.18</ele>
        <time>2014-11-30T09:59:14Z</time>
      </trkpt>
      <trkpt lat="44.51098" lon="1.00027">
        <ele>88.58</ele>
        <time>2014-11-30T09:59:28Z</time>
      </trkpt>
      <trkpt lat="44.51131" lon="0.99977">
        <ele>90.98</ele>
        <time>2014-11-30T09:59:44Z</time>
      </trkpt>
      <trkpt lat="44.51164" lon="0.99916">
        <ele>91.94</ele>
        <time>2014-11-30T09:59:59Z</time>
      </trkpt>
      <trkpt lat="44.51202" lon="0.99866">
        <ele>91.46</ele>
        <time>2014-11-30T10:00:13Z</time>
      </trkpt>
      <trkpt lat="44.51246" lon="0.99805">
        <ele>92.9</ele>
        <time>2014-11-30T10:00:29Z</time>
      </trkpt>
      <trkpt lat="44.513" lon="0.99733">
        <ele>94.83</ele>
        <time>2014-11-30T10:00:49Z</time>
      </trkpt>
      <trkpt lat="44.51356" lon="0.99693">
        <ele>95.31</ele>
        <time>2014-11-30T10:01:05Z</time>
      </trkpt>
      <trkpt lat="44.51407" lon="0.99681">
        <ele>95.79</ele>
        <time>2014-11-30T10:01:19Z</time>
      </trkpt>
      <trkpt lat="44.51459" lon="0.99686">
        <ele>97.23</ele>
        <time>2014-11-30T10:01:33Z</time>
      </trkpt>
      <trkpt lat="44.51511" lon="0.99661">
        <ele>99.15</ele>
        <time>2014-11-30T10:01:49Z</time>
      </trkpt>
      <trkpt lat="44.51541" lon="0.99599">
        <ele>100.11</ele>
        <time>2014-11-30T10:02:04Z</time>
      </trkpt>
      <trkpt lat="44.51562" lon="0.9953">
        <ele>101.56</ele>
        <time>2014-11-30T10:02:18Z</time>
      </trkpt>
      <trkpt lat="44.51582" lon="0.99496">
        <ele>102.04</ele>
        <time>2014-11-30T10:02:26Z</time>
      </trkpt>
      <trkpt lat="44.5164" lon="0.99458">
        <ele>103</ele>
        <time>2014-11-30T10:02:42Z</time>
      </trkpt>
      <trkpt lat="44.5169" lon="0.99411">
        <ele>107.81</ele>
        <time>2014-11-30T10:02:58Z</time>
      </trkpt>
      <trkpt lat="44.51746" lon="0.99371">
        <ele>109.73</ele>
        <time>2014-11-30T10:03:14Z</time>
      </trkpt>
      <trkpt lat="44.51809" lon="0.99322">
        <ele>109.73</ele>
        <time>2014-11-30T10:03:32Z</time>
      </trkpt>
      <trkpt lat="44.51859" lon="0.99277">
        <ele>109.25</ele>
        <time>2014-11-30T10:03:47Z</time>
      </trkpt>
      <trkpt lat="44.51922" lon="0.99209">
        <ele>109.73</ele>
        <time>2014-11-30T10:04:05Z</time>
      </trkpt>
      <trkpt lat="44.51978" lon="0.99149">
        <ele>110.69</ele>
        <time>2014-11-30T10:04:22Z</time>
      </trkpt>
      <trkpt lat="44.51982" lon="0.99146">
        <ele>110.69</ele>
        <time>2014-11-30T10:04:23Z</time>
      </trkpt>
      <trkpt lat="44.52035" lon="0.9908">
        <ele>111.65</ele>
        <time>2014-11-30T10:04:41Z</time>
      </trkpt>
      <trkpt lat="44.52045" lon="0.99062">
        <ele>111.65</ele>
        <time>2014-11-30T10:04:45Z</time>
      </trkpt>
      <trkpt lat="44.52082" lon="0.98968">
        <ele>113.09</ele>
        <time>2014-11-30T10:05:04Z</time>
      </trkpt>
      <trkpt lat="44.52112" lon="0.98879">
        <ele>115.5</ele>
        <time>2014-11-30T10:05:21Z</time>
      </trkpt>
      <trkpt lat="44.52157" lon="0.98789">
        <ele>116.94</ele>
        <time>2014-11-30T10:05:40Z</time>
      </trkpt>
      <trkpt lat="44.52213" lon="0.98716">
        <ele>118.86</ele>
        <time>2014-11-30T10:05:59Z</time>
      </trkpt>
      <trkpt lat="44.52239" lon="0.98683">
        <ele>119.34</ele>
        <time>2014-11-30T10:06:08Z</time>
      </trkpt>
      <trkpt lat="44.52262" lon="0.98639">
        <ele>119.34</ele>
        <time>2014-11-30T10:06:17Z</time>
      </trkpt>
      <trkpt lat="44.52284" lon="0.98563">
        <ele>120.78</ele>
        <time>2014-11-30T10:06:33Z</time>
      </trkpt>
      <trkpt lat="44.52287" lon="0.98561">
        <ele>120.78</ele>
        <time>2014-11-30T10:06:34Z</time>
      </trkpt>
      <trkpt lat="44.5229" lon="0.98561">
        <ele>121.26</ele>
        <time>2014-11-30T10:06:35Z</time>
      </trkpt>
      <trkpt lat="44.52293" lon="0.98563">
        <ele>121.26</ele>
        <time>2014-11-30T10:06:36Z</time>
      </trkpt>
      <trkpt lat="44.52295" lon="0.98566">
        <ele>121.26</ele>
        <time>2014-11-30T10:06:37Z</time>
      </trkpt>
      <trkpt lat="44.52297" lon="0.98569">
        <ele>121.74</ele>
        <time>2014-11-30T10:06:38Z</time>
      </trkpt>
      <trkpt lat="44.52299" lon="0.98573">
        <ele>121.26</ele>
        <time>2014-11-30T10:06:39Z</time>
      </trkpt>
      <trkpt lat="44.52301" lon="0.98577">
        <ele>121.26</ele>
        <time>2014-11-30T10:06:40Z</time>
      </trkpt>
      <trkpt lat="44.52334" lon="0.98629">
        <ele>124.15</ele>
        <time>2014-11-30T10:06:55Z</time>
      </trkpt>
      <trkpt lat="44.52372" lon="0.98657">
        <ele>128.47</ele>
        <time>2014-11-30T10:07:09Z</time>
      </trkpt>
      <trkpt lat="44.52413" lon="0.98666">
        <ele>132.32</ele>
        <time>2014-11-30T10:07:25Z</time>
      </trkpt>
      <trkpt lat="44.52415" lon="0.98664">
        <ele>132.32</ele>
        <time>2014-11-30T10:07:26Z</time>
      </trkpt>
      <trkpt lat="44.52416" lon="0.9866">
        <ele>131.84</ele>
        <time>2014-11-30T10:07:27Z</time>
      </trkpt>
      <trkpt lat="44.52433" lon="0.98594">
        <ele>129.43</ele>
        <time>2014-11-30T10:07:37Z</time>
      </trkpt>
      <trkpt lat="44.52455" lon="0.98535">
        <ele>129.43</ele>
        <time>2014-11-30T10:07:49Z</time>
      </trkpt>
      <trkpt lat="44.5248" lon="0.985">
        <ele>133.28</ele>
        <time>2014-11-30T10:08:04Z</time>
      </trkpt>
      <trkpt lat="44.5251" lon="0.98471">
        <ele>137.13</ele>
        <time>2014-11-30T10:08:21Z</time>
      </trkpt>
      <trkpt lat="44.52517" lon="0.98435">
        <ele>139.05</ele>
        <time>2014-11-30T10:08:35Z</time>
      </trkpt>
      <trkpt lat="44.52528" lon="0.98401">
        <ele>140.01</ele>
        <time>2014-11-30T10:08:48Z</time>
      </trkpt>
      <trkpt lat="44.52556" lon="0.98374">
        <ele>141.93</ele>
        <time>2014-11-30T10:09:03Z</time>
      </trkpt>
      <trkpt lat="44.52602" lon="0.98357">
        <ele>142.41</ele>
        <time>2014-11-30T10:09:23Z</time>
      </trkpt>
      <trkpt lat="44.52633" lon="0.98333">
        <ele>143.37</ele>
        <time>2014-11-30T10:09:38Z</time>
      </trkpt>
      <trkpt lat="44.52651" lon="0.98291">
        <ele>142.41</ele>
        <time>2014-11-30T10:09:54Z</time>
      </trkpt>
      <trkpt lat="44.52671" lon="0.98235">
        <ele>140.97</ele>
        <time>2014-11-30T10:10:12Z</time>
      </trkpt>
      <trkpt lat="44.52684" lon="0.98187">
        <ele>142.41</ele>
        <time>2014-11-30T10:10:26Z</time>
      </trkpt>
      <trkpt lat="44.52702" lon="0.9814">
        <ele>147.7</ele>
        <time>2014-11-30T10:10:40Z</time>
      </trkpt>
      <trkpt lat="44.52719" lon="0.98095">
        <ele>147.22</ele>
        <time>2014-11-30T10:10:53Z</time>
      </trkpt>
      <trkpt lat="44.52734" lon="0.98056">
        <ele>150.58</ele>
        <time>2014-11-30T10:11:06Z</time>
      </trkpt>
      <trkpt lat="44.52737" lon="0.98048">
        <ele>152.03</ele>
        <time>2014-11-30T10:11:09Z</time>
      </trkpt>
      <trkpt lat="44.52745" lon="0.98017">
        <ele>155.87</ele>
        <time>2014-11-30T10:11:20Z</time>
      </trkpt>
      <trkpt lat="44.52753" lon="0.97977">
        <ele>160.2</ele>
        <time>2014-11-30T10:11:36Z</time>
      </trkpt>
      <trkpt lat="44.52765" lon="0.97932">
        <ele>163.08</ele>
        <time>2014-11-30T10:11:54Z</time>
      </trkpt>
      <trkpt lat="44.52777" lon="0.9789">
        <ele>163.08</ele>
        <time>2014-11-30T10:12:10Z</time>
      </trkpt>
      <trkpt lat="44.52777" lon="0.97886">
        <ele>163.08</ele>
        <time>2014-11-30T10:12:11Z</time>
      </trkpt>
      <trkpt lat="44.52789" lon="0.97838">
        <ele>163.08</ele>
        <time>2014-11-30T10:12:27Z</time>
      </trkpt>
      <trkpt lat="44.52808" lon="0.97792">
        <ele>165.48</ele>
        <time>2014-11-30T10:12:41Z</time>
      </trkpt>
      <trkpt lat="44.52825" lon="0.97756">
        <ele>170.77</ele>
        <time>2014-11-30T10:12:55Z</time>
      </trkpt>
      <trkpt lat="44.52827" lon="0.97751">
        <ele>170.77</ele>
        <time>2014-11-30T10:12:58Z</time>
      </trkpt>
      <trkpt lat="44.5283" lon="0.97744">
        <ele>171.25</ele>
        <time>2014-11-30T10:13:02Z</time>
      </trkpt>
      <trkpt lat="44.52844" lon="0.97708">
        <ele>169.33</ele>
        <time>2014-11-30T10:13:16Z</time>
      </trkpt>
      <trkpt lat="44.52857" lon="0.97668">
        <ele>167.89</ele>
        <time>2014-11-30T10:13:30Z</time>
      </trkpt>
      <trkpt lat="44.52872" lon="0.97627">
        <ele>167.89</ele>
        <time>2014-11-30T10:13:45Z</time>
      </trkpt>
      <trkpt lat="44.52872" lon="0.97625">
        <ele>167.89</ele>
        <time>2014-11-30T10:13:46Z</time>
      </trkpt>
      <trkpt lat="44.52872" lon="0.97622">
        <ele>168.37</ele>
        <time>2014-11-30T10:13:47Z</time>
      </trkpt>
      <trkpt lat="44.52871" lon="0.9762">
        <ele>168.85</ele>
        <time>2014-11-30T10:13:48Z</time>
      </trkpt>
      <trkpt lat="44.5287" lon="0.97619">
        <ele>169.33</ele>
        <time>2014-11-30T10:13:49Z</time>
      </trkpt>
      <trkpt lat="44.52869" lon="0.97618">
        <ele>169.81</ele>
        <time>2014-11-30T10:13:50Z</time>
      </trkpt>
      <trkpt lat="44.52866" lon="0.97614">
        <ele>170.29</ele>
        <time>2014-11-30T10:13:54Z</time>
      </trkpt>
      <trkpt lat="44.52865" lon="0.97613">
        <ele>170.29</ele>
        <time>2014-11-30T10:13:55Z</time>
      </trkpt>
      <trkpt lat="44.52863" lon="0.97613">
        <ele>170.29</ele>
        <time>2014-11-30T10:13:56Z</time>
      </trkpt>
      <trkpt lat="44.52861" lon="0.97612">
        <ele>170.77</ele>
        <time>2014-11-30T10:13:57Z</time>
      </trkpt>
      <trkpt lat="44.5286" lon="0.97611">
        <ele>170.77</ele>
        <time>2014-11-30T10:13:58Z</time>
      </trkpt>
      <trkpt lat="44.52858" lon="0.9761">
        <ele>170.77</ele>
        <time>2014-11-30T10:13:59Z</time>
      </trkpt>
      <trkpt lat="44.52857" lon="0.97607">
        <ele>170.29</ele>
        <time>2014-11-30T10:14:00Z</time>
      </trkpt>
      <trkpt lat="44.52854" lon="0.97579">
        <ele>170.77</ele>
        <time>2014-11-30T10:14:11Z</time>
      </trkpt>
      <trkpt lat="44.52853" lon="0.97576">
        <ele>170.77</ele>
        <time>2014-11-30T10:14:12Z</time>
      </trkpt>
      <trkpt lat="44.52834" lon="0.97536">
        <ele>175.1</ele>
        <time>2014-11-30T10:14:26Z</time>
      </trkpt>
      <trkpt lat="44.52813" lon="0.97494">
        <ele>173.66</ele>
        <time>2014-11-30T10:14:38Z</time>
      </trkpt>
      <trkpt lat="44.5281" lon="0.97487">
        <ele>173.17</ele>
        <time>2014-11-30T10:14:39Z</time>
      </trkpt>
      <trkpt lat="44.52777" lon="0.97397">
        <ele>165.48</ele>
        <time>2014-11-30T10:14:49Z</time>
      </trkpt>
      <trkpt lat="44.52768" lon="0.97377">
        <ele>164.04</ele>
        <time>2014-11-30T10:14:51Z</time>
      </trkpt>
      <trkpt lat="44.52764" lon="0.97369">
        <ele>163.56</ele>
        <time>2014-11-30T10:14:52Z</time>
      </trkpt>
      <trkpt lat="44.52756" lon="0.97356">
        <ele>162.12</ele>
        <time>2014-11-30T10:14:54Z</time>
      </trkpt>
      <trkpt lat="44.52753" lon="0.9735">
        <ele>161.64</ele>
        <time>2014-11-30T10:14:55Z</time>
      </trkpt>
      <trkpt lat="44.52726" lon="0.97266">
        <ele>154.91</ele>
        <time>2014-11-30T10:15:06Z</time>
      </trkpt>
      <trkpt lat="44.52674" lon="0.97136">
        <ele>148.18</ele>
        <time>2014-11-30T10:15:18Z</time>
      </trkpt>
      <trkpt lat="44.52649" lon="0.97091">
        <ele>145.3</ele>
        <time>2014-11-30T10:15:22Z</time>
      </trkpt>
      <trkpt lat="44.52644" lon="0.9708">
        <ele>144.34</ele>
        <time>2014-11-30T10:15:23Z</time>
      </trkpt>
      <trkpt lat="44.5264" lon="0.97067">
        <ele>143.37</ele>
        <time>2014-11-30T10:15:24Z</time>
      </trkpt>
      <trkpt lat="44.52637" lon="0.97054">
        <ele>142.89</ele>
        <time>2014-11-30T10:15:25Z</time>
      </trkpt>
      <trkpt lat="44.52635" lon="0.97041">
        <ele>142.41</ele>
        <time>2014-11-30T10:15:26Z</time>
      </trkpt>
      <trkpt lat="44.52594" lon="0.96914">
        <ele>136.16</ele>
        <time>2014-11-30T10:15:37Z</time>
      </trkpt>
      <trkpt lat="44.52584" lon="0.96889">
        <ele>134.72</ele>
        <time>2014-11-30T10:15:39Z</time>
      </trkpt>
      <trkpt lat="44.52529" lon="0.96794">
        <ele>130.4</ele>
        <time>2014-11-30T10:15:48Z</time>
      </trkpt>
      <trkpt lat="44.52525" lon="0.96783">
        <ele>129.92</ele>
        <time>2014-11-30T10:15:49Z</time>
      </trkpt>
      <trkpt lat="44.52523" lon="0.96771">
        <ele>129.43</ele>
        <time>2014-11-30T10:15:50Z</time>
      </trkpt>
      <trkpt lat="44.52511" lon="0.96713">
        <ele>127.03</ele>
        <time>2014-11-30T10:15:55Z</time>
      </trkpt>
      <trkpt lat="44.52507" lon="0.96703">
        <ele>126.55</ele>
        <time>2014-11-30T10:15:56Z</time>
      </trkpt>
      <trkpt lat="44.52498" lon="0.96681">
        <ele>125.59</ele>
        <time>2014-11-30T10:15:58Z</time>
      </trkpt>
      <trkpt lat="44.52452" lon="0.96566">
        <ele>122.22</ele>
        <time>2014-11-30T10:16:09Z</time>
      </trkpt>
      <trkpt lat="44.52424" lon="0.96416">
        <ele>119.34</ele>
        <time>2014-11-30T10:16:21Z</time>
      </trkpt>
      <trkpt lat="44.5239" lon="0.96292">
        <ele>117.42</ele>
        <time>2014-11-30T10:16:30Z</time>
      </trkpt>
      <trkpt lat="44.52386" lon="0.96279">
        <ele>117.42</ele>
        <time>2014-11-30T10:16:31Z</time>
      </trkpt>
      <trkpt lat="44.5238" lon="0.96267">
        <ele>116.94</ele>
        <time>2014-11-30T10:16:32Z</time>
      </trkpt>
      <trkpt lat="44.52373" lon="0.96257">
        <ele>116.46</ele>
        <time>2014-11-30T10:16:33Z</time>
      </trkpt>
      <trkpt lat="44.52359" lon="0.96239">
        <ele>115.01</ele>
        <time>2014-11-30T10:16:35Z</time>
      </trkpt>
      <trkpt lat="44.52355" lon="0.96229">
        <ele>114.05</ele>
        <time>2014-11-30T10:16:36Z</time>
      </trkpt>
      <trkpt lat="44.52352" lon="0.96218">
        <ele>113.09</ele>
        <time>2014-11-30T10:16:37Z</time>
      </trkpt>
      <trkpt lat="44.52352" lon="0.96207">
        <ele>112.13</ele>
        <time>2014-11-30T10:16:38Z</time>
      </trkpt>
      <trkpt lat="44.52354" lon="0.96195">
        <ele>111.65</ele>
        <time>2014-11-30T10:16:39Z</time>
      </trkpt>
      <trkpt lat="44.52356" lon="0.96183">
        <ele>110.69</ele>
        <time>2014-11-30T10:16:40Z</time>
      </trkpt>
      <trkpt lat="44.52357" lon="0.9617">
        <ele>109.73</ele>
        <time>2014-11-30T10:16:41Z</time>
      </trkpt>
      <trkpt lat="44.52357" lon="0.96157">
        <ele>109.25</ele>
        <time>2014-11-30T10:16:42Z</time>
      </trkpt>
      <trkpt lat="44.52357" lon="0.96144">
        <ele>108.77</ele>
        <time>2014-11-30T10:16:43Z</time>
      </trkpt>
      <trkpt lat="44.52354" lon="0.96131">
        <ele>108.29</ele>
        <time>2014-11-30T10:16:44Z</time>
      </trkpt>
      <trkpt lat="44.5235" lon="0.96119">
        <ele>107.81</ele>
        <time>2014-11-30T10:16:45Z</time>
      </trkpt>
      <trkpt lat="44.52344" lon="0.96107">
        <ele>107.81</ele>
        <time>2014-11-30T10:16:46Z</time>
      </trkpt>
      <trkpt lat="44.52337" lon="0.96098">
        <ele>107.81</ele>
        <time>2014-11-30T10:16:47Z</time>
      </trkpt>
      <trkpt lat="44.5233" lon="0.9609">
        <ele>107.81</ele>
        <time>2014-11-30T10:16:48Z</time>
      </trkpt>
      <trkpt lat="44.52322" lon="0.96082">
        <ele>107.81</ele>
        <time>2014-11-30T10:16:49Z</time>
      </trkpt>
      <trkpt lat="44.52314" lon="0.96073">
        <ele>107.32</ele>
        <time>2014-11-30T10:16:50Z</time>
      </trkpt>
      <trkpt lat="44.52307" lon="0.96066">
        <ele>107.32</ele>
        <time>2014-11-30T10:16:51Z</time>
      </trkpt>
      <trkpt lat="44.52299" lon="0.9606">
        <ele>107.32</ele>
        <time>2014-11-30T10:16:52Z</time>
      </trkpt>
      <trkpt lat="44.5229" lon="0.96055">
        <ele>106.84</ele>
        <time>2014-11-30T10:16:53Z</time>
      </trkpt>
      <trkpt lat="44.52281" lon="0.96052">
        <ele>106.84</ele>
        <time>2014-11-30T10:16:54Z</time>
      </trkpt>
      <trkpt lat="44.52272" lon="0.96049">
        <ele>106.84</ele>
        <time>2014-11-30T10:16:55Z</time>
      </trkpt>
      <trkpt lat="44.52263" lon="0.96047">
        <ele>106.84</ele>
        <time>2014-11-30T10:16:56Z</time>
      </trkpt>
      <trkpt lat="44.52235" lon="0.96042">
        <ele>106.36</ele>
        <time>2014-11-30T10:16:59Z</time>
      </trkpt>
      <trkpt lat="44.52226" lon="0.96037">
        <ele>105.88</ele>
        <time>2014-11-30T10:17:00Z</time>
      </trkpt>
      <trkpt lat="44.52206" lon="0.96025">
        <ele>104.44</ele>
        <time>2014-11-30T10:17:02Z</time>
      </trkpt>
      <trkpt lat="44.52128" lon="0.95955">
        <ele>99.63</ele>
        <time>2014-11-30T10:17:10Z</time>
      </trkpt>
      <trkpt lat="44.52107" lon="0.95925">
        <ele>99.15</ele>
        <time>2014-11-30T10:17:13Z</time>
      </trkpt>
      <trkpt lat="44.521" lon="0.95917">
        <ele>99.15</ele>
        <time>2014-11-30T10:17:14Z</time>
      </trkpt>
      <trkpt lat="44.52087" lon="0.95904">
        <ele>98.19</ele>
        <time>2014-11-30T10:17:16Z</time>
      </trkpt>
      <trkpt lat="44.52082" lon="0.95895">
        <ele>97.71</ele>
        <time>2014-11-30T10:17:17Z</time>
      </trkpt>
      <trkpt lat="44.52077" lon="0.95885">
        <ele>96.75</ele>
        <time>2014-11-30T10:17:18Z</time>
      </trkpt>
      <trkpt lat="44.52062" lon="0.95855">
        <ele>95.79</ele>
        <time>2014-11-30T10:17:21Z</time>
      </trkpt>
      <trkpt lat="44.52044" lon="0.95822">
        <ele>93.87</ele>
        <time>2014-11-30T10:17:25Z</time>
      </trkpt>
      <trkpt lat="44.52028" lon="0.95775">
        <ele>92.9</ele>
        <time>2014-11-30T10:17:31Z</time>
      </trkpt>
      <trkpt lat="44.52026" lon="0.95767">
        <ele>92.9</ele>
        <time>2014-11-30T10:17:32Z</time>
      </trkpt>
      <trkpt lat="44.52005" lon="0.9566">
        <ele>90.98</ele>
        <time>2014-11-30T10:17:45Z</time>
      </trkpt>
      <trkpt lat="44.52005" lon="0.95651">
        <ele>91.46</ele>
        <time>2014-11-30T10:17:46Z</time>
      </trkpt>
      <trkpt lat="44.52005" lon="0.95642">
        <ele>91.46</ele>
        <time>2014-11-30T10:17:47Z</time>
      </trkpt>
      <trkpt lat="44.52005" lon="0.95632">
        <ele>91.46</ele>
        <time>2014-11-30T10:17:48Z</time>
      </trkpt>
      <trkpt lat="44.52005" lon="0.95623">
        <ele>91.46</ele>
        <time>2014-11-30T10:17:49Z</time>
      </trkpt>
      <trkpt lat="44.52011" lon="0.9548">
        <ele>90.5</ele>
        <time>2014-11-30T10:18:05Z</time>
      </trkpt>
      <trkpt lat="44.52021" lon="0.95346">
        <ele>89.06</ele>
        <time>2014-11-30T10:18:21Z</time>
      </trkpt>
      <trkpt lat="44.52029" lon="0.95251">
        <ele>90.5</ele>
        <time>2014-11-30T10:18:33Z</time>
      </trkpt>
      <trkpt lat="44.52029" lon="0.95244">
        <ele>90.98</ele>
        <time>2014-11-30T10:18:34Z</time>
      </trkpt>
      <trkpt lat="44.52025" lon="0.95167">
        <ele>91.46</ele>
        <time>2014-11-30T10:18:45Z</time>
      </trkpt>
      <trkpt lat="44.52027" lon="0.95155">
        <ele>91.94</ele>
        <time>2014-11-30T10:18:47Z</time>
      </trkpt>
      <trkpt lat="44.52029" lon="0.95149">
        <ele>91.94</ele>
        <time>2014-11-30T10:18:48Z</time>
      </trkpt>
      <trkpt lat="44.52031" lon="0.95144">
        <ele>91.94</ele>
        <time>2014-11-30T10:18:49Z</time>
      </trkpt>
      <trkpt lat="44.52034" lon="0.95138">
        <ele>92.42</ele>
        <time>2014-11-30T10:18:50Z</time>
      </trkpt>
      <trkpt lat="44.52037" lon="0.95133">
        <ele>92.42</ele>
        <time>2014-11-30T10:18:51Z</time>
      </trkpt>
      <trkpt lat="44.52041" lon="0.95127">
        <ele>92.42</ele>
        <time>2014-11-30T10:18:52Z</time>
      </trkpt>
      <trkpt lat="44.52044" lon="0.95122">
        <ele>92.42</ele>
        <time>2014-11-30T10:18:53Z</time>
      </trkpt>
      <trkpt lat="44.52101" lon="0.95051">
        <ele>92.42</ele>
        <time>2014-11-30T10:19:07Z</time>
      </trkpt>
      <trkpt lat="44.52143" lon="0.95004">
        <ele>91.94</ele>
        <time>2014-11-30T10:19:17Z</time>
      </trkpt>
      <trkpt lat="44.52205" lon="0.94939">
        <ele>91.94</ele>
        <time>2014-11-30T10:19:32Z</time>
      </trkpt>
      <trkpt lat="44.5221" lon="0.94936">
        <ele>91.94</ele>
        <time>2014-11-30T10:19:33Z</time>
      </trkpt>
      <trkpt lat="44.5226" lon="0.94922">
        <ele>90.98</ele>
        <time>2014-11-30T10:19:45Z</time>
      </trkpt>
      <trkpt lat="44.52262" lon="0.94926">
        <ele>90.98</ele>
        <time>2014-11-30T10:19:46Z</time>
      </trkpt>
      <trkpt lat="44.52264" lon="0.94931">
        <ele>90.98</ele>
        <time>2014-11-30T10:19:47Z</time>
      </trkpt>
      <trkpt lat="44.52264" lon="0.94936">
        <ele>90.98</ele>
        <time>2014-11-30T10:19:48Z</time>
      </trkpt>
      <trkpt lat="44.52265" lon="0.94942">
        <ele>91.46</ele>
        <time>2014-11-30T10:19:49Z</time>
      </trkpt>
      <trkpt lat="44.52283" lon="0.95035">
        <ele>93.87</ele>
        <time>2014-11-30T10:20:07Z</time>
      </trkpt>
      <trkpt lat="44.52293" lon="0.95085">
        <ele>95.79</ele>
        <time>2014-11-30T10:20:18Z</time>
      </trkpt>
      <trkpt lat="44.52305" lon="0.95131">
        <ele>99.15</ele>
        <time>2014-11-30T10:20:31Z</time>
      </trkpt>
      <trkpt lat="44.52307" lon="0.95132">
        <ele>99.63</ele>
        <time>2014-11-30T10:20:32Z</time>
      </trkpt>
      <trkpt lat="44.52309" lon="0.95134">
        <ele>99.63</ele>
        <time>2014-11-30T10:20:33Z</time>
      </trkpt>
      <trkpt lat="44.52311" lon="0.95135">
        <ele>99.63</ele>
        <time>2014-11-30T10:20:34Z</time>
      </trkpt>
      <trkpt lat="44.52313" lon="0.95136">
        <ele>100.11</ele>
        <time>2014-11-30T10:20:35Z</time>
      </trkpt>
      <trkpt lat="44.52351" lon="0.95144">
        <ele>103.48</ele>
        <time>2014-11-30T10:20:51Z</time>
      </trkpt>
      <trkpt lat="44.5238" lon="0.95147">
        <ele>105.88</ele>
        <time>2014-11-30T10:21:03Z</time>
      </trkpt>
      <trkpt lat="44.52411" lon="0.9514">
        <ele>106.36</ele>
        <time>2014-11-30T10:21:14Z</time>
      </trkpt>
      <trkpt lat="44.52438" lon="0.95089">
        <ele>107.81</ele>
        <time>2014-11-30T10:21:28Z</time>
      </trkpt>
      <trkpt lat="44.52465" lon="0.9503">
        <ele>109.25</ele>
        <time>2014-11-30T10:21:42Z</time>
      </trkpt>
      <trkpt lat="44.525" lon="0.94961">
        <ele>108.77</ele>
        <time>2014-11-30T10:21:57Z</time>
      </trkpt>
      <trkpt lat="44.52529" lon="0.949">
        <ele>110.69</ele>
        <time>2014-11-30T10:22:12Z</time>
      </trkpt>
      <trkpt lat="44.52534" lon="0.94878">
        <ele>109.73</ele>
        <time>2014-11-30T10:22:17Z</time>
      </trkpt>
      <trkpt lat="44.52547" lon="0.94868">
        <ele>109.73</ele>
        <time>2014-11-30T10:22:21Z</time>
      </trkpt>
      <trkpt lat="44.52572" lon="0.94868">
        <ele>111.17</ele>
        <time>2014-11-30T10:22:33Z</time>
      </trkpt>
      <trkpt lat="44.52605" lon="0.94868">
        <ele>113.09</ele>
        <time>2014-11-30T10:22:55Z</time>
      </trkpt>
      <trkpt lat="44.52644" lon="0.94867">
        <ele>115.01</ele>
        <time>2014-11-30T10:23:10Z</time>
      </trkpt>
      <trkpt lat="44.52671" lon="0.94863">
        <ele>115.5</ele>
        <time>2014-11-30T10:23:19Z</time>
      </trkpt>
      <trkpt lat="44.52689" lon="0.94853">
        <ele>114.53</ele>
        <time>2014-11-30T10:23:23Z</time>
      </trkpt>
      <trkpt lat="44.52716" lon="0.94854">
        <ele>113.57</ele>
        <time>2014-11-30T10:23:27Z</time>
      </trkpt>
      <trkpt lat="44.52742" lon="0.94875">
        <ele>113.57</ele>
        <time>2014-11-30T10:23:32Z</time>
      </trkpt>
      <trkpt lat="44.52752" lon="0.94882">
        <ele>114.53</ele>
        <time>2014-11-30T10:23:34Z</time>
      </trkpt>
      <trkpt lat="44.52768" lon="0.94891">
        <ele>114.53</ele>
        <time>2014-11-30T10:23:37Z</time>
      </trkpt>
      <trkpt lat="44.52794" lon="0.94915">
        <ele>113.57</ele>
        <time>2014-11-30T10:23:41Z</time>
      </trkpt>
      <trkpt lat="44.52847" lon="0.94938">
        <ele>109.25</ele>
        <time>2014-11-30T10:23:48Z</time>
      </trkpt>
      <trkpt lat="44.52853" lon="0.94938">
        <ele>108.29</ele>
        <time>2014-11-30T10:23:49Z</time>
      </trkpt>
      <trkpt lat="44.52858" lon="0.94935">
        <ele>107.81</ele>
        <time>2014-11-30T10:23:50Z</time>
      </trkpt>
      <trkpt lat="44.52862" lon="0.9493">
        <ele>106.84</ele>
        <time>2014-11-30T10:23:51Z</time>
      </trkpt>
      <trkpt lat="44.52865" lon="0.94923">
        <ele>106.36</ele>
        <time>2014-11-30T10:23:52Z</time>
      </trkpt>
      <trkpt lat="44.52869" lon="0.94916">
        <ele>105.4</ele>
        <time>2014-11-30T10:23:53Z</time>
      </trkpt>
      <trkpt lat="44.52913" lon="0.94829">
        <ele>98.67</ele>
        <time>2014-11-30T10:24:03Z</time>
      </trkpt>
      <trkpt lat="44.52919" lon="0.94824">
        <ele>97.71</ele>
        <time>2014-11-30T10:24:04Z</time>
      </trkpt>
      <trkpt lat="44.52927" lon="0.94821">
        <ele>97.23</ele>
        <time>2014-11-30T10:24:05Z</time>
      </trkpt>
      <trkpt lat="44.52934" lon="0.94821">
        <ele>96.75</ele>
        <time>2014-11-30T10:24:06Z</time>
      </trkpt>
      <trkpt lat="44.52942" lon="0.94821">
        <ele>96.75</ele>
        <time>2014-11-30T10:24:07Z</time>
      </trkpt>
      <trkpt lat="44.53071" lon="0.94847">
        <ele>90.5</ele>
        <time>2014-11-30T10:24:24Z</time>
      </trkpt>
      <trkpt lat="44.531" lon="0.94853">
        <ele>88.58</ele>
        <time>2014-11-30T10:24:31Z</time>
      </trkpt>
      <trkpt lat="44.53101" lon="0.94851">
        <ele>88.58</ele>
        <time>2014-11-30T10:24:32Z</time>
      </trkpt>
      <trkpt lat="44.53102" lon="0.94847">
        <ele>88.1</ele>
        <time>2014-11-30T10:24:46Z</time>
      </trkpt>
      <trkpt lat="44.53102" lon="0.94847">
        <ele>88.58</ele>
        <time>2014-11-30T10:25:06Z</time>
      </trkpt>
      <trkpt lat="44.53101" lon="0.94848">
        <ele>88.58</ele>
        <time>2014-11-30T10:25:31Z</time>
      </trkpt>
      <trkpt lat="44.53102" lon="0.94848">
        <ele>87.62</ele>
        <time>2014-11-30T10:25:56Z</time>
      </trkpt>
      <trkpt lat="44.53105" lon="0.94846">
        <ele>87.62</ele>
        <time>2014-11-30T10:26:15Z</time>
      </trkpt>
      <trkpt lat="44.53107" lon="0.94844">
        <ele>87.62</ele>
        <time>2014-11-30T10:26:16Z</time>
      </trkpt>
      <trkpt lat="44.53109" lon="0.94844">
        <ele>87.62</ele>
        <time>2014-11-30T10:26:17Z</time>
      </trkpt>
      <trkpt lat="44.53112" lon="0.94844">
        <ele>87.62</ele>
        <time>2014-11-30T10:26:18Z</time>
      </trkpt>
      <trkpt lat="44.53114" lon="0.94845">
        <ele>87.14</ele>
        <time>2014-11-30T10:26:19Z</time>
      </trkpt>
      <trkpt lat="44.53117" lon="0.94847">
        <ele>87.14</ele>
        <time>2014-11-30T10:26:20Z</time>
      </trkpt>
      <trkpt lat="44.5312" lon="0.94849">
        <ele>87.14</ele>
        <time>2014-11-30T10:26:21Z</time>
      </trkpt>
      <trkpt lat="44.53124" lon="0.94851">
        <ele>87.14</ele>
        <time>2014-11-30T10:26:22Z</time>
      </trkpt>
      <trkpt lat="44.53191" lon="0.94875">
        <ele>87.14</ele>
        <time>2014-11-30T10:26:39Z</time>
      </trkpt>
      <trkpt lat="44.53252" lon="0.94888">
        <ele>88.58</ele>
        <time>2014-11-30T10:26:53Z</time>
      </trkpt>
      <trkpt lat="44.53293" lon="0.94893">
        <ele>89.06</ele>
        <time>2014-11-30T10:27:02Z</time>
      </trkpt>
      <trkpt lat="44.53297" lon="0.94894">
        <ele>89.06</ele>
        <time>2014-11-30T10:27:03Z</time>
      </trkpt>
      <trkpt lat="44.53301" lon="0.94894">
        <ele>89.06</ele>
        <time>2014-11-30T10:27:04Z</time>
      </trkpt>
      <trkpt lat="44.53356" lon="0.94892">
        <ele>89.06</ele>
        <time>2014-11-30T10:27:18Z</time>
      </trkpt>
      <trkpt lat="44.53442" lon="0.94873">
        <ele>89.06</ele>
        <time>2014-11-30T10:27:38Z</time>
      </trkpt>
      <trkpt lat="44.53521" lon="0.94835">
        <ele>90.02</ele>
        <time>2014-11-30T10:27:57Z</time>
      </trkpt>
      <trkpt lat="44.53593" lon="0.94783">
        <ele>90.98</ele>
        <time>2014-11-30T10:28:14Z</time>
      </trkpt>
      <trkpt lat="44.53659" lon="0.94719">
        <ele>92.42</ele>
        <time>2014-11-30T10:28:31Z</time>
      </trkpt>
      <trkpt lat="44.53727" lon="0.94653">
        <ele>91.94</ele>
        <time>2014-11-30T10:28:50Z</time>
      </trkpt>
      <trkpt lat="44.53731" lon="0.9465">
        <ele>91.94</ele>
        <time>2014-11-30T10:28:51Z</time>
      </trkpt>
      <trkpt lat="44.53735" lon="0.94647">
        <ele>91.94</ele>
        <time>2014-11-30T10:28:52Z</time>
      </trkpt>
      <trkpt lat="44.53747" lon="0.9464">
        <ele>91.94</ele>
        <time>2014-11-30T10:28:55Z</time>
      </trkpt>
      <trkpt lat="44.53749" lon="0.94636">
        <ele>91.94</ele>
        <time>2014-11-30T10:28:56Z</time>
      </trkpt>
      <trkpt lat="44.5375" lon="0.94631">
        <ele>91.94</ele>
        <time>2014-11-30T10:28:57Z</time>
      </trkpt>
      <trkpt lat="44.5375" lon="0.94625">
        <ele>91.46</ele>
        <time>2014-11-30T10:28:58Z</time>
      </trkpt>
      <trkpt lat="44.53748" lon="0.94619">
        <ele>90.98</ele>
        <time>2014-11-30T10:28:59Z</time>
      </trkpt>
      <trkpt lat="44.5373" lon="0.94528">
        <ele>88.1</ele>
        <time>2014-11-30T10:29:10Z</time>
      </trkpt>
      <trkpt lat="44.53721" lon="0.9446">
        <ele>88.1</ele>
        <time>2014-11-30T10:29:20Z</time>
      </trkpt>
      <trkpt lat="44.53718" lon="0.94454">
        <ele>88.58</ele>
        <time>2014-11-30T10:29:21Z</time>
      </trkpt>
      <trkpt lat="44.53715" lon="0.9445">
        <ele>88.58</ele>
        <time>2014-11-30T10:29:22Z</time>
      </trkpt>
      <trkpt lat="44.53712" lon="0.94446">
        <ele>88.58</ele>
        <time>2014-11-30T10:29:23Z</time>
      </trkpt>
      <trkpt lat="44.53708" lon="0.94443">
        <ele>88.58</ele>
        <time>2014-11-30T10:29:24Z</time>
      </trkpt>
      <trkpt lat="44.53704" lon="0.94441">
        <ele>88.58</ele>
        <time>2014-11-30T10:29:25Z</time>
      </trkpt>
      <trkpt lat="44.53699" lon="0.94439">
        <ele>89.06</ele>
        <time>2014-11-30T10:29:26Z</time>
      </trkpt>
      <trkpt lat="44.53695" lon="0.94437">
        <ele>89.06</ele>
        <time>2014-11-30T10:29:27Z</time>
      </trkpt>
      <trkpt lat="44.53646" lon="0.94414">
        <ele>89.54</ele>
        <time>2014-11-30T10:29:38Z</time>
      </trkpt>
      <trkpt lat="44.53577" lon="0.94345">
        <ele>90.02</ele>
        <time>2014-11-30T10:29:55Z</time>
      </trkpt>
      <trkpt lat="44.53502" lon="0.94302">
        <ele>89.54</ele>
        <time>2014-11-30T10:30:11Z</time>
      </trkpt>
      <trkpt lat="44.53499" lon="0.94298">
        <ele>89.54</ele>
        <time>2014-11-30T10:30:12Z</time>
      </trkpt>
      <trkpt lat="44.53496" lon="0.94293">
        <ele>89.54</ele>
        <time>2014-11-30T10:30:13Z</time>
      </trkpt>
      <trkpt lat="44.53494" lon="0.94287">
        <ele>89.54</ele>
        <time>2014-11-30T10:30:14Z</time>
      </trkpt>
      <trkpt lat="44.53494" lon="0.94281">
        <ele>90.02</ele>
        <time>2014-11-30T10:30:15Z</time>
      </trkpt>
      <trkpt lat="44.53494" lon="0.94275">
        <ele>90.02</ele>
        <time>2014-11-30T10:30:16Z</time>
      </trkpt>
      <trkpt lat="44.53495" lon="0.9427">
        <ele>90.02</ele>
        <time>2014-11-30T10:30:17Z</time>
      </trkpt>
      <trkpt lat="44.53498" lon="0.94266">
        <ele>90.02</ele>
        <time>2014-11-30T10:30:18Z</time>
      </trkpt>
      <trkpt lat="44.53501" lon="0.94262">
        <ele>90.5</ele>
        <time>2014-11-30T10:30:19Z</time>
      </trkpt>
      <trkpt lat="44.53504" lon="0.94259">
        <ele>90.5</ele>
        <time>2014-11-30T10:30:20Z</time>
      </trkpt>
      <trkpt lat="44.53508" lon="0.94257">
        <ele>90.02</ele>
        <time>2014-11-30T10:30:21Z</time>
      </trkpt>
      <trkpt lat="44.53513" lon="0.94257">
        <ele>90.02</ele>
        <time>2014-11-30T10:30:22Z</time>
      </trkpt>
      <trkpt lat="44.53517" lon="0.94258">
        <ele>90.02</ele>
        <time>2014-11-30T10:30:23Z</time>
      </trkpt>
      <trkpt lat="44.53579" lon="0.94279">
        <ele>90.98</ele>
        <time>2014-11-30T10:30:37Z</time>
      </trkpt>
      <trkpt lat="44.53583" lon="0.94281">
        <ele>90.98</ele>
        <time>2014-11-30T10:30:38Z</time>
      </trkpt>
      <trkpt lat="44.53613" lon="0.94296">
        <ele>90.5</ele>
        <time>2014-11-30T10:30:45Z</time>
      </trkpt>
      <trkpt lat="44.53646" lon="0.94314">
        <ele>90.02</ele>
        <time>2014-11-30T10:30:53Z</time>
      </trkpt>
      <trkpt lat="44.53669" lon="0.9433">
        <ele>89.06</ele>
        <time>2014-11-30T10:30:59Z</time>
      </trkpt>
      <trkpt lat="44.53706" lon="0.94337">
        <ele>90.5</ele>
        <time>2014-11-30T10:31:09Z</time>
      </trkpt>
      <trkpt lat="44.53723" lon="0.94341">
        <ele>90.02</ele>
        <time>2014-11-30T10:31:13Z</time>
      </trkpt>
      <trkpt lat="44.53769" lon="0.94368">
        <ele>91.46</ele>
        <time>2014-11-30T10:31:25Z</time>
      </trkpt>
      <trkpt lat="44.53828" lon="0.94402">
        <ele>90.98</ele>
        <time>2014-11-30T10:31:40Z</time>
      </trkpt>
      <trkpt lat="44.53883" lon="0.94443">
        <ele>91.46</ele>
        <time>2014-11-30T10:31:55Z</time>
      </trkpt>
      <trkpt lat="44.53932" lon="0.94473">
        <ele>91.94</ele>
        <time>2014-11-30T10:32:09Z</time>
      </trkpt>
      <trkpt lat="44.53972" lon="0.94477">
        <ele>93.39</ele>
        <time>2014-11-30T10:32:21Z</time>
      </trkpt>
      <trkpt lat="44.5402" lon="0.94465">
        <ele>93.87</ele>
        <time>2014-11-30T10:32:35Z</time>
      </trkpt>
      <trkpt lat="44.54062" lon="0.94451">
        <ele>93.39</ele>
        <time>2014-11-30T10:32:48Z</time>
      </trkpt>
      <trkpt lat="44.54097" lon="0.94426">
        <ele>94.83</ele>
        <time>2014-11-30T10:33:01Z</time>
      </trkpt>
      <trkpt lat="44.54148" lon="0.94394">
        <ele>94.83</ele>
        <time>2014-11-30T10:33:17Z</time>
      </trkpt>
      <trkpt lat="44.54151" lon="0.9439">
        <ele>94.83</ele>
        <time>2014-11-30T10:33:18Z</time>
      </trkpt>
      <trkpt lat="44.54158" lon="0.94382">
        <ele>94.35</ele>
        <time>2014-11-30T10:33:20Z</time>
      </trkpt>
      <trkpt lat="44.54161" lon="0.94379">
        <ele>93.87</ele>
        <time>2014-11-30T10:33:21Z</time>
      </trkpt>
      <trkpt lat="44.54164" lon="0.94377">
        <ele>93.87</ele>
        <time>2014-11-30T10:33:22Z</time>
      </trkpt>
      <trkpt lat="44.54177" lon="0.94368">
        <ele>92.9</ele>
        <time>2014-11-30T10:33:26Z</time>
      </trkpt>
      <trkpt lat="44.5418" lon="0.94364">
        <ele>92.42</ele>
        <time>2014-11-30T10:33:27Z</time>
      </trkpt>
      <trkpt lat="44.54182" lon="0.9436">
        <ele>92.42</ele>
        <time>2014-11-30T10:33:28Z</time>
      </trkpt>
      <trkpt lat="44.54212" lon="0.94302">
        <ele>91.46</ele>
        <time>2014-11-30T10:33:42Z</time>
      </trkpt>
      <trkpt lat="44.54222" lon="0.94234">
        <ele>92.9</ele>
        <time>2014-11-30T10:33:56Z</time>
      </trkpt>
      <trkpt lat="44.54221" lon="0.94165">
        <ele>96.27</ele>
        <time>2014-11-30T10:34:10Z</time>
      </trkpt>
      <trkpt lat="44.54222" lon="0.94161">
        <ele>96.75</ele>
        <time>2014-11-30T10:34:11Z</time>
      </trkpt>
      <trkpt lat="44.54251" lon="0.94147">
        <ele>99.63</ele>
        <time>2014-11-30T10:34:22Z</time>
      </trkpt>
      <trkpt lat="44.54299" lon="0.94146">
        <ele>102.04</ele>
        <time>2014-11-30T10:34:34Z</time>
      </trkpt>
      <trkpt lat="44.54344" lon="0.9416">
        <ele>102.52</ele>
        <time>2014-11-30T10:34:47Z</time>
      </trkpt>
      <trkpt lat="44.54362" lon="0.94207">
        <ele>99.63</ele>
        <time>2014-11-30T10:34:57Z</time>
      </trkpt>
      <trkpt lat="44.5438" lon="0.94232">
        <ele>95.31</ele>
        <time>2014-11-30T10:35:03Z</time>
      </trkpt>
      <trkpt lat="44.54411" lon="0.94266">
        <ele>90.02</ele>
        <time>2014-11-30T10:35:16Z</time>
      </trkpt>
      <trkpt lat="44.54446" lon="0.94305">
        <ele>92.42</ele>
        <time>2014-11-30T10:35:28Z</time>
      </trkpt>
      <trkpt lat="44.54476" lon="0.94332">
        <ele>93.87</ele>
        <time>2014-11-30T10:35:39Z</time>
      </trkpt>
      <trkpt lat="44.54507" lon="0.94367">
        <ele>93.87</ele>
        <time>2014-11-30T10:35:51Z</time>
      </trkpt>
      <trkpt lat="44.54532" lon="0.94421">
        <ele>96.75</ele>
        <time>2014-11-30T10:36:05Z</time>
      </trkpt>
      <trkpt lat="44.54545" lon="0.94468">
        <ele>99.63</ele>
        <time>2014-11-30T10:36:18Z</time>
      </trkpt>
      <trkpt lat="44.54562" lon="0.94513">
        <ele>101.56</ele>
        <time>2014-11-30T10:36:33Z</time>
      </trkpt>
      <trkpt lat="44.5458" lon="0.94532">
        <ele>103</ele>
        <time>2014-11-30T10:36:41Z</time>
      </trkpt>
      <trkpt lat="44.5458" lon="0.94535">
        <ele>103.48</ele>
        <time>2014-11-30T10:36:42Z</time>
      </trkpt>
      <trkpt lat="44.5458" lon="0.94538">
        <ele>103.48</ele>
        <time>2014-11-30T10:36:43Z</time>
      </trkpt>
      <trkpt lat="44.5458" lon="0.94542">
        <ele>103.48</ele>
        <time>2014-11-30T10:36:44Z</time>
      </trkpt>
      <trkpt lat="44.54579" lon="0.94546">
        <ele>103.96</ele>
        <time>2014-11-30T10:36:45Z</time>
      </trkpt>
      <trkpt lat="44.54577" lon="0.94558">
        <ele>103.96</ele>
        <time>2014-11-30T10:36:56Z</time>
      </trkpt>
      <trkpt lat="44.54575" lon="0.94566">
        <ele>103.48</ele>
        <time>2014-11-30T10:37:03Z</time>
      </trkpt>
      <trkpt lat="44.54575" lon="0.94568">
        <ele>103.48</ele>
        <time>2014-11-30T10:37:04Z</time>
      </trkpt>
      <trkpt lat="44.54574" lon="0.9457">
        <ele>103.48</ele>
        <time>2014-11-30T10:37:05Z</time>
      </trkpt>
      <trkpt lat="44.54573" lon="0.94572">
        <ele>103.48</ele>
        <time>2014-11-30T10:37:06Z</time>
      </trkpt>
      <trkpt lat="44.54571" lon="0.94574">
        <ele>103.48</ele>
        <time>2014-11-30T10:37:07Z</time>
      </trkpt>
      <trkpt lat="44.54544" lon="0.94597">
        <ele>101.08</ele>
        <time>2014-11-30T10:37:15Z</time>
      </trkpt>
      <trkpt lat="44.54539" lon="0.94601">
        <ele>100.6</ele>
        <time>2014-11-30T10:37:16Z</time>
      </trkpt>
      <trkpt lat="44.54535" lon="0.94606">
        <ele>100.11</ele>
        <time>2014-11-30T10:37:17Z</time>
      </trkpt>
      <trkpt lat="44.54531" lon="0.94612">
        <ele>99.63</ele>
        <time>2014-11-30T10:37:18Z</time>
      </trkpt>
      <trkpt lat="44.54529" lon="0.94619">
        <ele>99.15</ele>
        <time>2014-11-30T10:37:19Z</time>
      </trkpt>
      <trkpt lat="44.54527" lon="0.94628">
        <ele>98.67</ele>
        <time>2014-11-30T10:37:20Z</time>
      </trkpt>
      <trkpt lat="44.54525" lon="0.94638">
        <ele>98.19</ele>
        <time>2014-11-30T10:37:21Z</time>
      </trkpt>
      <trkpt lat="44.54525" lon="0.94649">
        <ele>97.71</ele>
        <time>2014-11-30T10:37:22Z</time>
      </trkpt>
      <trkpt lat="44.54524" lon="0.94659">
        <ele>97.23</ele>
        <time>2014-11-30T10:37:23Z</time>
      </trkpt>
      <trkpt lat="44.54516" lon="0.94729">
        <ele>94.35</ele>
        <time>2014-11-30T10:37:30Z</time>
      </trkpt>
      <trkpt lat="44.54476" lon="0.94828">
        <ele>92.42</ele>
        <time>2014-11-30T10:37:43Z</time>
      </trkpt>
      <trkpt lat="44.54475" lon="0.94833">
        <ele>91.94</ele>
        <time>2014-11-30T10:37:44Z</time>
      </trkpt>
      <trkpt lat="44.54476" lon="0.94837">
        <ele>91.94</ele>
        <time>2014-11-30T10:37:45Z</time>
      </trkpt>
      <trkpt lat="44.54478" lon="0.94841">
        <ele>91.94</ele>
        <time>2014-11-30T10:37:46Z</time>
      </trkpt>
      <trkpt lat="44.54482" lon="0.94845">
        <ele>91.94</ele>
        <time>2014-11-30T10:37:47Z</time>
      </trkpt>
      <trkpt lat="44.54486" lon="0.94849">
        <ele>91.94</ele>
        <time>2014-11-30T10:37:48Z</time>
      </trkpt>
      <trkpt lat="44.5449" lon="0.94853">
        <ele>91.94</ele>
        <time>2014-11-30T10:37:49Z</time>
      </trkpt>
      <trkpt lat="44.54521" lon="0.94869">
        <ele>92.9</ele>
        <time>2014-11-30T10:38:00Z</time>
      </trkpt>
      <trkpt lat="44.54525" lon="0.94867">
        <ele>91.94</ele>
        <time>2014-11-30T10:38:10Z</time>
      </trkpt>
    </trkseg>
  </trk>
</gpx>